Provisional Data: Lackawanna River near Forest City, PA


Please select a monitoring station.
Please select start date.
Please select start date.

Toggle Unit: C/F Toggle Unit: C/F
Sample Time Temperature (C) Temperature (F) Specific Conductivity (mS/cm) pH   Turbidity (NTU+) DO (mg/L)
10/22/2021 12:00:00 AM 13.59 56.462 0.17 5.94 99.33 0.16
10/22/2021 12:15:00 AM 13.56 56.408 0.17 5.93 102.4 0.16
10/22/2021 12:30:00 AM 13.53 56.354 0.17 5.99 105.19 0.16
10/22/2021 12:45:00 AM 13.5 56.3 0.17 5.92 94.78 0.16
10/22/2021 1:00:00 AM 13.47 56.246 0.169 5.98 93.74 0.16
10/22/2021 1:15:00 AM 13.45 56.21 0.169 5.99 91 0.16
10/22/2021 1:30:00 AM 13.42 56.156 0.169 5.99 91.8 0.16
10/22/2021 1:45:00 AM 13.39 56.102 0.169 5.98 93.27 0.16
10/22/2021 2:00:00 AM 13.37 56.066 0.168 5.94 100.75 0.16
10/22/2021 2:15:00 AM 13.35 56.03 0.168 5.94 97.27 0.16
10/22/2021 2:30:00 AM 13.32 55.976 0.167 5.97 100.86 0.16
10/22/2021 2:45:00 AM 13.3 55.94 0.167 5.94 102.27 0.16
10/22/2021 3:00:00 AM 13.28 55.904 0.167 5.97 104.45 0.16
10/22/2021 3:15:00 AM 13.27 55.886 0.166 5.93 105.83 0.16
10/22/2021 3:30:00 AM 13.25 55.85 0.166 6 100.36 0.16
10/22/2021 3:45:00 AM 13.23 55.814 0.166 5.98 107.36 0.16
10/22/2021 4:00:00 AM 13.22 55.796 0.166 5.93 104.04 0.16
10/22/2021 4:15:00 AM 13.2 55.76 0.165 5.96 98.49 0.16
10/22/2021 4:30:00 AM 13.19 55.742 0.165 5.94 95.07 0.16
10/22/2021 4:45:00 AM 13.17 55.706 0.164 6 95.77 0.17
10/22/2021 5:00:00 AM 13.16 55.688 0.164 6 110.33 0.17
10/22/2021 5:15:00 AM 13.14 55.652 0.163 5.92 109.37 0.17
10/22/2021 5:30:00 AM 13.13 55.634 0.162 5.99 111.45 0.17
10/22/2021 5:45:00 AM 13.11 55.598 0.161 5.98 113.77 0.17
10/22/2021 6:00:00 AM 13.09 55.562 0.162 5.97 112.61 0.17
10/22/2021 6:15:00 AM 13.08 55.544 0.161 5.93 104.86 0.17
10/22/2021 6:30:00 AM 13.06 55.508 0.161 5.93 99.34 0.17
10/22/2021 6:45:00 AM 13.04 55.472 0.161 5.94 99.16 0.17
10/22/2021 7:00:00 AM 13.02 55.436 0.16 5.93 88.17 0.17
10/22/2021 7:15:00 AM 13 55.4 0.159 5.99 102.72 0.17
10/22/2021 7:30:00 AM 12.98 55.364 0.16 5.93 97.9 0.17
10/22/2021 7:45:00 AM 12.96 55.328 0.158 5.92 120.77 0.17
10/22/2021 8:00:00 AM 12.93 55.274 0.158 6.01 108.12 0.17
10/22/2021 8:15:00 AM 12.91 55.238 0.157 5.92 99.23 0.17
10/22/2021 8:30:00 AM 12.89 55.202 0.156 5.98 98.02 0.17
10/22/2021 8:45:00 AM 12.87 55.166 0.155 5.93 103.13 0.17
10/22/2021 9:00:00 AM 12.85 55.13 0.154 5.93 104.21 0.17
10/22/2021 9:15:00 AM 12.84 55.112 0.154 5.94 94.86 0.17
10/22/2021 9:30:00 AM 12.83 55.094 0.153 6 98.56 0.17
10/22/2021 9:45:00 AM 12.82 55.076 0.152 5.96 102.68 0.17
10/22/2021 10:00:00 AM 12.82 55.076 0.151 5.94 94.66 0.17
10/22/2021 10:15:00 AM 12.82 55.076 0.15 5.92 96.09 0.17
10/22/2021 10:30:00 AM 12.82 55.076 0.15 5.96 101.44 0.17
10/22/2021 10:45:00 AM 12.82 55.076 0.15 5.99 96.68 0.17
10/22/2021 11:00:00 AM 12.82 55.076 0.149 5.93 104.3 0.17
10/22/2021 11:15:00 AM 12.83 55.094 0.149 5.98 103.66 0.17
10/22/2021 11:30:00 AM 12.83 55.094 0.147 5.9 101.73 0.17
10/22/2021 11:45:00 AM 12.85 55.13 0.147 5.97 123.78 0.17
10/22/2021 12:00:00 PM 12.87 55.166 0.146 6 112.63 0.17
10/22/2021 12:15:00 PM 12.9 55.22 0.147 5.96 87.07 0.17
10/22/2021 12:30:00 PM 12.93 55.274 0.146 5.96 103.36 0.17
10/22/2021 12:45:00 PM 12.96 55.328 0.145 6 110.01 0.17
10/22/2021 1:00:00 PM 12.99 55.382 0.144 5.97 110.16 0.17
10/22/2021 1:15:00 PM 13.02 55.436 0.144 6.01 100.21 0.17
10/22/2021 1:30:00 PM 13.04 55.472 0.143 5.99 108.27 0.17
10/22/2021 1:45:00 PM 13.07 55.526 0.142 5.96 92.4 0.17
10/22/2021 2:00:00 PM 13.11 55.598 0.141 5.96 88.1 0.17
10/22/2021 2:15:00 PM 13.15 55.67 0.141 5.96 111.52 0.17
10/22/2021 2:30:00 PM 13.19 55.742 0.143 5.94 98.81 0.17
10/22/2021 2:45:00 PM 13.24 55.832 0.144 5.96 97.33 0.17
10/22/2021 3:00:00 PM 13.28 55.904 0.146 5.96 76.03 0.17
10/22/2021 3:15:00 PM 13.32 55.976 0.147 5.92 80.41 0.17
10/22/2021 3:30:00 PM 13.34 56.012 0.147 6.02 66.18 0.17
10/22/2021 3:45:00 PM 13.36 56.048 0.148 5.99 80.18 0.17
10/22/2021 4:00:00 PM 13.37 56.066 0.149 6.01 55.1 0.17
10/22/2021 4:15:00 PM 13.38 56.084 0.148 5.95 68.79 0.17
10/22/2021 4:30:00 PM 13.38 56.084 0.15 6.01 70.18 0.17
10/22/2021 4:45:00 PM 13.39 56.102 0.15 5.96 66.59 0.17
10/22/2021 5:00:00 PM 13.39 56.102 0.15 5.99 68.54 0.17
10/22/2021 5:15:00 PM 13.38 56.084 0.149 6.06 72.83 0.17
10/22/2021 5:30:00 PM 13.37 56.066 0.15 6.01 73.99 0.17
10/22/2021 5:45:00 PM 13.36 56.048 0.15 5.99 60.39 0.17
10/22/2021 6:00:00 PM 13.35 56.03 0.15 6.04 82.07 0.17
10/22/2021 6:15:00 PM 13.34 56.012 0.151 6.01 63.73 0.17
10/22/2021 6:30:00 PM 13.32 55.976 0.15 5.94 72.85 0.17
10/22/2021 6:45:00 PM 13.32 55.976 0.149 6.04 75.74 0.17
10/22/2021 7:00:00 PM 13.31 55.958 0.15 5.98 57.45 0.17
10/22/2021 7:15:00 PM 13.3 55.94 0.15 6 70.25 0.17
10/22/2021 7:30:00 PM 13.28 55.904 0.148 5.93 70.76 0.17
10/22/2021 7:45:00 PM 13.27 55.886 0.149 5.97 66.2 0.17
10/22/2021 8:00:00 PM 13.26 55.868 0.149 5.93 62.12 0.17
10/22/2021 8:15:00 PM 13.25 55.85 0.148 5.95 79.14 0.17
10/22/2021 8:30:00 PM 13.22 55.796 0.149 5.93 85.26 0.17
10/22/2021 8:45:00 PM 13.21 55.778 0.15 5.94 79.33 0.17
10/22/2021 9:00:00 PM 13.19 55.742 0.15 5.91 86.6 0.17
10/22/2021 9:15:00 PM 13.16 55.688 0.149 5.95 117.66 0.17
10/22/2021 9:30:00 PM 13.13 55.634 0.149 5.91 88.43 0.17
10/22/2021 9:45:00 PM 13.1 55.58 0.148 5.94 76.74 0.17
10/22/2021 10:00:00 PM 13.08 55.544 0.149 5.93 60.23 0.17
10/22/2021 10:15:00 PM 13.05 55.49 0.148 6 78.46 0.17
10/22/2021 10:30:00 PM 13.02 55.436 0.148 5.96 85.67 0.17
10/22/2021 10:45:00 PM 12.99 55.382 0.148 5.93 72.73 0.17
10/22/2021 11:00:00 PM 12.95 55.31 0.147 5.9 86.39 0.17
10/22/2021 11:15:00 PM 12.92 55.256 0.147 5.88 79.93 0.17
10/22/2021 11:30:00 PM 12.88 55.184 0.147 5.85 63.76 0.17
10/22/2021 11:45:00 PM 12.85 55.13 0.147 5.94 85.33 0.17
10/23/2021 12:00:00 AM 12.82 55.076 0.147 5.94 76 0.17
10/23/2021 12:15:00 AM 12.79 55.022 0.147 6 73.13 0.17
10/23/2021 12:30:00 AM 12.75 54.95 0.147 5.98 77.08 0.17
10/23/2021 12:45:00 AM 12.71 54.878 0.148 5.97 95.7 0.17
10/23/2021 1:00:00 AM 12.68 54.824 0.148 5.92 172.21 0.17
10/23/2021 1:15:00 AM 12.64 54.752 0.148 5.93 623.93 0.17
10/23/2021 1:30:00 AM 12.6 54.68 0.148 5.98 451.1 0.17
10/23/2021 1:45:00 AM 12.57 54.626 0.149 5.99 249.64 0.17
10/23/2021 2:00:00 AM 12.53 54.554 0.149 5.96 281.68 0.17
10/23/2021 2:15:00 AM 12.5 54.5 0.148 6 210.42 0.17
10/23/2021 2:30:00 AM 12.46 54.428 0.147 5.95 115.89 0.17
10/23/2021 2:45:00 AM 12.42 54.356 0.148 5.96 133.63 0.17
10/23/2021 3:00:00 AM 12.39 54.302 0.147 5.94 406.74 0.17
10/23/2021 3:15:00 AM 12.35 54.23 0.146 5.98 477.5 0.17
10/23/2021 3:30:00 AM 12.32 54.176 0.146 6 202.12 0.17
10/23/2021 3:45:00 AM 12.28 54.104 0.146 5.93 105.77 0.17
10/23/2021 4:00:00 AM 12.26 54.068 0.145 5.98 886.7 0.17
10/23/2021 4:15:00 AM 12.23 54.014 0.145 5.88 198.88 0.17
10/23/2021 4:30:00 AM 12.2 53.96 0.146 5.92 877.66 0.17
10/23/2021 4:45:00 AM 12.18 53.924 0.148 5.91 536 0.17
10/23/2021 5:00:00 AM 12.15 53.87 0.149 5.98 1086.05 0.17
10/23/2021 5:15:00 AM 12.13 53.834 0.149 5.96 371.85 0.17
10/23/2021 5:30:00 AM 12.1 53.78 0.149 5.9 201.5 0.17
10/23/2021 5:45:00 AM 12.09 53.762 0.15 5.92 281.26 0.17
10/23/2021 6:00:00 AM 12.07 53.726 0.149 5.96 319.31 0.17
10/23/2021 6:15:00 AM 12.05 53.69 0.148 5.95 194.85 0.17
10/23/2021 6:30:00 AM 12.03 53.654 0.148 5.92 115.04 0.17
10/23/2021 6:45:00 AM 12.01 53.618 0.148 5.87 123.89 0.17
10/23/2021 7:00:00 AM 12 53.6 0.147 5.97 162.52 0.17
10/23/2021 7:15:00 AM 11.98 53.564 0.146 5.96 122.86 0.17
10/23/2021 7:30:00 AM 11.96 53.528 0.146 5.87 105.53 0.17
10/23/2021 7:45:00 AM 11.94 53.492 0.146 5.96 97.37 0.17
10/23/2021 8:00:00 AM 11.93 53.474 0.145 5.93 105.01 0.18
10/23/2021 8:15:00 AM 11.91 53.438 0.144 5.93 136.52 0.17
10/23/2021 8:30:00 AM 11.89 53.402 0.144 5.91 511.09 0.18
10/23/2021 8:45:00 AM 11.88 53.384 0.143 5.94 601.26 0.18
10/23/2021 9:00:00 AM 11.87 53.366 0.143 5.99 263.25 0.18
10/23/2021 9:15:00 AM 11.86 53.348 0.144 5.94 942.77 0.18
10/23/2021 9:30:00 AM 11.85 53.33 0.143 5.93 315.19 0.18
10/23/2021 9:45:00 AM 11.84 53.312 0.143 6 605.47 0.18
10/23/2021 10:00:00 AM 11.84 53.312 0.142 5.98 647.37 0.18
10/23/2021 10:15:00 AM 11.84 53.312 0.142 5.91 495.48 0.17
10/23/2021 10:30:00 AM 11.84 53.312 0.142 5.97 402.42 0.18
10/23/2021 10:45:00 AM 11.85 53.33 0.143 5.93 677.59 0.17
10/23/2021 11:00:00 AM 11.87 53.366 0.144 5.91 743.35 0.17
10/23/2021 11:15:00 AM 11.89 53.402 0.145 5.91 611.17 0.17
10/23/2021 11:30:00 AM 11.92 53.456 0.146 5.93 363.76 0.17
10/23/2021 11:45:00 AM 11.95 53.51 0.146 5.92 313.18 0.17
10/23/2021 12:00:00 PM 11.99 53.582 0.146 5.98 273.03 0.17
10/23/2021 12:15:00 PM 12.03 53.654 0.147 5.95 264.32 0.18
10/23/2021 12:30:00 PM 12.07 53.726 0.147 5.94 258.37 0.18
10/23/2021 12:45:00 PM 12.12 53.816 0.147 5.92 269.28 0.18
10/23/2021 1:00:00 PM 12.17 53.906 0.147 5.95 456.95 0.18
10/23/2021 1:15:00 PM 12.21 53.978 0.148 5.93 588.61 0.17
10/23/2021 1:30:00 PM 12.26 54.068 0.148 5.98 1076.49 0.17
10/23/2021 1:45:00 PM 12.31 54.158 0.148 5.98 618.3 0.17
10/23/2021 2:00:00 PM 12.37 54.266 0.149 5.96 839.18 0.17
10/23/2021 2:15:00 PM 12.42 54.356 0.15 5.93 677.76 0.17
10/23/2021 2:30:00 PM 12.47 54.446 0.15 5.95 482.12 0.17
10/23/2021 2:45:00 PM 12.52 54.536 0.151 5.96 418.63 0.17
10/23/2021 3:00:00 PM 12.55 54.59 0.153 5.98 347.04 0.17
10/23/2021 3:15:00 PM 12.58 54.644 0.154 5.95 511.53 0.17
10/23/2021 3:30:00 PM 12.59 54.662 0.155 5.94 518.42 0.17
10/23/2021 3:45:00 PM 12.61 54.698 0.156 6.01 466.73 0.17
10/23/2021 4:00:00 PM 12.62 54.716 0.157 5.98 332.53 0.17
10/23/2021 4:15:00 PM 12.62 54.716 0.157 5.98 332.44 0.17
10/23/2021 4:30:00 PM 12.62 54.716 0.158 5.92 344.63 0.17
10/23/2021 4:45:00 PM 12.62 54.716 0.159 5.96 414.6 0.17
10/23/2021 5:00:00 PM 12.61 54.698 0.16 5.98 387.58 0.17
10/23/2021 5:15:00 PM 12.61 54.698 0.16 5.97 349.19 0.17
10/23/2021 5:30:00 PM 12.6 54.68 0.161 5.96 308.6 0.17
10/23/2021 5:45:00 PM 12.59 54.662 0.162 5.94 387.25 0.17
10/23/2021 6:00:00 PM 12.58 54.644 0.162 5.94 405.15 0.17
10/23/2021 6:15:00 PM 12.57 54.626 0.163 5.95 330.59 0.17
10/23/2021 6:30:00 PM 12.55 54.59 0.164 5.95 284.19 0.17
10/23/2021 6:45:00 PM 12.54 54.572 0.164 5.95 246.97 0.17
10/23/2021 7:00:00 PM 12.53 54.554 0.165 5.93 240.93 0.17
10/23/2021 7:15:00 PM 12.51 54.518 0.165 5.95 318.87 0.17
10/23/2021 7:30:00 PM 12.5 54.5 0.166 5.91 289.92 0.17
10/23/2021 7:45:00 PM 12.48 54.464 0.167 5.94 577.81 0.17
10/23/2021 8:00:00 PM 12.47 54.446 0.167 6.01 359.06 0.17
10/23/2021 8:15:00 PM 12.45 54.41 0.168 5.92 189.48 0.17
10/23/2021 8:30:00 PM 12.43 54.374 0.169 5.98 132.41 0.17
10/23/2021 8:45:00 PM 12.41 54.338 0.169 5.97 358.16 0.17
10/23/2021 9:00:00 PM 12.4 54.32 0.17 5.94 746.12 0.17
10/23/2021 9:15:00 PM 12.38 54.284 0.171 6 718.25 0.17
10/23/2021 9:30:00 PM 12.36 54.248 0.171 5.95 274.84 0.18
10/23/2021 9:45:00 PM 12.34 54.212 0.172 5.97 436.93 0.18
10/23/2021 10:00:00 PM 12.31 54.158 0.173 5.92 211.37 0.18
10/23/2021 10:15:00 PM 12.29 54.122 0.173 5.91 136.84 0.18
10/23/2021 10:30:00 PM 12.27 54.086 0.174 5.92 160.36 0.18
10/23/2021 10:45:00 PM 12.25 54.05 0.175 5.95 150.31 0.18
10/23/2021 11:00:00 PM 12.23 54.014 0.175 5.96 181.75 0.18
10/23/2021 11:15:00 PM 12.21 53.978 0.176 5.95 208.78 0.17
10/23/2021 11:30:00 PM 12.18 53.924 0.177 5.93 233.5 0.17
10/23/2021 11:45:00 PM 12.15 53.87 0.177 6 200.75 0.17
10/24/2021 12:00:00 AM 12.12 53.816 0.177 5.95 270.82 0.17
10/24/2021 12:15:00 AM 12.09 53.762 0.178 5.92 229.92 0.17
10/24/2021 12:30:00 AM 12.06 53.708 0.178 5.95 162.41 0.17
10/24/2021 12:45:00 AM 12.04 53.672 0.179 5.97 147.3 0.17
10/24/2021 1:00:00 AM 12.01 53.618 0.179 5.99 175.1 0.17
10/24/2021 1:15:00 AM 11.99 53.582 0.18 5.93 910.55 0.17
10/24/2021 1:30:00 AM 11.96 53.528 0.18 5.88 655.34 0.17
10/24/2021 1:45:00 AM 11.94 53.492 0.181 5.98 724.79 0.17
10/24/2021 2:00:00 AM 11.92 53.456 0.181 5.99 453.28 0.17
10/24/2021 2:15:00 AM 11.9 53.42 0.181 5.98 250.41 0.17
10/24/2021 2:30:00 AM 11.87 53.366 0.182 5.98 290.8 0.18
10/24/2021 2:45:00 AM 11.85 53.33 0.182 5.91 182.06 0.18
10/24/2021 3:00:00 AM 11.82 53.276 0.182 5.93 173.1 0.18
10/24/2021 3:15:00 AM 11.8 53.24 0.183 5.98 143.99 0.18
10/24/2021 3:30:00 AM 11.77 53.186 0.183 5.92 122.34 0.18
10/24/2021 3:45:00 AM 11.74 53.132 0.184 5.92 148.71 0.18
10/24/2021 4:00:00 AM 11.71 53.078 0.184 5.92 155.9 0.18
10/24/2021 4:15:00 AM 11.68 53.024 0.184 5.98 144.99 0.18
10/24/2021 4:30:00 AM 11.66 52.988 0.185 5.95 115.46 0.18
10/24/2021 4:45:00 AM 11.63 52.934 0.185 5.93 119.25 0.18
10/24/2021 5:00:00 AM 11.61 52.898 0.185 5.89 134.46 0.18
10/24/2021 5:15:00 AM 11.59 52.862 0.186 5.95 1134.26 0.18
10/24/2021 5:30:00 AM 11.56 52.808 0.186 5.89 452.32 0.18
10/24/2021 5:45:00 AM 11.54 52.772 0.186 5.93 214.01 0.18
10/24/2021 6:00:00 AM 11.52 52.736 0.187 5.9 163.7 0.18
10/24/2021 6:15:00 AM 11.5 52.7 0.187 5.94 176.75 0.18
10/24/2021 6:30:00 AM 11.49 52.682 0.187 5.94 151.21 0.18
10/24/2021 6:45:00 AM 11.47 52.646 0.187 5.91 127.66 0.18
10/24/2021 7:00:00 AM 11.45 52.61 0.188 5.94 112.71 0.18
10/24/2021 7:15:00 AM 11.44 52.592 0.188 5.95 100.44 0.18
10/24/2021 7:30:00 AM 11.42 52.556 0.188 5.95 167.65 0.18
10/24/2021 7:45:00 AM 11.4 52.52 0.189 5.97 1690.95 0.18
10/24/2021 8:00:00 AM 11.39 52.502 0.189 5.91 640.93 0.18
10/24/2021 8:15:00 AM 11.37 52.466 0.19 5.93 203.88 0.18
10/24/2021 8:30:00 AM 11.35 52.43 0.19 6 162.12 0.18
10/24/2021 8:45:00 AM 11.33 52.394 0.189 5.98 167.14 0.18
10/24/2021 9:00:00 AM 11.31 52.358 0.19 5.95 154.69 0.18
10/24/2021 9:15:00 AM 11.29 52.322 0.19 5.93 455.12 0.18
10/24/2021 9:30:00 AM 11.27 52.286 0.19 5.94 387.3 0.18
10/24/2021 9:45:00 AM 11.25 52.25 0.19 5.95 307.31 0.18
10/24/2021 10:00:00 AM 11.24 52.232 0.189 5.92 1014.62 0.18
10/24/2021 10:15:00 AM 11.23 52.214 0.189 5.99 978.19 0.18
10/24/2021 10:30:00 AM 11.22 52.196 0.189 5.98 710.61 0.18
10/24/2021 10:45:00 AM 11.22 52.196 0.188 5.93 899.26 0.18
10/24/2021 11:00:00 AM 11.23 52.214 0.188 6 654.74 0.18
10/24/2021 11:15:00 AM 11.24 52.232 0.187 5.96 275.67 0.18
10/24/2021 11:30:00 AM 11.25 52.25 0.186 5.99 541.62 0.18
10/24/2021 11:45:00 AM 11.26 52.268 0.187 5.98 153.4 0.18
10/24/2021 12:00:00 PM 11.28 52.304 0.187 5.94 1609.31 0.18
10/24/2021 12:15:00 PM 11.3 52.34 0.187 5.97 461.2 0.18
10/24/2021 12:30:00 PM 11.32 52.376 0.186 5.96 262.89 0.18
10/24/2021 12:45:00 PM 11.35 52.43 0.186 5.98 222.17 0.18
10/24/2021 1:00:00 PM 11.38 52.484 0.186 5.98 231.58 0.18
10/24/2021 1:15:00 PM 11.41 52.538 0.185 5.98 474.22 0.18
10/24/2021 1:30:00 PM 11.44 52.592 0.185 5.98 302.41 0.18
10/24/2021 1:45:00 PM 11.47 52.646 0.185 5.99 115.04 0.18
10/24/2021 2:00:00 PM 11.51 52.718 0.184 5.99 208.33 0.18
10/24/2021 2:15:00 PM 11.55 52.79 0.184 5.95 203.9 0.18
10/24/2021 2:30:00 PM 11.58 52.844 0.184 5.97 111.16 0.18
10/24/2021 2:45:00 PM 11.61 52.898 0.184 6 2217.76 0.17
10/24/2021 3:00:00 PM 11.64 52.952 0.184 5.99 399.72 0.17
10/24/2021 3:15:00 PM 11.68 53.024 0.184 6.01 1253.46 0.17
10/24/2021 3:30:00 PM 11.7 53.06 0.184 6.01 1619.24 0.17
10/24/2021 3:45:00 PM 11.73 53.114 0.183 6.04 430.91 0.17
10/24/2021 4:00:00 PM 11.76 53.168 0.184 6.01 904.66 0.17
10/24/2021 4:15:00 PM 11.79 53.222 0.183 6.05 694.71 0.17
10/24/2021 4:30:00 PM 11.81 53.258 0.183 6.05 1713.49 0.17
10/24/2021 4:45:00 PM 11.83 53.294 0.184 5.99 937.87 0.17
10/24/2021 5:00:00 PM 11.85 53.33 0.184 6.02 1765.12 0.17
10/24/2021 5:15:00 PM 11.87 53.366 0.184 6.03 715.34 0.17
10/24/2021 5:30:00 PM 11.87 53.366 0.183 6.03 799.35 0.17
10/24/2021 5:45:00 PM 11.88 53.384 0.184 6.03 1111.12 0.17
10/24/2021 6:00:00 PM 11.88 53.384 0.183 6 496.97 0.17
10/24/2021 6:15:00 PM 11.88 53.384 0.183 6.01 318.53 0.17
10/24/2021 6:30:00 PM 11.87 53.366 0.183 6.05 1502.13 0.17
10/24/2021 6:45:00 PM 11.87 53.366 0.183 6.02 997.22 0.17
10/24/2021 7:00:00 PM 11.86 53.348 0.183 6.02 408.43 0.17
10/24/2021 7:15:00 PM 11.86 53.348 0.183 6.03 270.2 0.17
10/24/2021 7:30:00 PM 11.85 53.33 0.183 6 995.69 0.17
10/24/2021 7:45:00 PM 11.84 53.312 0.183 6.05 1031.53 0.17
10/24/2021 8:00:00 PM 11.83 53.294 0.184 6.01 855.32 0.17
10/24/2021 8:15:00 PM 11.83 53.294 0.184 6.01 795.81 0.17
10/24/2021 8:30:00 PM 11.81 53.258 0.184 6 887.07 0.17
10/24/2021 8:45:00 PM 11.81 53.258 0.183 6 730.94 0.17
10/24/2021 9:00:00 PM 11.79 53.222 0.184 6 739.12 0.17
10/24/2021 9:15:00 PM 11.78 53.204 0.183 6.03 661.74 0.17
10/24/2021 9:30:00 PM 11.77 53.186 0.183 6 1072.4 0.18
10/24/2021 9:45:00 PM 11.75 53.15 0.183 6.01 676.6 0.18
10/24/2021 10:00:00 PM 11.74 53.132 0.184 6.02 684.75 0.18
10/24/2021 10:15:00 PM 11.73 53.114 0.184 6.07 546.12 0.18
10/24/2021 10:30:00 PM 11.71 53.078 0.184 6.01 647.73 0.18
10/24/2021 10:45:00 PM 11.69 53.042 0.184 6.06 398.77 0.18
10/24/2021 11:00:00 PM 11.67 53.006 0.183 6.03 831.53 0.18
10/24/2021 11:15:00 PM 11.66 52.988 0.184 6.05 520.56 0.18
10/24/2021 11:30:00 PM 11.63 52.934 0.184 6.01 542.49 0.18
10/24/2021 11:45:00 PM 11.62 52.916 0.184 6.08 534.94 0.18
10/25/2021 12:00:00 AM 11.6 52.88 0.183 6.01 694.18 0.18
10/25/2021 12:15:00 AM 11.58 52.844 0.185 6.02 735.42 0.18
10/25/2021 12:30:00 AM 11.55 52.79 0.184 6.05 560.27 0.18
10/25/2021 12:45:00 AM 11.53 52.754 0.185 6.09 701.91 0.18
10/25/2021 1:00:00 AM 11.51 52.718 0.185 6.01 920.34 0.18
10/25/2021 1:15:00 AM 11.49 52.682 0.184 6 1149.24 0.18
10/25/2021 1:30:00 AM 11.47 52.646 0.185 6.06 1174.63 0.18
10/25/2021 1:45:00 AM 11.45 52.61 0.185 6.07 1247.06 0.18
10/25/2021 2:00:00 AM 11.43 52.574 0.184 6.01 994.86 0.18
10/25/2021 2:15:00 AM 11.41 52.538 0.184 6.03 1095.6 0.18
10/25/2021 2:30:00 AM 11.39 52.502 0.183 5.99 780.35 0.18
10/25/2021 2:45:00 AM 11.37 52.466 0.183 5.99 697.03 0.18
10/25/2021 3:00:00 AM 11.35 52.43 0.182 5.98 852.4 0.18
10/25/2021 3:15:00 AM 11.34 52.412 0.183 6.08 858.82 0.18
10/25/2021 3:30:00 AM 11.32 52.376 0.183 6.05 870.29 0.18
10/25/2021 3:45:00 AM 11.31 52.358 0.182 6.03 792.34 0.18
10/25/2021 4:00:00 AM 11.3 52.34 0.182 6.1 714.48 0.18
10/25/2021 4:15:00 AM 11.3 52.34 0.182 6.01 663.47 0.18
10/25/2021 4:30:00 AM 11.29 52.322 0.182 6.03 537.98 0.18
10/25/2021 4:45:00 AM 11.28 52.304 0.182 6.1 654.05 0.18
10/25/2021 5:00:00 AM 11.28 52.304 0.182 6.12 777 0.18
10/25/2021 5:15:00 AM 11.27 52.286 0.183 6.12 764.63 0.18
10/25/2021 5:30:00 AM 11.27 52.286 0.181 6.01 830.16 0.18
10/25/2021 5:45:00 AM 11.26 52.268 0.182 5.99 870 0.18
10/25/2021 6:00:00 AM 11.26 52.268 0.181 6.12 1116.89 0.18
10/25/2021 6:15:00 AM 11.25 52.25 0.183 6.12 802.21 0.18
10/25/2021 6:30:00 AM 11.24 52.232 0.181 6.05 729.79 0.18
10/25/2021 6:45:00 AM 11.24 52.232 0.183 6.07 735.61 0.18
10/25/2021 7:00:00 AM 11.23 52.214 0.183 6.08 743.66 0.18
10/25/2021 7:15:00 AM 11.23 52.214 0.183 6.08 481.2 0.18
10/25/2021 7:30:00 AM 11.21 52.178 0.183 6.05 401.66 0.18
10/25/2021 7:45:00 AM 11.2 52.16 0.182 6.08 446.88 0.18
10/25/2021 8:00:00 AM 11.19 52.142 0.183 6.14 425.05 0.18
10/25/2021 8:15:00 AM 11.17 52.106 0.183 6.08 516.06 0.18
10/25/2021 8:30:00 AM 11.15 52.07 0.183 6.11 323.26 0.18
10/25/2021 8:45:00 AM 11.14 52.052 0.183 6.09 478.87 0.18
10/25/2021 9:00:00 AM 11.12 52.016 0.184 6.1 352.36 0.18
10/25/2021 9:15:00 AM 11.1 51.98 0.183 6.06 344.8 0.18
10/25/2021 9:30:00 AM 11.09 51.962 0.183 6.06 314.14 0.18
10/25/2021 9:45:00 AM 11.08 51.944 0.185 6.1 322.01 0.18
10/25/2021 10:00:00 AM 11.07 51.926 0.184 6.1 370.41 0.18
10/25/2021 10:15:00 AM 11.07 51.926 0.183 6.05 420.59 0.18
10/25/2021 10:30:00 AM 11.07 51.926 0.183 6.11 389.48 0.18
10/25/2021 10:45:00 AM 11.09 51.962 0.185 6.06 455.07 0.18
10/25/2021 11:00:00 AM 11.12 52.016 0.188 6.07 427.39 0.18
10/25/2021 11:15:00 AM 11.15 52.07 0.187 6.13 323.48 0.18
10/25/2021 11:30:00 AM 11.2 52.16 0.19 6.1 362.45 0.18
10/25/2021 11:45:00 AM 11.26 52.268 0.19 6.09 496.34 0.18
10/25/2021 12:00:00 PM 11.32 52.376 0.189 6.07 470.46 0.18
10/25/2021 12:15:00 PM 11.39 52.502 0.189 6.15 659.65 0.18
10/25/2021 12:30:00 PM 11.46 52.628 0.189 6.13 518.19 0.18
10/25/2021 12:45:00 PM 11.54 52.772 0.189 6.14 539.7 0.18
10/25/2021 1:00:00 PM 11.62 52.916 0.189 6.15 474.64 0.17
10/25/2021 1:15:00 PM 11.7 53.06 0.188 6.15 494.02 0.18
10/25/2021 1:30:00 PM 11.79 53.222 0.189 6.03 374.38 0.18
10/25/2021 1:45:00 PM 11.88 53.384 0.189 6.08 436.72 0.18
10/25/2021 2:00:00 PM 11.97 53.546 0.19 6.09 377.83 0.17
10/25/2021 2:15:00 PM 12.07 53.726 0.19 6.01 318.99 0.17
10/25/2021 2:30:00 PM 12.16 53.888 0.19 6.08 285.85 0.17
10/25/2021 2:45:00 PM 12.26 54.068 0.191 6.08 292.55 0.17
10/25/2021 3:00:00 PM 12.35 54.23 0.191 6.11 210.67 0.17
10/25/2021 3:15:00 PM 12.45 54.41 0.191 6.03 327.05 0.17
10/25/2021 3:30:00 PM 12.53 54.554 0.192 6.15 338.43 0.17
10/25/2021 3:45:00 PM 12.61 54.698 0.192 6.13 334.03 0.17
10/25/2021 4:00:00 PM 12.69 54.842 0.193 6.09 276.05 0.17
10/25/2021 4:15:00 PM 12.77 54.986 0.193 6.11 266.69 0.17
10/25/2021 4:30:00 PM 12.84 55.112 0.194 6.1 218.93 0.17
10/25/2021 4:45:00 PM 12.91 55.238 0.194 6.05 232.7 0.17
10/25/2021 5:00:00 PM 12.97 55.346 0.194 6.05 270.02 0.17
10/25/2021 5:15:00 PM 13.03 55.454 0.194 6.11 220.61 0.16
10/25/2021 5:30:00 PM 13.07 55.526 0.195 6.14 172.1 0.16
10/25/2021 5:45:00 PM 13.1 55.58 0.195 6.09 194.66 0.16
10/25/2021 6:00:00 PM 13.13 55.634 0.195 6.07 247.84 0.16
10/25/2021 6:15:00 PM 13.15 55.67 0.196 6.1 270.83 0.16
10/25/2021 6:30:00 PM 13.16 55.688 0.196 6.13 299.51 0.16
10/25/2021 6:45:00 PM 13.17 55.706 0.197 6.15 229.03 0.16
10/25/2021 7:00:00 PM 13.17 55.706 0.197 6.07 204.49 0.16
10/25/2021 7:15:00 PM 13.16 55.688 0.196 6.09 147.49 0.16
10/25/2021 7:30:00 PM 13.14 55.652 0.198 6.06 160.72 0.16
10/25/2021 7:45:00 PM 13.13 55.634 0.198 6.14 172.14 0.16
10/25/2021 8:00:00 PM 13.11 55.598 0.197 6.11 107.73 0.16
10/25/2021 8:15:00 PM 13.1 55.58 0.198 6.1 95.9 0.16
10/25/2021 8:30:00 PM 13.07 55.526 0.198 6.1 98.55 0.16
10/25/2021 8:45:00 PM 13.06 55.508 0.198 6.13 183.61 0.16
10/25/2021 9:00:00 PM 13.04 55.472 0.198 6.12 62.42 0.16
10/25/2021 9:15:00 PM 13.02 55.436 0.198 6.18 63.28 0.16
10/25/2021 9:30:00 PM 13 55.4 0.198 6.15 67.94 0.16
10/25/2021 9:45:00 PM 12.99 55.382 0.199 6.1 91.92 0.16
10/25/2021 10:00:00 PM 12.97 55.346 0.199 6.11 127 0.16
10/25/2021 10:15:00 PM 12.96 55.328 0.199 6.11 130.97 0.16
10/25/2021 10:30:00 PM 12.94 55.292 0.2 6.13 99.09 0.16
10/25/2021 10:45:00 PM 12.92 55.256 0.2 6.15 143.32 0.16
10/25/2021 11:00:00 PM 12.9 55.22 0.201 6.13 144.58 0.16
10/25/2021 11:15:00 PM 12.89 55.202 0.201 6.13 121.35 0.16
10/25/2021 11:30:00 PM 12.87 55.166 0.2 6.14 117.12 0.16
10/25/2021 11:45:00 PM 12.85 55.13 0.201 6.12 1045.03 0.16
10/26/2021 12:00:00 AM 12.84 55.112 0.202 6.16 1459.61 0.16
10/26/2021 12:15:00 AM 12.82 55.076 0.202 6.16 1171.93 0.16
10/26/2021 12:30:00 AM 12.8 55.04 0.202 6.19 1415.47 0.16
10/26/2021 12:45:00 AM 12.79 55.022 0.202 6.16 1101.62 0.16
10/26/2021 1:00:00 AM 12.77 54.986 0.202 6.21 1190.76 0.16
10/26/2021 1:15:00 AM 12.75 54.95 0.203 6.19 1388.52 0.16
10/26/2021 1:30:00 AM 12.73 54.914 0.203 6.15 1301.42 0.16
10/26/2021 1:45:00 AM 12.71 54.878 0.203 6.17 1044.32 0.16
10/26/2021 2:00:00 AM 12.69 54.842 0.203 6.18 1118.43 0.16
10/26/2021 2:15:00 AM 12.67 54.806 0.203 6.13 1266.22 0.16
10/26/2021 2:30:00 AM 12.65 54.77 0.204 6.2 901.14 0.16
10/26/2021 2:45:00 AM 12.64 54.752 0.204 6.22 889.81 0.16
10/26/2021 3:00:00 AM 12.62 54.716 0.204 6.18 700.48 0.16
10/26/2021 3:15:00 AM 12.61 54.698 0.203 6.2 1661.32 0.16
10/26/2021 3:30:00 AM 12.59 54.662 0.205 6.21 1425.19 0.16
10/26/2021 3:45:00 AM 12.58 54.644 0.205 6.2 781.42 0.16
10/26/2021 4:00:00 AM 12.57 54.626 0.205 6.21 500.67 0.16
10/26/2021 4:15:00 AM 12.57 54.626 0.205 6.2 1202.52 0.16
10/26/2021 4:30:00 AM 12.55 54.59 0.206 6.16 355.6 0.16
10/26/2021 4:45:00 AM 12.55 54.59 0.205 6.2 114.85 0.16
10/26/2021 5:00:00 AM 12.54 54.572 0.206 6.24 160.88 0.16
10/26/2021 5:15:00 AM 12.54 54.572 0.208 6.2 105.72 0.16
10/26/2021 5:30:00 AM 12.53 54.554 0.208 6.18 198.27 0.16
10/26/2021 5:45:00 AM 12.52 54.536 0.208 6.2 344.79 0.16
10/26/2021 6:00:00 AM 12.52 54.536 0.209 6.14 84.16 0.16
10/26/2021 6:15:00 AM 12.51 54.518 0.209 6.1 355.06 0.16
10/26/2021 6:30:00 AM 12.5 54.5 0.209 6.15 199.97 0.16
10/26/2021 6:45:00 AM 12.49 54.482 0.21 6.19 551.13 0.16
10/26/2021 7:00:00 AM 12.48 54.464 0.21 6.21 279.92 0.16
10/26/2021 7:15:00 AM 12.47 54.446 0.211 6.14 1104.76 0.16
10/26/2021 7:30:00 AM 12.45 54.41 0.211 6.15 550.58 0.16
10/26/2021 7:45:00 AM 12.45 54.41 0.211 6.11 860.22 0.17
10/26/2021 8:00:00 AM 12.44 54.392 0.212 6.09 801.05 0.16
10/26/2021 8:15:00 AM 12.43 54.374 0.211 6.11 1618.03 0.17
10/26/2021 8:30:00 AM 12.42 54.356 0.212 6.11 329.58 0.17
10/26/2021 8:45:00 AM 12.41 54.338 0.212 6.14 77.43 0.17
10/26/2021 9:00:00 AM 12.4 54.32 0.212 6.09 108.21 0.17
10/26/2021 9:15:00 AM 12.39 54.302 0.213 6.11 124.82 0.17
10/26/2021 9:30:00 AM 12.38 54.284 0.213 6.12 103.63 0.17
10/26/2021 9:45:00 AM 12.37 54.266 0.213 6.17 208.84 0.17
10/26/2021 10:00:00 AM 12.36 54.248 0.213 6.12 209.37 0.17
10/26/2021 10:15:00 AM 12.35 54.23 0.213 6.14 142.41 0.17
10/26/2021 10:30:00 AM 12.34 54.212 0.213 6.19 119.65 0.17
10/26/2021 10:45:00 AM 12.34 54.212 0.214 6.16 264.15 0.17
10/26/2021 11:00:00 AM 12.34 54.212 0.214 6.17 163.87 0.17
10/26/2021 11:15:00 AM 12.34 54.212 0.214 6.14 226.96 0.17
10/26/2021 11:30:00 AM 12.33 54.194 0.215 6.1 189.47 0.17
10/26/2021 11:45:00 AM 12.33 54.194 0.215 6.09 157.46 0.17
10/26/2021 12:00:00 PM 12.34 54.212 0.215 6.09 741.38 0.17
10/26/2021 12:15:00 PM 12.34 54.212 0.215 6.17 418.94 0.17
10/26/2021 12:30:00 PM 12.33 54.194 0.215 6.13 710.59 0.17
10/26/2021 12:45:00 PM 12.33 54.194 0.215 6.18 767.42 0.17
10/26/2021 1:00:00 PM 12.33 54.194 0.215 6.07 761.99 0.17
10/26/2021 1:15:00 PM 12.32 54.176 0.215 6.09 757.32 0.17
10/26/2021 1:30:00 PM 12.31 54.158 0.216 6.14 903.89 0.17
10/26/2021 1:45:00 PM 12.29 54.122 0.217 6.2 385.19 0.17
10/26/2021 2:00:00 PM 12.28 54.104 0.217 6.15 953.65 0.17
10/26/2021 2:15:00 PM 12.26 54.068 0.217 6.17 489.62 0.17
10/26/2021 2:30:00 PM 12.24 54.032 0.217 6.15 479.92 0.17
10/26/2021 2:45:00 PM 12.23 54.014 0.217 6.16 974.74 0.17
10/26/2021 3:00:00 PM 12.22 53.996 0.217 6.16 1549.26 0.17
10/26/2021 3:15:00 PM 12.2 53.96 0.217 6.14 372.76 0.17
10/26/2021 3:30:00 PM 12.19 53.942 0.217 6.12 401.52 0.17
10/26/2021 3:45:00 PM 12.18 53.924 0.217 6.17 319.69 0.17
10/26/2021 4:00:00 PM 12.17 53.906 0.217 6.11 183.47 0.17
10/26/2021 4:15:00 PM 12.16 53.888 0.218 6.15 670.73 0.17
10/26/2021 4:30:00 PM 12.15 53.87 0.219 6.15 133.05 0.17
10/26/2021 4:45:00 PM 12.14 53.852 0.219 6.07 79.46 0.17
10/26/2021 5:00:00 PM 12.13 53.834 0.219 6.14 229.48 0.17
10/26/2021 5:15:00 PM 12.12 53.816 0.219 6.15 170.36 0.17
10/26/2021 5:30:00 PM 12.11 53.798 0.219 6.06 350.09 0.17
10/26/2021 5:45:00 PM 12.09 53.762 0.22 6.09 119.24 0.17
10/26/2021 6:00:00 PM 12.08 53.744 0.22 6.09 467.47 0.17
10/26/2021 6:15:00 PM 12.07 53.726 0.22 6.12 472.05 0.17
10/26/2021 6:30:00 PM 12.06 53.708 0.22 6.11 477.64 0.17
10/26/2021 6:45:00 PM 12.05 53.69 0.22 6.09 478.49 0.17
10/26/2021 7:00:00 PM 12.04 53.672 0.22 6.06 485.66 0.17
10/26/2021 7:15:00 PM 12.03 53.654 0.22 6.05 489.78 0.17
10/26/2021 7:30:00 PM 12.02 53.636 0.219 6.05 493.57 0.17
10/26/2021 7:45:00 PM 12 53.6 0.22 6.02 510.08 0.17
10/26/2021 8:00:00 PM 11.99 53.582 0.22 6.02 515.44 0.17
10/26/2021 8:15:00 PM 11.98 53.564 0.219 6.02 515.5 0.17
10/26/2021 8:30:00 PM 11.97 53.546 0.219 6 503.38 0.17
10/26/2021 8:45:00 PM 11.96 53.528 0.22 6 514.7 0.17
10/26/2021 9:00:00 PM 11.95 53.51 0.219 5.98 540.69 0.17
10/26/2021 9:15:00 PM 11.94 53.492 0.219 5.97 534.5 0.17
10/26/2021 9:30:00 PM 11.92 53.456 0.219 5.96 530.53 0.17
10/26/2021 9:45:00 PM 11.91 53.438 0.219 5.95 528.81 0.17
10/26/2021 10:00:00 PM 11.9 53.42 0.219 5.93 574.7 0.17
10/26/2021 10:15:00 PM 11.89 53.402 0.219 5.95 572.11 0.17
10/26/2021 10:30:00 PM 11.88 53.384 0.219 5.94 574.7 0.17
10/26/2021 10:45:00 PM 11.87 53.366 0.218 5.94 575.56 0.17
10/26/2021 11:00:00 PM 11.86 53.348 0.218 5.92 653.19 0.17
10/26/2021 11:15:00 PM 11.85 53.33 0.217 5.93 654.58 0.17
10/26/2021 11:30:00 PM 11.84 53.312 0.217 5.91 655.9 0.17
10/26/2021 11:45:00 PM 11.84 53.312 0.218 5.91 655.46 0.17
10/27/2021 12:00:00 AM 11.83 53.294 0.218 5.91 648.73 0.17
10/27/2021 12:15:00 AM 11.82 53.276 0.217 5.91 666.1 0.17
10/27/2021 12:30:00 AM 11.81 53.258 0.217 5.92 666.54 0.17
10/27/2021 12:45:00 AM 11.8 53.24 0.217 5.92 664.6 0.18
10/27/2021 1:00:00 AM 11.79 53.222 0.216 5.91 661.72 0.17
10/27/2021 1:15:00 AM 11.78 53.204 0.216 5.91 662.12 0.17
10/27/2021 1:30:00 AM 11.77 53.186 0.216 5.91 660.91 0.17
10/27/2021 1:45:00 AM 11.76 53.168 0.216 5.9 662.32 0.18
10/27/2021 2:00:00 AM 11.75 53.15 0.215 5.89 662.04 0.18
10/27/2021 2:15:00 AM 11.74 53.132 0.216 5.89 662.45 0.18
10/27/2021 2:30:00 AM 11.73 53.114 0.216 5.88 660.58 0.18
10/27/2021 2:45:00 AM 11.72 53.096 0.216 5.87 634.98 0.18
10/27/2021 3:00:00 AM 11.7 53.06 0.215 5.87 633.89 0.18
10/27/2021 3:15:00 AM 11.69 53.042 0.214 5.87 633.81 0.18
10/27/2021 3:30:00 AM 11.68 53.024 0.215 5.86 628.03 0.18
10/27/2021 3:45:00 AM 11.67 53.006 0.216 5.86 629.1 0.18
10/27/2021 4:00:00 AM 11.66 52.988 0.216 5.86 629.17 0.18
10/27/2021 4:15:00 AM 11.65 52.97 0.216 5.87 628.65 0.18
10/27/2021 4:30:00 AM 11.64 52.952 0.216 5.87 626.68 0.18
10/27/2021 4:45:00 AM 11.63 52.934 0.216 5.88 628.78 0.18
10/27/2021 5:00:00 AM 11.62 52.916 0.216 5.89 627.27 0.18
10/27/2021 5:15:00 AM 11.61 52.898 0.216 5.9 627.87 0.18
10/27/2021 5:30:00 AM 11.61 52.898 0.216 5.9 633.76 0.18
10/27/2021 5:45:00 AM 11.6 52.88 0.216 5.91 632.05 0.18
10/27/2021 6:00:00 AM 11.59 52.862 0.216 5.92 631.67 0.18
10/27/2021 6:15:00 AM 11.58 52.844 0.217 5.92 631.85 0.18
10/27/2021 6:30:00 AM 11.58 52.844 0.217 5.91 628.38 0.17
10/27/2021 6:45:00 AM 11.57 52.826 0.217 5.9 629.53 0.18
10/27/2021 7:00:00 AM 11.56 52.808 0.217 5.91 553.4 0.18
10/27/2021 7:15:00 AM 11.55 52.79 0.218 5.94 560.17 0.18
10/27/2021 7:30:00 AM 11.55 52.79 0.218 5.92 561.22 0.18
10/27/2021 7:45:00 AM 11.54 52.772 0.218 5.92 560.63 0.18
10/27/2021 8:00:00 AM 11.53 52.754 0.219 5.9 564.29 0.17
10/27/2021 8:15:00 AM 11.52 52.736 0.219 5.89 595.2 0.17
10/27/2021 8:30:00 AM 11.51 52.718 0.219 5.88 589.92 0.17
10/27/2021 8:45:00 AM 11.5 52.7 0.219 5.88 592.18 0.17
10/27/2021 9:00:00 AM 11.49 52.682 0.219 5.89 425.36 0.18
10/27/2021 9:15:00 AM 11.48 52.664 0.22 5.91 431.08 0.17
10/27/2021 9:30:00 AM 11.47 52.646 0.22 5.91 435.06 0.17
10/27/2021 9:45:00 AM 11.46 52.628 0.22 5.92 432.86 0.17
10/27/2021 10:00:00 AM 11.46 52.628 0.221 5.93 434.8 0.18
10/27/2021 10:15:00 AM 11.48 52.664 0.221 5.96 434.33 0.18
10/27/2021 10:30:00 AM 11.52 52.736 0.221 6.03 436.39 0.18
10/27/2021 10:45:00 AM 11.58 52.844 0.222 6 437.33 0.18
10/27/2021 11:00:00 AM 11.64 52.952 0.222 6.05 431.86 0.17
10/27/2021 11:15:00 AM 11.7 53.06 0.222 5.99 421.36 0.17
10/27/2021 11:30:00 AM 11.76 53.168 0.222 6.13 420.02 0.17
10/27/2021 11:45:00 AM 11.82 53.276 0.223 6.14 423.84 0.17
10/27/2021 12:00:00 PM 11.89 53.402 0.223 6.14 429.61 0.17
10/27/2021 12:15:00 PM 11.96 53.528 0.224 6.11 437.95 0.18
10/27/2021 12:30:00 PM 12.02 53.636 0.225 6.08 235.53 0.17
10/27/2021 12:45:00 PM 12.07 53.726 0.226 6.03 248.14 0.17
10/27/2021 1:00:00 PM 12.12 53.816 0.227 5.99 260.25 0.17
10/27/2021 1:15:00 PM 12.17 53.906 0.227 5.99 261.51 0.17
10/27/2021 1:30:00 PM 12.22 53.996 0.228 5.94 249.06 0.17
10/27/2021 1:45:00 PM 12.28 54.104 0.229 5.9 228.67 0.17
10/27/2021 2:00:00 PM 12.33 54.194 0.229 5.89 185.66 0.17
10/27/2021 2:15:00 PM 12.37 54.266 0.229 6.02 767.83 0.17
10/27/2021 2:30:00 PM 12.4 54.32 0.228 6.05 44.75 0.17
10/27/2021 2:45:00 PM 12.43 54.374 0.224 6.06 56.05 0.17
10/27/2021 3:00:00 PM 12.44 54.392 0.223 6.06 44.94 0.17
10/27/2021 3:15:00 PM 12.47 54.446 0.222 6.07 44.71 0.17
10/27/2021 3:30:00 PM 12.49 54.482 0.22 6.06 48.71 0.17
10/27/2021 3:45:00 PM 12.5 54.5 0.215 6.05 45.34 0.17
10/27/2021 4:00:00 PM 12.51 54.518 0.208 6.05 44.23 0.17
10/27/2021 4:15:00 PM 12.52 54.536 0.2 6.04 40.29 0.17
10/27/2021 4:30:00 PM 12.52 54.536 0.192 6.05 41.96 0.17
10/27/2021 4:45:00 PM 12.51 54.518 0.185 6.05 37.95 0.17
10/27/2021 5:00:00 PM 12.48 54.464 0.177 6.05 36.91 0.17
10/27/2021 5:15:00 PM 12.46 54.428 0.171 6.03 36.86 0.17
10/27/2021 5:30:00 PM 12.43 54.374 0.166 6.03 36.61 0.17
10/27/2021 5:45:00 PM 12.4 54.32 0.162 6.01 37.31 0.17
10/27/2021 6:00:00 PM 12.36 54.248 0.16 6 30.42 0.17
10/27/2021 6:15:00 PM 12.33 54.194 0.157 5.98 407.58 0.17
10/27/2021 6:30:00 PM 12.3 54.14 0.155 5.98 358.65 0.17
10/27/2021 6:45:00 PM 12.27 54.086 0.155 5.98 367.96 0.17
10/27/2021 7:00:00 PM 12.24 54.032 0.155 5.97 353.74 0.17
10/27/2021 7:15:00 PM 12.21 53.978 0.156 5.96 373.24 0.17
10/27/2021 7:30:00 PM 12.18 53.924 0.156 5.95 402.26 0.17
10/27/2021 7:45:00 PM 12.15 53.87 0.156 5.97 417.39 0.17
10/27/2021 8:00:00 PM 12.13 53.834 0.155 5.97 435.47 0.17
10/27/2021 8:15:00 PM 12.1 53.78 0.154 5.96 437.72 0.17
10/27/2021 8:30:00 PM 12.07 53.726 0.152 5.96 434.15 0.17
10/27/2021 8:45:00 PM 12.05 53.69 0.15 5.94 419.45 0.17
10/27/2021 9:00:00 PM 12.02 53.636 0.147 5.95 420.1 0.17
10/27/2021 9:15:00 PM 11.99 53.582 0.144 5.93 428.32 0.17
10/27/2021 9:30:00 PM 11.97 53.546 0.141 5.95 416.85 0.17
10/27/2021 9:45:00 PM 11.95 53.51 0.138 5.94 396.18 0.17
10/27/2021 10:00:00 PM 11.93 53.474 0.136 5.93 407.63 0.17
10/27/2021 10:15:00 PM 11.91 53.438 0.135 5.93 405.48 0.17
10/27/2021 10:30:00 PM 11.9 53.42 0.133 5.93 361.44 0.17
10/27/2021 10:45:00 PM 11.88 53.384 0.132 5.92 353.93 0.17
10/27/2021 11:00:00 PM 11.87 53.366 0.13 5.93 352.07 0.17
10/27/2021 11:15:00 PM 11.86 53.348 0.128 5.92 352.57 0.17
10/27/2021 11:30:00 PM 11.85 53.33 0.127 5.92 351.48 0.17
10/27/2021 11:45:00 PM 11.84 53.312 0.125 5.93 354.12 0.17
10/28/2021 12:00:00 AM 11.82 53.276 0.124 5.93 356.67 0.17
10/28/2021 12:15:00 AM 11.8 53.24 0.123 5.94 356.47 0.17
10/28/2021 12:30:00 AM 11.79 53.222 0.122 5.93 361.43 0.17
10/28/2021 12:45:00 AM 11.78 53.204 0.121 5.91 361.44 0.17
10/28/2021 1:00:00 AM 11.77 53.186 0.12 5.91 363.16 0.17
10/28/2021 1:15:00 AM 11.75 53.15 0.118 5.92 365.42 0.17
10/28/2021 1:30:00 AM 11.74 53.132 0.117 5.91 366.31 0.17
10/28/2021 1:45:00 AM 11.73 53.114 0.116 5.9 366.2 0.17
10/28/2021 2:00:00 AM 11.72 53.096 0.115 5.9 365.2 0.17
10/28/2021 2:15:00 AM 11.71 53.078 0.114 5.9 363.78 0.17
10/28/2021 2:30:00 AM 11.7 53.06 0.113 5.91 364.66 0.17
10/28/2021 2:45:00 AM 11.69 53.042 0.112 5.92 365.25 0.17
10/28/2021 3:00:00 AM 11.67 53.006 0.111 5.92 368.58 0.17
10/28/2021 3:15:00 AM 11.66 52.988 0.11 5.92 372.93 0.17
10/28/2021 3:30:00 AM 11.64 52.952 0.109 5.93 372.66 0.17
10/28/2021 3:45:00 AM 11.63 52.934 0.108 5.92 373.48 0.17
10/28/2021 4:00:00 AM 11.62 52.916 0.107 5.92 370.99 0.17
10/28/2021 4:15:00 AM 11.62 52.916 0.106 5.92 370.77 0.17
10/28/2021 4:30:00 AM 11.62 52.916 0.105 5.92 371.49 0.17
10/28/2021 4:45:00 AM 11.62 52.916 0.104 5.92 366.08 0.17
10/28/2021 5:00:00 AM 11.62 52.916 0.103 5.88 362.43 0.17
10/28/2021 5:15:00 AM 11.61 52.898 0.102 5.88 393.61 0.17
10/28/2021 5:30:00 AM 11.61 52.898 0.101 5.89 375.16 0.17
10/28/2021 5:45:00 AM 11.6 52.88 0.1 5.9 373.84 0.17
10/28/2021 6:00:00 AM 11.6 52.88 0.099 5.88 378.58 0.17
10/28/2021 6:15:00 AM 11.59 52.862 0.098 5.89 377.8 0.17
10/28/2021 6:30:00 AM 11.58 52.844 0.097 5.88 377.98 0.17
10/28/2021 6:45:00 AM 11.57 52.826 0.096 5.91 376.77 0.17
10/28/2021 7:00:00 AM 11.56 52.808 0.095 5.89 375.38 0.17
10/28/2021 7:15:00 AM 11.56 52.808 0.094 5.88 366.37 0.17
10/28/2021 7:30:00 AM 11.55 52.79 0.093 5.89 357.95 0.17
10/28/2021 7:45:00 AM 11.54 52.772 0.093 5.91 364.65 0.17
10/28/2021 8:00:00 AM 11.53 52.754 0.092 5.9 360.24 0.17
10/28/2021 8:15:00 AM 11.53 52.754 0.092 5.87 363.25 0.17
10/28/2021 8:30:00 AM 11.53 52.754 0.091 5.88 362.85 0.17
10/28/2021 8:45:00 AM 11.52 52.736 0.09 5.87 355.43 0.17
10/28/2021 9:00:00 AM 11.52 52.736 0.09 5.88 354.39 0.17
10/28/2021 9:15:00 AM 11.52 52.736 0.089 5.87 352.59 0.17
10/28/2021 9:30:00 AM 11.52 52.736 0.089 5.88 354.07 0.17
10/28/2021 9:45:00 AM 11.54 52.772 0.088 5.89 352.39 0.17
10/28/2021 10:00:00 AM 11.55 52.79 0.088 5.87 352.27 0.17
10/28/2021 10:15:00 AM 11.57 52.826 0.087 5.89 350.54 0.17
10/28/2021 10:30:00 AM 11.59 52.862 0.087 5.9 350.19 0.17
10/28/2021 10:45:00 AM 11.61 52.898 0.087 5.87 343.97 0.17
10/28/2021 11:00:00 AM 11.65 52.97 0.086 5.88 329.24 0.17
10/28/2021 11:15:00 AM 11.68 53.024 0.086 5.88 329.72 0.17
10/28/2021 11:30:00 AM 11.72 53.096 0.086 5.87 331.97 0.17
10/28/2021 11:45:00 AM 11.76 53.168 0.086 5.91 335.95 0.17
10/28/2021 12:00:00 PM 11.81 53.258 0.085 5.89 337.66 0.17
10/28/2021 12:15:00 PM 11.86 53.348 0.085 5.92 336.17 0.17
10/28/2021 12:30:00 PM 11.91 53.438 0.085 5.93 333.46 0.17
10/28/2021 12:45:00 PM 11.96 53.528 0.085 5.92 334.07 0.17
10/28/2021 1:00:00 PM 12.01 53.618 0.085 5.92 334.63 0.17
10/28/2021 1:15:00 PM 12.06 53.708 0.085 5.91 336.21 0.17
10/28/2021 1:30:00 PM 12.1 53.78 0.085 5.9 332.94 0.17
10/28/2021 1:45:00 PM 12.14 53.852 0.085 5.91 327.22 0.17
10/28/2021 2:00:00 PM 12.18 53.924 0.084 5.92 307.25 0.17
10/28/2021 2:15:00 PM 12.22 53.996 0.084 5.93 306.85 0.17
10/28/2021 2:30:00 PM 12.25 54.05 0.084 5.9 308.72 0.17
10/28/2021 2:45:00 PM 12.28 54.104 0.084 5.91 309.18 0.17
10/28/2021 3:00:00 PM 12.3 54.14 0.084 5.91 309.15 0.17
10/28/2021 3:15:00 PM 12.32 54.176 0.084 5.93 308.34 0.17
10/28/2021 3:30:00 PM 12.33 54.194 0.085 5.91 305.96 0.16
10/28/2021 3:45:00 PM 12.34 54.212 0.085 5.92 297.89 0.17
10/28/2021 4:00:00 PM 12.35 54.23 0.085 5.91 290.97 0.17
10/28/2021 4:15:00 PM 12.35 54.23 0.085 5.92 287.57 0.17
10/28/2021 4:30:00 PM 12.34 54.212 0.085 5.92 286.75 0.17
10/28/2021 4:45:00 PM 12.33 54.194 0.086 5.94 286.87 0.17
10/28/2021 5:00:00 PM 12.3 54.14 0.086 5.93 287.18 0.17
10/28/2021 5:15:00 PM 12.28 54.104 0.087 5.93 287.61 0.17
10/28/2021 5:30:00 PM 12.25 54.05 0.087 5.92 286.97 0.17
10/28/2021 5:45:00 PM 12.22 53.996 0.088 5.91 287.1 0.17
10/28/2021 6:00:00 PM 12.18 53.924 0.088 5.9 286.97 0.17
10/28/2021 6:15:00 PM 12.15 53.87 0.088 5.89 285.93 0.17
10/28/2021 6:30:00 PM 12.12 53.816 0.089 5.89 286.04 0.17
10/28/2021 6:45:00 PM 12.08 53.744 0.089 5.89 314.75 0.17
10/28/2021 7:00:00 PM 12.05 53.69 0.089 5.9 316.16 0.17
10/28/2021 7:15:00 PM 12.01 53.618 0.089 5.9 332.78 0.17
10/28/2021 7:30:00 PM 11.97 53.546 0.09 5.9 321.92 0.17
10/28/2021 7:45:00 PM 11.93 53.474 0.09 5.89 310.42 0.17
10/28/2021 8:00:00 PM 11.89 53.402 0.091 5.89 305.26 0.17
10/28/2021 8:15:00 PM 11.85 53.33 0.091 5.89 306.78 0.17
10/28/2021 8:30:00 PM 11.8 53.24 0.092 5.9 311.37 0.17
10/28/2021 8:45:00 PM 11.77 53.186 0.092 5.89 318.64 0.17
10/28/2021 9:00:00 PM 11.73 53.114 0.093 5.89 309.75 0.17
10/28/2021 9:15:00 PM 11.69 53.042 0.093 5.89 320.7 0.17
10/28/2021 9:30:00 PM 11.66 52.988 0.094 5.89 327.03 0.17
10/28/2021 9:45:00 PM 11.64 52.952 0.094 5.89 333.09 0.17
10/28/2021 10:00:00 PM 11.61 52.898 0.094 5.88 276.16 0.17
10/28/2021 10:15:00 PM 11.58 52.844 0.095 5.88 282.45 0.17
10/28/2021 10:30:00 PM 11.55 52.79 0.095 5.88 278.96 0.17
10/28/2021 10:45:00 PM 11.54 52.772 0.095 5.88 274.35 0.17
10/28/2021 11:00:00 PM 11.52 52.736 0.095 5.88 267.17 0.17
10/28/2021 11:15:00 PM 11.49 52.682 0.095 5.88 270.2 0.17
10/28/2021 11:30:00 PM 11.47 52.646 0.095 5.87 254.85 0.17
10/28/2021 11:45:00 PM 11.46 52.628 0.095 5.87 250.47 0.17
10/29/2021 12:00:00 AM 11.46 52.628 0.095 5.88 262.7 0.17
10/29/2021 12:15:00 AM 11.45 52.61 0.095 5.87 250 0.17
10/29/2021 12:30:00 AM 11.44 52.592 0.095 5.87 255.56 0.17
10/29/2021 12:45:00 AM 11.43 52.574 0.094 5.87 215.01 0.17
10/29/2021 1:00:00 AM 11.42 52.556 0.094 5.87 216.06 0.17
10/29/2021 1:15:00 AM 11.42 52.556 0.094 5.87 216.31 0.17
10/29/2021 1:30:00 AM 11.41 52.538 0.094 5.86 226.01 0.17
10/29/2021 1:45:00 AM 11.4 52.52 0.094 5.87 226.07 0.17
10/29/2021 2:00:00 AM 11.4 52.52 0.093 5.87 226.13 0.17
10/29/2021 2:15:00 AM 11.39 52.502 0.093 5.87 227.56 0.17
10/29/2021 2:30:00 AM 11.38 52.484 0.093 5.87 225.29 0.17
10/29/2021 2:45:00 AM 11.38 52.484 0.093 5.87 225.27 0.17
10/29/2021 3:00:00 AM 11.37 52.466 0.093 5.87 220.2 0.17
10/29/2021 3:15:00 AM 11.36 52.448 0.093 5.87 219.92 0.17
10/29/2021 3:30:00 AM 11.35 52.43 0.092 5.88 222.55 0.17
10/29/2021 3:45:00 AM 11.34 52.412 0.092 5.87 214.61 0.17
10/29/2021 4:00:00 AM 11.33 52.394 0.092 5.87 214.33 0.17
10/29/2021 4:15:00 AM 11.33 52.394 0.092 5.86 233.21 0.17
10/29/2021 4:30:00 AM 11.32 52.376 0.091 5.87 210.82 0.17
10/29/2021 4:45:00 AM 11.3 52.34 0.091 5.88 214.53 0.17
10/29/2021 5:00:00 AM 11.3 52.34 0.091 5.85 212.57 0.17
10/29/2021 5:15:00 AM 11.3 52.34 0.091 5.85 219.3 0.17
10/29/2021 5:30:00 AM 11.3 52.34 0.09 5.85 214.06 0.17
10/29/2021 5:45:00 AM 11.29 52.322 0.09 5.85 215.45 0.17
10/29/2021 6:00:00 AM 11.28 52.304 0.09 5.85 215.49 0.17
10/29/2021 6:15:00 AM 11.27 52.286 0.09 5.85 229.14 0.17
10/29/2021 6:30:00 AM 11.26 52.268 0.09 5.85 232.08 0.17
10/29/2021 6:45:00 AM 11.25 52.25 0.09 5.84 234.11 0.17
10/29/2021 7:00:00 AM 11.24 52.232 0.09 5.84 250.6 0.17
10/29/2021 7:15:00 AM 11.24 52.232 0.09 5.84 265.84 0.17
10/29/2021 7:30:00 AM 11.23 52.214 0.09 5.84 235.5 0.17
10/29/2021 7:45:00 AM 11.22 52.196 0.09 5.83 241.39 0.17
10/29/2021 8:00:00 AM 11.21 52.178 0.09 5.83 234.34 0.17
10/29/2021 8:15:00 AM 11.2 52.16 0.09 5.83 237.31 0.17
10/29/2021 8:30:00 AM 11.18 52.124 0.09 5.82 232.32 0.17
10/29/2021 8:45:00 AM 11.16 52.088 0.09 5.83 239.14 0.17
10/29/2021 9:00:00 AM 11.15 52.07 0.09 5.83 225.92 0.17
10/29/2021 9:15:00 AM 11.13 52.034 0.091 5.83 221.6 0.17
10/29/2021 9:30:00 AM 11.11 51.998 0.091 5.82 222.57 0.17
10/29/2021 9:45:00 AM 11.1 51.98 0.091 5.83 219.62 0.17
10/29/2021 10:00:00 AM 11.08 51.944 0.091 5.83 215.64 0.17
10/29/2021 10:15:00 AM 11.08 51.944 0.09 5.83 216.59 0.17
10/29/2021 10:30:00 AM 11.07 51.926 0.09 5.83 218.5 0.17
10/29/2021 10:45:00 AM 11.08 51.944 0.09 5.83 221.58 0.17
10/29/2021 11:00:00 AM 11.08 51.944 0.09 5.83 224.14 0.17
10/29/2021 11:15:00 AM 11.09 51.962 0.09 5.83 232.94 0.17
10/29/2021 11:30:00 AM 11.1 51.98 0.09 5.83 254.58 0.18
10/29/2021 11:45:00 AM 11.11 51.998 0.09 5.83 256.49 0.17
10/29/2021 12:00:00 PM 11.12 52.016 0.09 5.83 257.89 0.17
10/29/2021 12:15:00 PM 11.13 52.034 0.089 5.83 261.33 0.17
10/29/2021 12:30:00 PM 11.14 52.052 0.09 5.83 263.19 0.17
10/29/2021 12:45:00 PM 11.15 52.07 0.09 5.83 264.24 0.17
10/29/2021 1:00:00 PM 11.16 52.088 0.09 5.83 264.45 0.17
10/29/2021 1:15:00 PM 11.18 52.124 0.091 5.83 275.19 0.17
10/29/2021 1:30:00 PM 11.21 52.178 0.091 5.82 270.4 0.17
10/29/2021 1:45:00 PM 11.23 52.214 0.091 5.83 237.24 0.17
10/29/2021 2:00:00 PM 11.26 52.268 0.091 5.84 237.62 0.17
10/29/2021 2:15:00 PM 11.29 52.322 0.091 5.84 238.81 0.17
10/29/2021 2:30:00 PM 11.34 52.412 0.091 5.84 239.05 0.17
10/29/2021 2:45:00 PM 11.39 52.502 0.091 5.83 239.31 0.17
10/29/2021 3:00:00 PM 11.43 52.574 0.092 5.84 239.66 0.17
10/29/2021 3:15:00 PM 11.48 52.664 0.092 5.84 240.22 0.17
10/29/2021 3:30:00 PM 11.51 52.718 0.092 5.83 249.69 0.17
10/29/2021 3:45:00 PM 11.53 52.754 0.092 5.83 228.21 0.17
10/29/2021 4:00:00 PM 11.54 52.772 0.093 5.83 227.08 0.17
10/29/2021 4:15:00 PM 11.55 52.79 0.093 5.82 225.8 0.17
10/29/2021 4:30:00 PM 11.54 52.772 0.093 5.82 224.92 0.17
10/29/2021 4:45:00 PM 11.53 52.754 0.094 5.83 225.06 0.17
10/29/2021 5:00:00 PM 11.52 52.736 0.094 5.81 222.72 0.17
10/29/2021 5:15:00 PM 11.5 52.7 0.095 5.81 222.32 0.17
10/29/2021 5:30:00 PM 11.47 52.646 0.095 5.81 221.31 0.17
10/29/2021 5:45:00 PM 11.45 52.61 0.095 5.81 220.67 0.17
10/29/2021 6:00:00 PM 11.42 52.556 0.096 5.81 220.76 0.17
10/29/2021 6:15:00 PM 11.39 52.502 0.096 5.81 219.91 0.17
10/29/2021 6:30:00 PM 11.36 52.448 0.096 5.81 219.96 0.17
10/29/2021 6:45:00 PM 11.33 52.394 0.096 5.81 219.62 0.17
10/29/2021 7:00:00 PM 11.3 52.34 0.096 5.81 218.33 0.17
10/29/2021 7:15:00 PM 11.27 52.286 0.096 5.8 218.27 0.17
10/29/2021 7:30:00 PM 11.25 52.25 0.097 5.82 217.48 0.17
10/29/2021 7:45:00 PM 11.22 52.196 0.097 5.8 216.37 0.17
10/29/2021 8:00:00 PM 11.19 52.142 0.097 5.82 211.95 0.17
10/29/2021 8:15:00 PM 11.16 52.088 0.097 5.81 211.69 0.17
10/29/2021 8:30:00 PM 11.13 52.034 0.098 5.8 211.84 0.17
10/29/2021 8:45:00 PM 11.11 51.998 0.098 5.81 212.52 0.17
10/29/2021 9:00:00 PM 11.09 51.962 0.098 5.8 212.69 0.17
10/29/2021 9:15:00 PM 11.07 51.926 0.098 5.8 212.86 0.18
10/29/2021 9:30:00 PM 11.06 51.908 0.098 5.81 212.33 0.17
10/29/2021 9:45:00 PM 11.04 51.872 0.099 5.81 211.62 0.17
10/29/2021 10:00:00 PM 11.02 51.836 0.099 5.81 207.54 0.17
10/29/2021 10:15:00 PM 11.01 51.818 0.099 5.8 185.89 0.18
10/29/2021 10:30:00 PM 11 51.8 0.099 5.8 182.4 0.18
10/29/2021 10:45:00 PM 10.99 51.782 0.099 5.8 181.56 0.18
10/29/2021 11:00:00 PM 10.98 51.764 0.1 5.8 179.27 0.18
10/29/2021 11:15:00 PM 10.97 51.746 0.1 5.8 179.64 0.18
10/29/2021 11:30:00 PM 10.95 51.71 0.1 5.8 177.85 0.18
10/29/2021 11:45:00 PM 10.94 51.692 0.1 5.8 177.19 0.18
10/30/2021 12:00:00 AM 10.93 51.674 0.1 5.79 175.92 0.18
10/30/2021 12:15:00 AM 10.92 51.656 0.1 5.8 175.84 0.18
10/30/2021 12:30:00 AM 10.9 51.62 0.1 5.8 175.79 0.18
10/30/2021 12:45:00 AM 10.89 51.602 0.1 5.79 153 0.18
10/30/2021 1:00:00 AM 10.88 51.584 0.1 5.83 151.69 0.17
10/30/2021 1:15:00 AM 10.87 51.566 0.101 5.79 151.43 0.18
10/30/2021 1:30:00 AM 10.86 51.548 0.101 5.79 160.34 0.17
10/30/2021 1:45:00 AM 10.85 51.53 0.101 5.79 217.79 0.18
10/30/2021 2:00:00 AM 10.84 51.512 0.101 5.78 217.44 0.18
10/30/2021 2:15:00 AM 10.82 51.476 0.101 5.78 216.8 0.18
10/30/2021 2:30:00 AM 10.82 51.476 0.101 5.77 215.54 0.18
10/30/2021 2:45:00 AM 10.81 51.458 0.101 5.78 214.43 0.18
10/30/2021 3:00:00 AM 10.8 51.44 0.101 5.77 214.38 0.18
10/30/2021 3:15:00 AM 10.79 51.422 0.101 5.78 215.7 0.18
10/30/2021 3:30:00 AM 10.78 51.404 0.101 5.78 215 0.17
10/30/2021 3:45:00 AM 10.78 51.404 0.101 5.78 210.78 0.18
10/30/2021 4:00:00 AM 10.77 51.386 0.101 5.78 207.95 0.18
10/30/2021 4:15:00 AM 10.76 51.368 0.101 5.77 214.43 0.17
10/30/2021 4:30:00 AM 10.76 51.368 0.101 5.79 214.4 0.18
10/30/2021 4:45:00 AM 10.75 51.35 0.101 5.78 213.5 0.17
10/30/2021 5:00:00 AM 10.74 51.332 0.101 5.78 211.2 0.18
10/30/2021 5:15:00 AM 10.73 51.314 0.101 5.78 211.37 0.17
10/30/2021 5:30:00 AM 10.73 51.314 0.102 5.79 222.05 0.17
10/30/2021 5:45:00 AM 10.72 51.296 0.102 5.78 221.2 0.18
10/30/2021 6:00:00 AM 10.72 51.296 0.102 5.79 220.6 0.17
10/30/2021 6:15:00 AM 10.71 51.278 0.102 5.79 218.89 0.18
10/30/2021 6:30:00 AM 10.7 51.26 0.102 5.91 220.56 0.18
10/30/2021 6:45:00 AM 10.69 51.242 0.102 5.95 220.71 0.18
10/30/2021 7:00:00 AM 10.69 51.242 0.103 5.96 220.95 0.17
10/30/2021 7:15:00 AM 10.68 51.224 0.103 5.96 221.4 0.18
10/30/2021 7:30:00 AM 10.68 51.224 0.103 5.96 225.34 0.18
10/30/2021 7:45:00 AM 10.67 51.206 0.103 5.97 225.56 0.18
10/30/2021 8:00:00 AM 10.67 51.206 0.103 5.96 225.75 0.18
10/30/2021 8:15:00 AM 10.67 51.206 0.104 5.96 226.36 0.18
10/30/2021 8:30:00 AM 10.67 51.206 0.104 5.97 225.29 0.18
10/30/2021 8:45:00 AM 10.67 51.206 0.104 5.96 226.6 0.18
10/30/2021 9:00:00 AM 10.68 51.224 0.104 5.95 227.28 0.18
10/30/2021 9:15:00 AM 10.69 51.242 0.104 5.97 226.96 0.18
10/30/2021 9:30:00 AM 10.69 51.242 0.104 5.97 227.5 0.18
10/30/2021 9:45:00 AM 10.7 51.26 0.104 5.96 227.13 0.18
10/30/2021 10:00:00 AM 10.71 51.278 0.104 5.93 228.02 0.18
10/30/2021 10:15:00 AM 10.72 51.296 0.105 5.94 229.05 0.18
10/30/2021 10:30:00 AM 10.73 51.314 0.105 5.94 229.96 0.18
10/30/2021 10:45:00 AM 10.74 51.332 0.105 5.85 229.75 0.18
10/30/2021 11:00:00 AM 10.75 51.35 0.105 5.86 229.8 0.18
10/30/2021 11:15:00 AM 10.76 51.368 0.105 5.83 221.34 0.18
10/30/2021 11:30:00 AM 10.77 51.386 0.105 5.84 184.6 0.18
10/30/2021 11:45:00 AM 10.78 51.404 0.105 5.83 202.05 0.18
10/30/2021 12:00:00 PM 10.79 51.422 0.105 5.86 206.83 0.18
10/30/2021 12:15:00 PM 10.81 51.458 0.105 5.84 203.07 0.18
10/30/2021 12:30:00 PM 10.82 51.476 0.105 5.88 199.69 0.18
10/30/2021 12:45:00 PM 10.82 51.476 0.105 5.86 199.24 0.18
10/30/2021 1:00:00 PM 10.83 51.494 0.105 5.84 198.94 0.18
10/30/2021 1:15:00 PM 10.84 51.512 0.105 5.85 190.89 0.18
10/30/2021 1:30:00 PM 10.85 51.53 0.105 5.84 189.01 0.18
10/30/2021 1:45:00 PM 10.85 51.53 0.105 5.84 188.79 0.18
10/30/2021 2:00:00 PM 10.86 51.548 0.105 5.84 186.34 0.18
10/30/2021 2:15:00 PM 10.86 51.548 0.104 5.83 218.25 0.18
10/30/2021 2:30:00 PM 10.87 51.566 0.104 5.83 190.02 0.18
10/30/2021 2:45:00 PM 10.88 51.584 0.104 5.84 202.75 0.18
10/30/2021 3:00:00 PM 10.89 51.602 0.103 5.83 202.64 0.18
10/30/2021 3:15:00 PM 10.9 51.62 0.103 5.83 202.83 0.18
10/30/2021 3:30:00 PM 10.91 51.638 0.102 5.83 202.84 0.18
10/30/2021 3:45:00 PM 10.92 51.656 0.102 5.83 203.46 0.18
10/30/2021 4:00:00 PM 10.94 51.692 0.102 5.83 185.52 0.18
10/30/2021 4:15:00 PM 10.95 51.71 0.101 5.83 177.63 0.18
10/30/2021 4:30:00 PM 10.96 51.728 0.101 5.82 178.19 0.18
10/30/2021 4:45:00 PM 10.97 51.746 0.101 5.82 178.21 0.18
10/30/2021 5:00:00 PM 10.97 51.746 0.101 5.82 190.22 0.18
10/30/2021 5:15:00 PM 10.98 51.764 0.1 5.82 190.43 0.18
10/30/2021 5:30:00 PM 10.98 51.764 0.1 5.83 189.19 0.18
10/30/2021 5:45:00 PM 10.99 51.782 0.1 5.83 186.6 0.18
10/30/2021 6:00:00 PM 10.99 51.782 0.1 5.82 182.79 0.18
10/30/2021 6:15:00 PM 10.99 51.782 0.099 5.84 182.76 0.18
10/30/2021 6:30:00 PM 10.98 51.764 0.099 5.84 182.36 0.18
10/30/2021 6:45:00 PM 10.98 51.764 0.098 5.91 182.28 0.18
10/30/2021 7:00:00 PM 10.96 51.728 0.098 5.91 182.26 0.18
10/30/2021 7:15:00 PM 10.95 51.71 0.098 5.93 182.17 0.18
10/30/2021 7:30:00 PM 10.93 51.674 0.097 5.94 182.61 0.18
10/30/2021 7:45:00 PM 10.9 51.62 0.097 5.94 182.29 0.18
10/30/2021 8:00:00 PM 10.88 51.584 0.097 5.95 177.41 0.18
10/30/2021 8:15:00 PM 10.86 51.548 0.097 5.95 178.09 0.18
10/30/2021 8:30:00 PM 10.84 51.512 0.097 5.96 178.24 0.18
10/30/2021 8:45:00 PM 10.83 51.494 0.098 5.95 189.82 0.18
10/30/2021 9:00:00 PM 10.81 51.458 0.098 5.95 189.68 0.18
10/30/2021 9:15:00 PM 10.8 51.44 0.099 5.95 189.71 0.18
10/30/2021 9:30:00 PM 10.79 51.422 0.099 5.95 190.17 0.18
10/30/2021 9:45:00 PM 10.78 51.404 0.099 5.95 189.9 0.18
10/30/2021 10:00:00 PM 10.77 51.386 0.1 5.95 190.24 0.18
10/30/2021 10:15:00 PM 10.77 51.386 0.1 5.95 190.19 0.18
10/30/2021 10:30:00 PM 10.76 51.368 0.1 5.94 192.74 0.18
10/30/2021 10:45:00 PM 10.76 51.368 0.1 5.94 189.96 0.18
10/30/2021 11:00:00 PM 10.75 51.35 0.1 5.94 189.37 0.18
10/30/2021 11:15:00 PM 10.75 51.35 0.1 5.93 178.09 0.18
10/30/2021 11:30:00 PM 10.74 51.332 0.1 5.94 159.09 0.18
10/30/2021 11:45:00 PM 10.73 51.314 0.1 5.94 154.42 0.18
10/31/2021 12:00:00 AM 10.73 51.314 0.1 5.93 153.53 0.18
10/31/2021 12:15:00 AM 10.73 51.314 0.099 5.95 152.28 0.17
10/31/2021 12:30:00 AM 10.72 51.296 0.099 5.94 151.9 0.18
10/31/2021 12:45:00 AM 10.72 51.296 0.099 5.94 179.85 0.17
10/31/2021 1:00:00 AM 10.71 51.278 0.099 5.93 158.01 0.18
10/31/2021 1:15:00 AM 10.71 51.278 0.099 5.94 158.48 0.18
10/31/2021 1:30:00 AM 10.71 51.278 0.099 5.93 173.26 0.18
10/31/2021 1:45:00 AM 10.71 51.278 0.099 5.92 176.36 0.17
10/31/2021 2:00:00 AM 10.7 51.26 0.098 5.95 179.45 0.18
10/31/2021 2:15:00 AM 10.69 51.242 0.098 5.95 178.51 0.18
10/31/2021 2:30:00 AM 10.69 51.242 0.098 5.91 178.04 0.18
10/31/2021 2:45:00 AM 10.69 51.242 0.098 5.93 197.62 0.18
10/31/2021 3:00:00 AM 10.68 51.224 0.098 5.92 199.95 0.17
10/31/2021 3:15:00 AM 10.67 51.206 0.098 5.95 193.05 0.18
10/31/2021 3:30:00 AM 10.67 51.206 0.097 5.95 189.5 0.17
10/31/2021 3:45:00 AM 10.66 51.188 0.097 5.94 185.47 0.17
10/31/2021 4:00:00 AM 10.65 51.17 0.097 5.93 190.7 0.18
10/31/2021 4:15:00 AM 10.65 51.17 0.096 5.94 190.37 0.18
10/31/2021 4:30:00 AM 10.64 51.152 0.096 5.95 204.83 0.17
10/31/2021 4:45:00 AM 10.64 51.152 0.096 5.94 203.09 0.17
10/31/2021 5:00:00 AM 10.64 51.152 0.096 5.95 203.79 0.18
10/31/2021 5:15:00 AM 10.63 51.134 0.096 5.94 204.04 0.17
10/31/2021 5:30:00 AM 10.63 51.134 0.096 5.94 214.7 0.17
10/31/2021 5:45:00 AM 10.62 51.116 0.096 5.93 214.67 0.18
10/31/2021 6:00:00 AM 10.61 51.098 0.096 5.95 216.47 0.17
10/31/2021 6:15:00 AM 10.61 51.098 0.096 5.94 216.34 0.18
10/31/2021 6:30:00 AM 10.6 51.08 0.096 5.95 195.26 0.18
10/31/2021 6:45:00 AM 10.59 51.062 0.095 5.95 195.87 0.17
10/31/2021 7:00:00 AM 10.59 51.062 0.095 5.94 208.25 0.18
10/31/2021 7:15:00 AM 10.59 51.062 0.095 5.94 208.44 0.18
10/31/2021 7:30:00 AM 10.58 51.044 0.095 5.94 209.16 0.18
10/31/2021 7:45:00 AM 10.58 51.044 0.095 5.93 209.92 0.18
10/31/2021 8:00:00 AM 10.57 51.026 0.094 5.93 209.92 0.18
10/31/2021 8:15:00 AM 10.57 51.026 0.094 5.94 218.37 0.18
10/31/2021 8:30:00 AM 10.57 51.026 0.094 5.92 193.65 0.17
10/31/2021 8:45:00 AM 10.57 51.026 0.094 5.93 192.47 0.18
10/31/2021 9:00:00 AM 10.57 51.026 0.094 5.93 199.18 0.18
10/31/2021 9:15:00 AM 10.57 51.026 0.094 5.94 199.52 0.18
10/31/2021 9:30:00 AM 10.57 51.026 0.093 5.94 197.33 0.17
10/31/2021 9:45:00 AM 10.57 51.026 0.093 5.94 196.5 0.17
10/31/2021 10:00:00 AM 10.57 51.026 0.093 5.95 195.99 0.18
10/31/2021 10:15:00 AM 10.57 51.026 0.093 5.94 194.91 0.17
10/31/2021 10:30:00 AM 10.57 51.026 0.093 5.95 196.38 0.17
10/31/2021 10:45:00 AM 10.57 51.026 0.093 5.95 194.83 0.18
10/31/2021 11:00:00 AM 10.58 51.044 0.093 5.95 189.78 0.17
10/31/2021 11:15:00 AM 10.58 51.044 0.092 5.95 188.94 0.18
10/31/2021 11:30:00 AM 10.58 51.044 0.091 5.92 191.19 0.18
10/31/2021 11:45:00 AM 10.58 51.044 0.091 5.93 190.89 0.17
10/31/2021 12:00:00 PM 10.58 51.044 0.091 5.93 179.26 0.18
10/31/2021 12:15:00 PM 10.59 51.062 0.09 5.92 179.37 0.18
10/31/2021 12:30:00 PM 10.59 51.062 0.09 5.93 179.19 0.17
10/31/2021 12:45:00 PM 10.59 51.062 0.089 5.91 178.83 0.18
10/31/2021 1:00:00 PM 10.59 51.062 0.088 5.92 175.66 0.17
10/31/2021 1:15:00 PM 10.6 51.08 0.087 5.89 177.15 0.18
10/31/2021 1:30:00 PM 10.6 51.08 0.087 5.89 183.54 0.18
10/31/2021 1:45:00 PM 10.61 51.098 0.086 5.89 173.95 0.18
10/31/2021 2:00:00 PM 10.61 51.098 0.085 5.85 169.59 0.18
10/31/2021 2:15:00 PM 10.62 51.116 0.084 5.86 169.88 0.18
10/31/2021 2:30:00 PM 10.62 51.116 0.084 5.83 174.18 0.18
10/31/2021 2:45:00 PM 10.62 51.116 0.083 5.83 175.79 0.18
10/31/2021 3:00:00 PM 10.63 51.134 0.083 5.85 175.59 0.18
10/31/2021 3:15:00 PM 10.63 51.134 0.083 5.83 175.48 0.17
10/31/2021 3:30:00 PM 10.64 51.152 0.083 5.84 175.32 0.18
10/31/2021 3:45:00 PM 10.64 51.152 0.083 5.82 174.17 0.18
10/31/2021 4:00:00 PM 10.65 51.17 0.083 5.82 174.15 0.18
10/31/2021 4:15:00 PM 10.65 51.17 0.083 5.86 177.34 0.18
10/31/2021 4:30:00 PM 10.65 51.17 0.083 5.85 173.85 0.18
10/31/2021 4:45:00 PM 10.66 51.188 0.083 5.85 174.18 0.18
10/31/2021 5:00:00 PM 10.66 51.188 0.083 5.87 173.9 0.18
10/31/2021 5:15:00 PM 10.66 51.188 0.083 5.84 173.55 0.18
10/31/2021 5:30:00 PM 10.67 51.206 0.083 5.86 174.1 0.18
10/31/2021 5:45:00 PM 10.67 51.206 0.083 5.84 178.19 0.18
10/31/2021 6:00:00 PM 10.66 51.188 0.083 5.84 178.7 0.18
10/31/2021 6:15:00 PM 10.66 51.188 0.083 5.87 178.86 0.17
10/31/2021 6:30:00 PM 10.66 51.188 0.083 5.91 178.09 0.17
10/31/2021 6:45:00 PM 10.66 51.188 0.083 5.88 177.94 0.18
10/31/2021 7:00:00 PM 10.65 51.17 0.083 5.89 178.09 0.18
10/31/2021 7:15:00 PM 10.65 51.17 0.083 5.87 179.03 0.17
10/31/2021 7:30:00 PM 10.64 51.152 0.082 5.94 178.93 0.17
10/31/2021 7:45:00 PM 10.63 51.134 0.081 5.94 178.84 0.17
10/31/2021 8:00:00 PM 10.63 51.134 0.08 5.93 179.43 0.18
10/31/2021 8:15:00 PM 10.62 51.116 0.08 5.94 179.05 0.17
10/31/2021 8:30:00 PM 10.61 51.098 0.079 5.93 178.79 0.17
10/31/2021 8:45:00 PM 10.6 51.08 0.079 5.88 178.81 0.17
10/31/2021 9:00:00 PM 10.6 51.08 0.079 5.89 181.38 0.17
10/31/2021 9:15:00 PM 10.59 51.062 0.079 5.94 180.25 0.17
10/31/2021 9:30:00 PM 10.58 51.044 0.079 5.88 179.83 0.18
10/31/2021 9:45:00 PM 10.57 51.026 0.078 5.88 180.24 0.18
10/31/2021 10:00:00 PM 10.56 51.008 0.078 5.86 186.66 0.18
10/31/2021 10:15:00 PM 10.55 50.99 0.078 5.91 186.61 0.18
10/31/2021 10:30:00 PM 10.55 50.99 0.078 5.92 198.08 0.18
10/31/2021 10:45:00 PM 10.54 50.972 0.076 5.93 191.27 0.18
10/31/2021 11:00:00 PM 10.54 50.972 0.076 5.92 190.94 0.18
10/31/2021 11:15:00 PM 10.54 50.972 0.075 5.9 190.17 0.18
10/31/2021 11:30:00 PM 10.54 50.972 0.075 5.88 188.71 0.18
10/31/2021 11:45:00 PM 10.53 50.954 0.075 5.89 188.95 0.18
11/1/2021 12:00:00 AM 10.53 50.954 0.075 5.89 188.92 0.18
11/1/2021 12:15:00 AM 10.53 50.954 0.074 5.91 187.76 0.18
11/1/2021 12:30:00 AM 10.52 50.936 0.073 5.89 187.41 0.18
11/1/2021 12:45:00 AM 10.52 50.936 0.073 5.89 190.16 0.17
11/1/2021 1:00:00 AM 10.52 50.936 0.073 5.92 189.42 0.18
11/1/2021 1:15:00 AM 10.51 50.918 0.073 5.93 191.44 0.18
11/1/2021 1:30:00 AM 10.51 50.918 0.073 5.91 191.98 0.18
11/1/2021 1:45:00 AM 10.5 50.9 0.073 5.92 192.87 0.18
11/1/2021 2:00:00 AM 10.5 50.9 0.073 5.93 192.84 0.18
11/1/2021 2:15:00 AM 10.49 50.882 0.072 5.87 192.51 0.18
11/1/2021 2:30:00 AM 10.49 50.882 0.073 5.87 192.73 0.18
11/1/2021 2:45:00 AM 10.48 50.864 0.072 5.91 192.94 0.18
11/1/2021 3:00:00 AM 10.48 50.864 0.072 5.82 193.07 0.18
11/1/2021 3:15:00 AM 10.47 50.846 0.072 5.9 193.42 0.18
11/1/2021 3:30:00 AM 10.47 50.846 0.071 5.89 193.79 0.18
11/1/2021 3:45:00 AM 10.47 50.846 0.071 5.88 193.26 0.18
11/1/2021 4:00:00 AM 10.46 50.828 0.071 5.84 192.55 0.18
11/1/2021 4:15:00 AM 10.45 50.81 0.071 5.84 192.22 0.18
11/1/2021 4:30:00 AM 10.45 50.81 0.071 5.87 191.95 0.18
11/1/2021 4:45:00 AM 10.44 50.792 0.07 5.84 191.22 0.18
11/1/2021 5:00:00 AM 10.43 50.774 0.071 5.86 189.12 0.18
11/1/2021 5:15:00 AM 10.42 50.756 0.07 5.87 188.12 0.18
11/1/2021 5:30:00 AM 10.41 50.738 0.07 5.9 187.2 0.18
11/1/2021 5:45:00 AM 10.4 50.72 0.07 5.95 187.22 0.18
11/1/2021 6:00:00 AM 10.38 50.684 0.07 5.86 186.7 0.18
11/1/2021 6:15:00 AM 10.37 50.666 0.07 5.89 184.27 0.18
11/1/2021 6:30:00 AM 10.35 50.63 0.07 5.93 182.92 0.18
11/1/2021 6:45:00 AM 10.33 50.594 0.07 5.93 182.48 0.18
11/1/2021 7:00:00 AM 10.31 50.558 0.07 5.89 182.69 0.18
11/1/2021 7:15:00 AM 10.3 50.54 0.069 5.91 182.04 0.18
11/1/2021 7:30:00 AM 10.28 50.504 0.07 5.93 182.5 0.18
11/1/2021 7:45:00 AM 10.27 50.486 0.069 5.97 182.01 0.18
11/1/2021 8:00:00 AM 10.25 50.45 0.069 5.96 181.03 0.18
11/1/2021 8:15:00 AM 10.23 50.414 0.069 5.96 180.46 0.18
11/1/2021 8:30:00 AM 10.21 50.378 0.069 5.98 180.64 0.18
11/1/2021 8:45:00 AM 10.19 50.342 0.069 5.95 180.58 0.18
11/1/2021 9:00:00 AM 10.17 50.306 0.069 5.97 180.29 0.18
11/1/2021 9:15:00 AM 10.16 50.288 0.069 5.96 179.94 0.18
11/1/2021 9:30:00 AM 10.15 50.27 0.069 5.91 180.21 0.18
11/1/2021 9:45:00 AM 10.14 50.252 0.069 5.89 179.38 0.18
11/1/2021 10:00:00 AM 10.14 50.252 0.07 5.92 180.02 0.18
11/1/2021 10:15:00 AM 10.14 50.252 0.07 5.87 180.01 0.18
11/1/2021 10:30:00 AM 10.15 50.27 0.071 5.89 179.38 0.18
11/1/2021 10:45:00 AM 10.15 50.27 0.071 5.97 179.99 0.18
11/1/2021 11:00:00 AM 10.16 50.288 0.071 5.98 179.71 0.18
11/1/2021 11:15:00 AM 10.17 50.306 0.071 6 179.4 0.18
11/1/2021 11:30:00 AM 10.19 50.342 0.072 6.02 178.81 0.18
11/1/2021 11:45:00 AM 10.2 50.36 0.072 6.03 178.74 0.18
11/1/2021 12:00:00 PM 10.22 50.396 0.072 6.04 178.29 0.18
11/1/2021 12:15:00 PM 10.23 50.414 0.072 6.04 177.85 0.18
11/1/2021 12:30:00 PM 10.25 50.45 0.073 6.06 178.54 0.18
11/1/2021 12:45:00 PM 10.28 50.504 0.073 6.06 177.96 0.18
11/1/2021 1:00:00 PM 10.31 50.558 0.073 6.05 177.37 0.18
11/1/2021 1:15:00 PM 10.34 50.612 0.073 6.05 177.27 0.18
11/1/2021 1:30:00 PM 10.38 50.684 0.074 6.06 177.09 0.18
11/1/2021 1:45:00 PM 10.42 50.756 0.074 6.06 177.19 0.18
11/1/2021 2:00:00 PM 10.46 50.828 0.074 6.06 177.36 0.18
11/1/2021 2:15:00 PM 10.5 50.9 0.074 6.06 176.59 0.18
11/1/2021 2:30:00 PM 10.53 50.954 0.074 6.07 177.02 0.18
11/1/2021 2:45:00 PM 10.56 51.008 0.075 6.07 176.46 0.18
11/1/2021 3:00:00 PM 10.58 51.044 0.075 6.08 175.44 0.18
11/1/2021 3:15:00 PM 10.59 51.062 0.075 6.09 175.53 0.18
11/1/2021 3:30:00 PM 10.6 51.08 0.075 6.09 175.31 0.18
11/1/2021 3:45:00 PM 10.61 51.098 0.075 6.09 175.9 0.18
11/1/2021 4:00:00 PM 10.61 51.098 0.076 6.09 175.7 0.18
11/1/2021 4:15:00 PM 10.6 51.08 0.076 6.09 174.99 0.17
11/1/2021 4:30:00 PM 10.59 51.062 0.076 6.09 175.43 0.17
11/1/2021 4:45:00 PM 10.57 51.026 0.076 6.09 175.35 0.18
11/1/2021 5:00:00 PM 10.56 51.008 0.077 6.09 171.52 0.18
11/1/2021 5:15:00 PM 10.53 50.954 0.077 6.1 170.48 0.18
11/1/2021 5:30:00 PM 10.51 50.918 0.077 6.09 169.54 0.18
11/1/2021 5:45:00 PM 10.48 50.864 0.078 6.08 169.64 0.18
11/1/2021 6:00:00 PM 10.45 50.81 0.078 6.08 169.37 0.18
11/1/2021 6:15:00 PM 10.42 50.756 0.078 6.07 169.42 0.18
11/1/2021 6:30:00 PM 10.4 50.72 0.078 6.07 168.94 0.18
11/1/2021 6:45:00 PM 10.37 50.666 0.079 6.07 169.32 0.18
11/1/2021 7:00:00 PM 10.35 50.63 0.079 6.06 169.65 0.18
11/1/2021 7:15:00 PM 10.32 50.576 0.079 6.06 169.6 0.18
11/1/2021 7:30:00 PM 10.3 50.54 0.079 6.05 169.95 0.18
11/1/2021 7:45:00 PM 10.28 50.504 0.08 6.05 169.68 0.18
11/1/2021 8:00:00 PM 10.25 50.45 0.08 6.05 169.77 0.18
11/1/2021 8:15:00 PM 10.23 50.414 0.08 6.05 169.93 0.18
11/1/2021 8:30:00 PM 10.21 50.378 0.08 6.05 170.82 0.18
11/1/2021 8:45:00 PM 10.19 50.342 0.08 6.05 170.41 0.18
11/1/2021 9:00:00 PM 10.17 50.306 0.081 6.04 170.14 0.18
11/1/2021 9:15:00 PM 10.15 50.27 0.081 6.05 170.5 0.18
11/1/2021 9:30:00 PM 10.13 50.234 0.081 6.04 171.06 0.18
11/1/2021 9:45:00 PM 10.1 50.18 0.081 6.05 171.31 0.18
11/1/2021 10:00:00 PM 10.08 50.144 0.082 6.04 170.59 0.18
11/1/2021 10:15:00 PM 10.06 50.108 0.082 6.04 171.03 0.18
11/1/2021 10:30:00 PM 10.04 50.072 0.083 6.04 170.91 0.18
11/1/2021 10:45:00 PM 10.02 50.036 0.083 6.04 170.56 0.18
11/1/2021 11:00:00 PM 10 50 0.084 6.04 170.71 0.18
11/1/2021 11:15:00 PM 9.98 49.964 0.084 6.04 170.14 0.18
11/1/2021 11:30:00 PM 9.96 49.928 0.084 6.04 170.31 0.18
11/1/2021 11:45:00 PM 9.94 49.892 0.083 6.04 170.04 0.18
11/2/2021 12:00:00 AM 9.92 49.856 0.084 6.04 169.52 0.18
11/2/2021 12:15:00 AM 9.89 49.802 0.084 6.04 169.38 0.18
11/2/2021 12:30:00 AM 9.87 49.766 0.084 6.03 169.34 0.18
11/2/2021 12:45:00 AM 9.85 49.73 0.083 6.03 170.22 0.18
11/2/2021 1:00:00 AM 9.83 49.694 0.083 6.04 170.53 0.18
11/2/2021 1:15:00 AM 9.81 49.658 0.084 6.03 170.63 0.18
11/2/2021 1:30:00 AM 9.8 49.64 0.085 6.03 170.88 0.18
11/2/2021 1:45:00 AM 9.78 49.604 0.085 6.03 170.62 0.18
11/2/2021 2:00:00 AM 9.77 49.586 0.086 6.03 170.36 0.18
11/2/2021 2:15:00 AM 9.75 49.55 0.086 6.03 170.4 0.18
11/2/2021 2:30:00 AM 9.74 49.532 0.086 6.03 170.47 0.18
11/2/2021 2:45:00 AM 9.73 49.514 0.086 6.03 170.33 0.18
11/2/2021 3:00:00 AM 9.72 49.496 0.085 6.03 170.54 0.18
11/2/2021 3:15:00 AM 9.7 49.46 0.085 6.03 170.57 0.18
11/2/2021 3:30:00 AM 9.69 49.442 0.085 6.02 170.9 0.18
11/2/2021 3:45:00 AM 9.68 49.424 0.084 6.02 170.93 0.18
11/2/2021 4:00:00 AM 9.67 49.406 0.084 6.01 171.31 0.18
11/2/2021 4:15:00 AM 9.66 49.388 0.084 6.01 170.82 0.18
11/2/2021 4:30:00 AM 9.65 49.37 0.084 6.01 171.06 0.18
11/2/2021 4:45:00 AM 9.64 49.352 0.084 6.01 171.12 0.18
11/2/2021 5:00:00 AM 9.64 49.352 0.083 6.01 171.33 0.18
11/2/2021 5:15:00 AM 9.63 49.334 0.082 6.01 171.73 0.18
11/2/2021 5:30:00 AM 9.62 49.316 0.082 6.01 171.6 0.18
11/2/2021 5:45:00 AM 9.6 49.28 0.081 6.01 171.45 0.18
11/2/2021 6:00:00 AM 9.59 49.262 0.081 6 171.35 0.18
11/2/2021 6:15:00 AM 9.58 49.244 0.081 6.01 171.45 0.18
11/2/2021 6:30:00 AM 9.57 49.226 0.081 6.02 171.24 0.18
11/2/2021 6:45:00 AM 9.56 49.208 0.081 6.02 170.93 0.18
11/2/2021 7:00:00 AM 9.55 49.19 0.081 6.01 170.75 0.18
11/2/2021 7:15:00 AM 9.54 49.172 0.08 6.02 170.76 0.18
11/2/2021 7:30:00 AM 9.52 49.136 0.08 6.01 170.23 0.18
11/2/2021 7:45:00 AM 9.51 49.118 0.08 6.02 170.22 0.18
11/2/2021 8:00:00 AM 9.49 49.082 0.08 6.01 170.49 0.18
11/2/2021 8:15:00 AM 9.48 49.064 0.081 6.01 170.35 0.18
11/2/2021 8:30:00 AM 9.47 49.046 0.081 6.01 170.23 0.18
11/2/2021 8:45:00 AM 9.46 49.028 0.081 6.02 170.16 0.18
11/2/2021 9:00:00 AM 9.45 49.01 0.081 6.02 170.25 0.18
11/2/2021 9:15:00 AM 9.45 49.01 0.081 6.02 169.87 0.18
11/2/2021 9:30:00 AM 9.45 49.01 0.081 6.02 169.49 0.18
11/2/2021 9:45:00 AM 9.46 49.028 0.081 6.03 169.93 0.18
11/2/2021 10:00:00 AM 9.46 49.028 0.082 6.02 169.93 0.18
11/2/2021 10:15:00 AM 9.47 49.046 0.082 6.03 169.64 0.18
11/2/2021 10:30:00 AM 9.48 49.064 0.082 6.03 169.6 0.18
11/2/2021 10:45:00 AM 9.5 49.1 0.082 6.04 169.55 0.18
11/2/2021 11:00:00 AM 9.51 49.118 0.082 6.04 168.85 0.18
11/2/2021 11:15:00 AM 9.53 49.154 0.083 6.05 167.44 0.18
11/2/2021 11:30:00 AM 9.56 49.208 0.082 6.05 167.82 0.18
11/2/2021 11:45:00 AM 9.59 49.262 0.083 6.06 168.94 0.18
11/2/2021 12:00:00 PM 9.63 49.334 0.083 6.06 168.91 0.18
11/2/2021 12:15:00 PM 9.67 49.406 0.083 6.06 167.7 0.18
11/2/2021 12:30:00 PM 9.72 49.496 0.084 6.07 166.17 0.18
11/2/2021 12:45:00 PM 9.76 49.568 0.084 6.07 166.12 0.18
11/2/2021 1:00:00 PM 9.8 49.64 0.084 6.08 165.37 0.18
11/2/2021 1:15:00 PM 9.83 49.694 0.084 6.08 165.31 0.18
11/2/2021 1:30:00 PM 9.85 49.73 0.084 6.08 164.89 0.18
11/2/2021 1:45:00 PM 9.87 49.766 0.085 6.09 164.92 0.18
11/2/2021 2:00:00 PM 9.89 49.802 0.085 6.09 162.84 0.18
11/2/2021 2:15:00 PM 9.9 49.82 0.086 6.09 163.05 0.18
11/2/2021 2:30:00 PM 9.9 49.82 0.087 6.09 162.46 0.18
11/2/2021 2:45:00 PM 9.9 49.82 0.087 6.09 162.16 0.18
11/2/2021 3:00:00 PM 9.9 49.82 0.087 6.08 162.26 0.18
11/2/2021 3:15:00 PM 9.89 49.802 0.088 6.09 162.33 0.18
11/2/2021 3:30:00 PM 9.89 49.802 0.088 6.09 162.57 0.18
11/2/2021 3:45:00 PM 9.88 49.784 0.088 6.09 162.34 0.18
11/2/2021 4:00:00 PM 9.87 49.766 0.088 6.09 161.71 0.18
11/2/2021 4:15:00 PM 9.87 49.766 0.088 6.1 161.56 0.18
11/2/2021 4:30:00 PM 9.87 49.766 0.089 6.1 161.51 0.18
11/2/2021 4:45:00 PM 9.86 49.748 0.088 6.1 159.99 0.18
11/2/2021 5:00:00 PM 9.85 49.73 0.088 6.1 161.76 0.18
11/2/2021 5:15:00 PM 9.84 49.712 0.088 6.09 162.01 0.18
11/2/2021 5:30:00 PM 9.82 49.676 0.088 6.09 162.19 0.18
11/2/2021 5:45:00 PM 9.8 49.64 0.087 6.09 162.21 0.18
11/2/2021 6:00:00 PM 9.78 49.604 0.087 6.08 161.95 0.18
11/2/2021 6:15:00 PM 9.76 49.568 0.086 6.08 162.13 0.18
11/2/2021 6:30:00 PM 9.73 49.514 0.086 6.08 162.67 0.18
11/2/2021 6:45:00 PM 9.71 49.478 0.086 6.08 162.65 0.18
11/2/2021 7:00:00 PM 9.68 49.424 0.086 6.08 162.69 0.18
11/2/2021 7:15:00 PM 9.66 49.388 0.086 6.08 162.9 0.18
11/2/2021 7:30:00 PM 9.63 49.334 0.087 6.07 162.79 0.18
11/2/2021 7:45:00 PM 9.6 49.28 0.087 6.07 162.56 0.18
11/2/2021 8:00:00 PM 9.57 49.226 0.087 6.07 162.71 0.18
11/2/2021 8:15:00 PM 9.54 49.172 0.087 6.07 162.54 0.18
11/2/2021 8:30:00 PM 9.52 49.136 0.087 6.06 162.76 0.18
11/2/2021 8:45:00 PM 9.49 49.082 0.087 6.06 162.63 0.18
11/2/2021 9:00:00 PM 9.47 49.046 0.087 6.05 162.65 0.18
11/2/2021 9:15:00 PM 9.44 48.992 0.086 6.05 162.58 0.18
11/2/2021 9:30:00 PM 9.42 48.956 0.085 6.05 162.28 0.18
11/2/2021 9:45:00 PM 9.39 48.902 0.085 6.05 161.96 0.18
11/2/2021 10:00:00 PM 9.37 48.866 0.085 6.05 162.53 0.18
11/2/2021 10:15:00 PM 9.34 48.812 0.085 6.05 161.62 0.18
11/2/2021 10:30:00 PM 9.32 48.776 0.084 6.05 161.96 0.18
11/2/2021 10:45:00 PM 9.29 48.722 0.084 6.04 162.42 0.18
11/2/2021 11:00:00 PM 9.26 48.668 0.084 6.04 165.22 0.18
11/2/2021 11:15:00 PM 9.23 48.614 0.084 6.04 165.06 0.18
11/2/2021 11:30:00 PM 9.2 48.56 0.084 6.04 165.4 0.18
11/2/2021 11:45:00 PM 9.17 48.506 0.084 6.05 165.6 0.18
11/3/2021 12:00:00 AM 9.14 48.452 0.085 6.04 165.57 0.18
11/3/2021 12:15:00 AM 9.12 48.416 0.085 6.04 149.42 0.18
11/3/2021 12:30:00 AM 9.09 48.362 0.085 6.04 149.32 0.18
11/3/2021 12:45:00 AM 9.06 48.308 0.085 6.04 149.16 0.18
11/3/2021 1:00:00 AM 9.04 48.272 0.085 6.04 149.45 0.18
11/3/2021 1:15:00 AM 9.01 48.218 0.084 6.04 148.99 0.18
11/3/2021 1:30:00 AM 8.98 48.164 0.084 6.04 148.63 0.18
11/3/2021 1:45:00 AM 8.95 48.11 0.084 6.04 148.8 0.18
11/3/2021 2:00:00 AM 8.93 48.074 0.084 6.04 149.07 0.18
11/3/2021 2:15:00 AM 8.9 48.02 0.084 6.04 148.83 0.18
11/3/2021 2:30:00 AM 8.87 47.966 0.084 6.04 148.74 0.18
11/3/2021 2:45:00 AM 8.85 47.93 0.084 6.04 148.72 0.18
11/3/2021 3:00:00 AM 8.82 47.876 0.084 6.04 148.83 0.18
11/3/2021 3:15:00 AM 8.8 47.84 0.084 6.04 148.83 0.18
11/3/2021 3:30:00 AM 8.78 47.804 0.084 6.04 148.89 0.18
11/3/2021 3:45:00 AM 8.75 47.75 0.084 6.04 148.62 0.18
11/3/2021 4:00:00 AM 8.73 47.714 0.084 6.04 148.68 0.18
11/3/2021 4:15:00 AM 8.7 47.66 0.084 6.05 148.98 0.18
11/3/2021 4:30:00 AM 8.68 47.624 0.084 6.04 148.97 0.18
11/3/2021 4:45:00 AM 8.65 47.57 0.084 6.04 149.15 0.18
11/3/2021 5:00:00 AM 8.63 47.534 0.084 6.04 149.25 0.18
11/3/2021 5:15:00 AM 8.6 47.48 0.085 6.05 149.42 0.18
11/3/2021 5:30:00 AM 8.58 47.444 0.084 6.04 146.55 0.18
11/3/2021 5:45:00 AM 8.56 47.408 0.084 6.04 146.88 0.18
11/3/2021 6:00:00 AM 8.54 47.372 0.084 6.04 146.61 0.18
11/3/2021 6:15:00 AM 8.51 47.318 0.084 6.05 146.8 0.18
11/3/2021 6:30:00 AM 8.5 47.3 0.084 6.04 146.56 0.18
11/3/2021 6:45:00 AM 8.47 47.246 0.084 6.04 146.78 0.18
11/3/2021 7:00:00 AM 8.45 47.21 0.084 6.04 149.58 0.18
11/3/2021 7:15:00 AM 8.44 47.192 0.084 6.04 148.89 0.18
11/3/2021 7:30:00 AM 8.42 47.156 0.084 6.04 152.97 0.18
11/3/2021 7:45:00 AM 8.4 47.12 0.084 6.04 153.2 0.18
11/3/2021 8:00:00 AM 8.38 47.084 0.084 6.04 152.93 0.18
11/3/2021 8:15:00 AM 8.36 47.048 0.084 6.03 153.21 0.18
11/3/2021 8:30:00 AM 8.35 47.03 0.084 6.03 154.1 0.18
11/3/2021 8:45:00 AM 8.33 46.994 0.084 6.03 140.25 0.18
11/3/2021 9:00:00 AM 8.32 46.976 0.084 6.03 143.42 0.18
11/3/2021 9:15:00 AM 8.3 46.94 0.084 6.03 144.64 0.18
11/3/2021 9:30:00 AM 8.3 46.94 0.084 6.03 145.87 0.18
11/3/2021 9:45:00 AM 8.29 46.922 0.084 6.03 145.95 0.18
11/3/2021 10:00:00 AM 8.29 46.922 0.085 6.03 146.55 0.18
11/3/2021 10:15:00 AM 8.29 46.922 0.085 6.04 147.51 0.18
11/3/2021 10:30:00 AM 8.3 46.94 0.085 6.03 147.71 0.18
11/3/2021 10:45:00 AM 8.31 46.958 0.085 6.03 147.42 0.18
11/3/2021 11:00:00 AM 8.33 46.994 0.085 6.04 148.01 0.18
11/3/2021 11:15:00 AM 8.36 47.048 0.085 6.04 151.59 0.19
11/3/2021 11:30:00 AM 8.39 47.102 0.085 6.05 152.27 0.19
11/3/2021 11:45:00 AM 8.41 47.138 0.085 6.05 153.92 0.19
11/3/2021 12:00:00 PM 8.45 47.21 0.085 6.06 154.4 0.18
11/3/2021 12:15:00 PM 8.49 47.282 0.085 6.06 153.96 0.18
11/3/2021 12:30:00 PM 8.51 47.318 0.085 6.06 154.06 0.18
11/3/2021 12:45:00 PM 8.54 47.372 0.085 6.06 155.63 0.19
11/3/2021 1:00:00 PM 8.57 47.426 0.085 6.06 157.33 0.18
11/3/2021 1:15:00 PM 8.61 47.498 0.085 6.08 157.69 0.18
11/3/2021 1:30:00 PM 8.63 47.534 0.085 6.08 157.42 0.18
11/3/2021 1:45:00 PM 8.65 47.57 0.085 6.08 157.54 0.18
11/3/2021 2:00:00 PM 8.68 47.624 0.085 6.09 157.17 0.18
11/3/2021 2:15:00 PM 8.7 47.66 0.084 6.09 156.95 0.18
11/3/2021 2:30:00 PM 8.7 47.66 0.084 6.09 156.6 0.18
11/3/2021 2:45:00 PM 8.71 47.678 0.085 6.09 157.51 0.18
11/3/2021 3:00:00 PM 8.71 47.678 0.084 6.1 157.62 0.18
11/3/2021 3:15:00 PM 8.71 47.678 0.084 6.1 157.93 0.18
11/3/2021 3:30:00 PM 8.71 47.678 0.085 6.11 157.96 0.18
11/3/2021 3:45:00 PM 8.7 47.66 0.085 6.11 151.85 0.18
11/3/2021 4:00:00 PM 8.69 47.642 0.085 6.11 150.41 0.18
11/3/2021 4:15:00 PM 8.67 47.606 0.085 6.11 153.75 0.18
11/3/2021 4:30:00 PM 8.65 47.57 0.085 6.11 168.08 0.18
11/3/2021 4:45:00 PM 8.63 47.534 0.085 6.12 156.58 0.18
11/3/2021 5:00:00 PM 8.61 47.498 0.085 6.12 156.37 0.18
11/3/2021 5:15:00 PM 8.59 47.462 0.085 6.12 156.7 0.18
11/3/2021 5:30:00 PM 8.56 47.408 0.085 6.12 157.54 0.19
11/3/2021 5:45:00 PM 8.53 47.354 0.085 6.11 180.69 0.19
11/3/2021 6:00:00 PM 8.51 47.318 0.085 6.11 178.41 0.18
11/3/2021 6:15:00 PM 8.47 47.246 0.085 6.11 178.66 0.18
11/3/2021 6:30:00 PM 8.44 47.192 0.085 6.11 177.83 0.18
11/3/2021 6:45:00 PM 8.4 47.12 0.085 6.11 177.76 0.19
11/3/2021 7:00:00 PM 8.36 47.048 0.085 6.11 177.3 0.19
11/3/2021 7:15:00 PM 8.32 46.976 0.085 6.11 176.89 0.18
11/3/2021 7:30:00 PM 8.27 46.886 0.085 6.11 176.56 0.18
11/3/2021 7:45:00 PM 8.22 46.796 0.085 6.11 178.43 0.18
11/3/2021 8:00:00 PM 8.17 46.706 0.085 6.1 181.25 0.18
11/3/2021 8:15:00 PM 8.11 46.598 0.085 6.11 178.45 0.18
11/3/2021 8:30:00 PM 8.05 46.49 0.085 6.11 175.56 0.18
11/3/2021 8:45:00 PM 8 46.4 0.085 6.1 175.12 0.19
11/3/2021 9:00:00 PM 7.94 46.292 0.086 6.1 172.3 0.19
11/3/2021 9:15:00 PM 7.89 46.202 0.086 6.1 172.09 0.19
11/3/2021 9:30:00 PM 7.85 46.13 0.086 6.1 177.14 0.19
11/3/2021 9:45:00 PM 7.81 46.058 0.086 6.09 175.94 0.19
11/3/2021 10:00:00 PM 7.77 45.986 0.086 6.09 176.11 0.18
11/3/2021 10:15:00 PM 7.74 45.932 0.086 6.09 175.91 0.18
11/3/2021 10:30:00 PM 7.7 45.86 0.086 6.08 175.7 0.19
11/3/2021 10:45:00 PM 7.68 45.824 0.087 6.07 175.54 0.19
11/3/2021 11:00:00 PM 7.66 45.788 0.087 6.08 174.53 0.18
11/3/2021 11:15:00 PM 7.64 45.752 0.087 6.07 173.78 0.19
11/3/2021 11:30:00 PM 7.62 45.716 0.087 6.07 174.58 0.18
11/3/2021 11:45:00 PM 7.6 45.68 0.087 6.07 174.61 0.19
11/4/2021 12:00:00 AM 7.58 45.644 0.087 6.07 174.56 0.19
11/4/2021 12:15:00 AM 7.56 45.608 0.087 6.07 174.49 0.19
11/4/2021 12:30:00 AM 7.54 45.572 0.087 6.07 174.26 0.19
11/4/2021 12:45:00 AM 7.52 45.536 0.087 6.06 174.34 0.19
11/4/2021 1:00:00 AM 7.5 45.5 0.087 6.06 174.67 0.19
11/4/2021 1:15:00 AM 7.48 45.464 0.087 6.06 174.63 0.19
11/4/2021 1:30:00 AM 7.46 45.428 0.087 6.06 175.83 0.19
11/4/2021 1:45:00 AM 7.44 45.392 0.087 6.06 176.17 0.19
11/4/2021 2:00:00 AM 7.42 45.356 0.088 6.06 175.77 0.19
11/4/2021 2:15:00 AM 7.4 45.32 0.088 6.06 175.51 0.19
11/4/2021 2:30:00 AM 7.38 45.284 0.088 6.06 175.45 0.19
11/4/2021 2:45:00 AM 7.36 45.248 0.088 6.06 175.46 0.19
11/4/2021 3:00:00 AM 7.34 45.212 0.088 6.06 175.66 0.19
11/4/2021 3:15:00 AM 7.31 45.158 0.088 6.06 175.49 0.19
11/4/2021 3:30:00 AM 7.29 45.122 0.088 6.06 176.03 0.19
11/4/2021 3:45:00 AM 7.26 45.068 0.088 6.06 175.82 0.19
11/4/2021 4:00:00 AM 7.24 45.032 0.087 6.06 177.74 0.19
11/4/2021 4:15:00 AM 7.21 44.978 0.087 6.05 178.07 0.19
11/4/2021 4:30:00 AM 7.19 44.942 0.088 6.05 178.06 0.19
11/4/2021 4:45:00 AM 7.16 44.888 0.088 6.05 178.02 0.19
11/4/2021 5:00:00 AM 7.13 44.834 0.087 6.05 178.27 0.19
11/4/2021 5:15:00 AM 7.1 44.78 0.087 6.06 177.06 0.19
11/4/2021 5:30:00 AM 7.08 44.744 0.088 6.06 177.69 0.19
11/4/2021 5:45:00 AM 7.05 44.69 0.088 6.06 177.13 0.19
11/4/2021 6:00:00 AM 7.03 44.654 0.088 6.06 177.02 0.19
11/4/2021 6:15:00 AM 7 44.6 0.088 6.06 176.53 0.19
11/4/2021 6:30:00 AM 6.98 44.564 0.088 6.06 175.59 0.19
11/4/2021 6:45:00 AM 6.96 44.528 0.088 6.06 176.28 0.19
11/4/2021 7:00:00 AM 6.93 44.474 0.088 6.06 179.06 0.19
11/4/2021 7:15:00 AM 6.91 44.438 0.088 6.06 178.59 0.19
11/4/2021 7:30:00 AM 6.88 44.384 0.088 6.06 178.78 0.19
11/4/2021 7:45:00 AM 6.85 44.33 0.088 6.06 178.59 0.19
11/4/2021 8:00:00 AM 6.83 44.294 0.088 6.06 178.64 0.19
11/4/2021 8:15:00 AM 6.8 44.24 0.088 6.06 178.14 0.19
11/4/2021 8:30:00 AM 6.78 44.204 0.088 6.06 178.09 0.19
11/4/2021 8:45:00 AM 6.76 44.168 0.088 6.06 177.96 0.19
11/4/2021 9:00:00 AM 6.73 44.114 0.088 6.06 178.32 0.19
11/4/2021 9:15:00 AM 6.71 44.078 0.088 6.06 178.27 0.19
11/4/2021 9:30:00 AM 6.69 44.042 0.088 6.06 180.01 0.19
11/4/2021 9:45:00 AM 6.67 44.006 0.088 6.06 179.41 0.19
11/4/2021 10:00:00 AM 6.67 44.006 0.088 6.06 179.93 0.19
11/4/2021 10:15:00 AM 6.68 44.024 0.088 6.05 180.78 0.19
11/4/2021 10:30:00 AM 6.69 44.042 0.088 6.07 185.51 0.19
11/4/2021 10:45:00 AM 6.72 44.096 0.088 6.07 186.8 0.19
11/4/2021 11:00:00 AM 6.76 44.168 0.088 6.08 179.25 0.19
11/4/2021 11:15:00 AM 6.81 44.258 0.087 6.08 175.49 0.19
11/4/2021 11:30:00 AM 6.85 44.33 0.087 6.07 175.27 0.19
11/4/2021 11:45:00 AM 6.89 44.402 0.087 6.08 174.71 0.19
11/4/2021 12:00:00 PM 6.93 44.474 0.087 6.08 173.36 0.19
11/4/2021 12:15:00 PM 6.97 44.546 0.087 6.08 168.56 0.19
11/4/2021 12:30:00 PM 7 44.6 0.087 6.08 168.55 0.19
11/4/2021 12:45:00 PM 7.04 44.672 0.087 6.1 168.41 0.19
11/4/2021 1:00:00 PM 7.07 44.726 0.087 6.1 169.23 0.19
11/4/2021 1:15:00 PM 7.11 44.798 0.087 6.1 168.66 0.19
11/4/2021 1:30:00 PM 7.15 44.87 0.087 6.1 169.06 0.19
11/4/2021 1:45:00 PM 7.18 44.924 0.087 6.11 168.94 0.19
11/4/2021 2:00:00 PM 7.21 44.978 0.087 6.12 168.93 0.19
11/4/2021 2:15:00 PM 7.24 45.032 0.087 6.12 168.72 0.19
11/4/2021 2:30:00 PM 7.27 45.086 0.087 6.12 168.53 0.19
11/4/2021 2:45:00 PM 7.3 45.14 0.087 6.12 168.73 0.19
11/4/2021 3:00:00 PM 7.33 45.194 0.087 6.13 170.31 0.19
11/4/2021 3:15:00 PM 7.37 45.266 0.087 6.13 170.02 0.18
11/4/2021 3:30:00 PM 7.4 45.32 0.087 6.13 171.05 0.19
11/4/2021 3:45:00 PM 7.44 45.392 0.087 6.13 171.55 0.18
11/4/2021 4:00:00 PM 7.46 45.428 0.087 6.13 173.55 0.19
11/4/2021 4:15:00 PM 7.49 45.482 0.087 6.13 174.07 0.19
11/4/2021 4:30:00 PM 7.5 45.5 0.086 6.14 173.72 0.19
11/4/2021 4:45:00 PM 7.52 45.536 0.086 6.13 174.05 0.19
11/4/2021 5:00:00 PM 7.52 45.536 0.086 6.12 173.98 0.18
11/4/2021 5:15:00 PM 7.53 45.554 0.086 6.12 173.78 0.18
11/4/2021 5:30:00 PM 7.53 45.554 0.086 6.12 173.77 0.18
11/4/2021 5:45:00 PM 7.53 45.554 0.086 6.11 174.49 0.18
11/4/2021 6:00:00 PM 7.53 45.554 0.086 6.12 174.83 0.19
11/4/2021 6:15:00 PM 7.52 45.536 0.086 6.12 175.03 0.18
11/4/2021 6:30:00 PM 7.51 45.518 0.086 6.12 180.1 0.18
11/4/2021 6:45:00 PM 7.49 45.482 0.086 6.11 179.19 0.18
11/4/2021 7:00:00 PM 7.47 45.446 0.086 6.12 179.44 0.19
11/4/2021 7:15:00 PM 7.44 45.392 0.086 6.12 178.54 0.19
11/4/2021 7:30:00 PM 7.41 45.338 0.086 6.11 178.26 0.19
11/4/2021 7:45:00 PM 7.37 45.266 0.086 6.11 176.67 0.19
11/4/2021 8:00:00 PM 7.34 45.212 0.086 6.08 176.53 0.19
11/4/2021 8:15:00 PM 7.3 45.14 0.086 6.09 176.72 0.19
11/4/2021 8:30:00 PM 7.26 45.068 0.086 6.1 176.99 0.19
11/4/2021 8:45:00 PM 7.22 44.996 0.086 6.11 176.9 0.19
11/4/2021 9:00:00 PM 7.18 44.924 0.085 6.1 177.05 0.19
11/4/2021 9:15:00 PM 7.14 44.852 0.085 6.11 177.57 0.19
11/4/2021 9:30:00 PM 7.11 44.798 0.085 6.09 177.96 0.19
11/4/2021 9:45:00 PM 7.07 44.726 0.085 6.1 178.01 0.19
11/4/2021 10:00:00 PM 7.03 44.654 0.085 6.09 177.04 0.19
11/4/2021 10:15:00 PM 6.99 44.582 0.085 6.1 176.68 0.19
11/4/2021 10:30:00 PM 6.95 44.51 0.085 6.09 176.86 0.19
11/4/2021 10:45:00 PM 6.91 44.438 0.085 6.08 176.97 0.19
11/4/2021 11:00:00 PM 6.87 44.366 0.085 6.09 173.7 0.19
11/4/2021 11:15:00 PM 6.82 44.276 0.085 6.08 174.94 0.19
11/4/2021 11:30:00 PM 6.78 44.204 0.085 6.07 179.59 0.19
11/4/2021 11:45:00 PM 6.75 44.15 0.084 6.09 173.55 0.19
11/5/2021 12:00:00 AM 6.71 44.078 0.084 6.09 173.53 0.19
11/5/2021 12:15:00 AM 6.67 44.006 0.084 6.08 174.28 0.19
11/5/2021 12:30:00 AM 6.64 43.952 0.084 6.09 174.87 0.19
11/5/2021 12:45:00 AM 6.61 43.898 0.083 6.08 175.97 0.19
11/5/2021 1:00:00 AM 6.58 43.844 0.083 6.08 176.46 0.19
11/5/2021 1:15:00 AM 6.55 43.79 0.083 6.08 176.09 0.19
11/5/2021 1:30:00 AM 6.52 43.736 0.083 6.08 175.9 0.19
11/5/2021 1:45:00 AM 6.5 43.7 0.083 6.08 175.66 0.19
11/5/2021 2:00:00 AM 6.47 43.646 0.082 6.08 175.71 0.19
11/5/2021 2:15:00 AM 6.44 43.592 0.082 6.08 177.41 0.19
11/5/2021 2:30:00 AM 6.42 43.556 0.083 6.08 177.73 0.19
11/5/2021 2:45:00 AM 6.4 43.52 0.082 6.07 177.17 0.19
11/5/2021 3:00:00 AM 6.38 43.484 0.081 8.19 177.2 0.19
11/5/2021 3:15:00 AM 6.36 43.448 0.081 8.22 177.02 0.19
11/5/2021 3:30:00 AM 6.33 43.394 0.081 8.22 179.81 0.19
11/5/2021 3:45:00 AM 6.31 43.358 0.08 8.27 180.04 0.19
11/5/2021 4:00:00 AM 6.29 43.322 0.08 8.23 179.23 0.19
11/5/2021 4:15:00 AM 6.27 43.286 0.08 8.19 179.06 0.19
11/5/2021 4:30:00 AM 6.25 43.25 0.08 8.23 178.96 0.19
11/5/2021 4:45:00 AM 6.22 43.196 0.08 8.21 171.68 0.19
11/5/2021 5:00:00 AM 6.2 43.16 0.08 8.18 171.72 0.19
11/5/2021 5:15:00 AM 6.18 43.124 0.079 8.18 171.82 0.19
11/5/2021 5:30:00 AM 6.16 43.088 0.08 8.19 170.04 0.2
11/5/2021 5:45:00 AM 6.13 43.034 0.08 8.2 169.97 0.19
11/5/2021 6:00:00 AM 6.11 42.998 0.079 8.19 204.13 0.19
11/5/2021 6:15:00 AM 6.08 42.944 0.079 8.18 170.66 0.19
11/5/2021 6:30:00 AM 6.05 42.89 0.079 8.17 170.94 0.19
11/5/2021 6:45:00 AM 6.03 42.854 0.079 8.15 170.81 0.19
11/5/2021 7:00:00 AM 6 42.8 0.079 8.15 169.9 0.19
11/5/2021 7:15:00 AM 5.97 42.746 0.079 8.15 177.61 0.2
11/5/2021 7:30:00 AM 5.95 42.71 0.079 8.14 167.58 0.19
11/5/2021 7:45:00 AM 5.92 42.656 0.079 8.14 169.52 0.2
11/5/2021 8:00:00 AM 5.89 42.602 0.079 8.14 169.91 0.19
11/5/2021 8:15:00 AM 5.87 42.566 0.079 8.14 169.48 0.19
11/5/2021 8:30:00 AM 5.84 42.512 0.079 8.13 169.95 0.2
11/5/2021 8:45:00 AM 5.82 42.476 0.079 8.12 169.59 0.19
11/5/2021 9:00:00 AM 5.8 42.44 0.079 8.13 169.27 0.19
11/5/2021 9:15:00 AM 5.77 42.386 0.079 8.13 169.62 0.19
11/5/2021 9:30:00 AM 5.75 42.35 0.079 8.12 169.58 0.19
11/5/2021 9:45:00 AM 5.73 42.314 0.079 8.12 169.62 0.19
11/5/2021 10:00:00 AM 5.72 42.296 0.079 8.11 170.28 0.19
11/5/2021 10:15:00 AM 5.72 42.296 0.079 8.11 170.3 0.19
11/5/2021 10:30:00 AM 5.73 42.314 0.079 8.11 170.12 0.19
11/5/2021 10:45:00 AM 5.75 42.35 0.079 8.11 171.12 0.19
11/5/2021 11:00:00 AM 5.79 42.422 0.079 8.11 170.84 0.2
11/5/2021 11:15:00 AM 5.83 42.494 0.079 8.11 171.14 0.2
11/5/2021 11:30:00 AM 5.88 42.584 0.079 8.11 171.49 0.2
11/5/2021 11:45:00 AM 5.93 42.674 0.079 8.11 171.36 0.2
11/5/2021 12:00:00 PM 5.99 42.782 0.079 8.11 172.02 0.19
11/5/2021 12:15:00 PM 6.05 42.89 0.079 8.11 171.95 0.19
11/5/2021 12:30:00 PM 6.12 43.016 0.079 8.11 167.08 0.19
11/5/2021 12:45:00 PM 6.19 43.142 0.079 8.11 166.58 0.19
11/5/2021 1:00:00 PM 6.26 43.268 0.079 8.11 165.47 0.19
11/5/2021 1:15:00 PM 6.33 43.394 0.079 8.09 165.05 0.19
11/5/2021 1:30:00 PM 6.4 43.52 0.079 8.1 175.08 0.19
11/5/2021 1:45:00 PM 6.46 43.628 0.079 8.09 174.8 0.19
11/5/2021 2:00:00 PM 6.53 43.754 0.079 8.09 174.8 0.19
11/5/2021 2:15:00 PM 6.59 43.862 0.079 8.09 175.55 0.19
11/5/2021 2:30:00 PM 6.65 43.97 0.079 8.1 175.67 0.19
11/5/2021 2:45:00 PM 6.7 44.06 0.079 8.1 178.18 0.19
11/5/2021 3:00:00 PM 6.73 44.114 0.079 8.1 178.01 0.19
11/5/2021 3:15:00 PM 6.77 44.186 0.079 8.11 180.84 0.19
11/5/2021 3:30:00 PM 6.79 44.222 0.079 8.11 177.73 0.19
11/5/2021 3:45:00 PM 6.8 44.24 0.079 8.12 178.46 0.19
11/5/2021 4:00:00 PM 6.81 44.258 0.079 8.12 177.24 0.19
11/5/2021 4:15:00 PM 6.82 44.276 0.079 8.12 176.52 0.19
11/5/2021 4:30:00 PM 6.84 44.312 0.079 8.13 176.08 0.19
11/5/2021 4:45:00 PM 6.86 44.348 0.079 8.13 179.29 0.19
11/5/2021 5:00:00 PM 6.88 44.384 0.079 8.12 179.82 0.19
11/5/2021 5:15:00 PM 6.9 44.42 0.079 8.11 179.61 0.19
11/5/2021 5:30:00 PM 6.91 44.438 0.079 8.11 179.73 0.19
11/5/2021 5:45:00 PM 6.92 44.456 0.079 8.09 180.06 0.18
11/5/2021 6:00:00 PM 6.92 44.456 0.079 8.1 179.35 0.19
11/5/2021 6:15:00 PM 6.92 44.456 0.079 8.1 179.23 0.19
11/5/2021 6:30:00 PM 6.9 44.42 0.079 8.09 179.67 0.19
11/5/2021 6:45:00 PM 6.89 44.402 0.079 8.05 179.96 0.19
11/5/2021 7:00:00 PM 6.87 44.366 0.079 8.06 180 0.18
11/5/2021 7:15:00 PM 6.84 44.312 0.079 8.04 179.97 0.19
11/5/2021 7:30:00 PM 6.82 44.276 0.079 8.04 181.85 0.18
11/5/2021 7:45:00 PM 6.79 44.222 0.079 8.03 175.92 0.19
11/5/2021 8:00:00 PM 6.76 44.168 0.079 8 180.29 0.19
11/5/2021 8:15:00 PM 6.72 44.096 0.079 7.99 171.2 0.19
11/5/2021 8:30:00 PM 6.68 44.024 0.079 7.98 176.22 0.19
11/5/2021 8:45:00 PM 6.64 43.952 0.079 7.98 171.35 0.19
11/5/2021 9:00:00 PM 6.6 43.88 0.079 7.99 172.38 0.19
11/5/2021 9:15:00 PM 6.56 43.808 0.079 7.99 171.95 0.19
11/5/2021 9:30:00 PM 6.51 43.718 0.079 7.98 173.96 0.19
11/5/2021 9:45:00 PM 6.47 43.646 0.079 7.97 173.21 0.19
11/5/2021 10:00:00 PM 6.43 43.574 0.078 7.97 146.1 0.19
11/5/2021 10:15:00 PM 6.38 43.484 0.078 7.98 165.56 0.19
11/5/2021 10:30:00 PM 6.34 43.412 0.079 8 160.78 0.19
11/5/2021 10:45:00 PM 6.3 43.34 0.078 8 131.72 0.19
11/5/2021 11:00:00 PM 6.26 43.268 0.078 8 127.8 0.19
11/5/2021 11:15:00 PM 6.23 43.214 0.078 8 116.74 0.19
11/5/2021 11:30:00 PM 6.19 43.142 0.078 7.98 115.2 0.19
11/5/2021 11:45:00 PM 6.16 43.088 0.078 7.98 114.59 0.19
11/6/2021 12:00:00 AM 6.13 43.034 0.078 7.99 114.67 0.19
11/6/2021 12:15:00 AM 6.1 42.98 0.078 7.98 114.42 0.19
11/6/2021 12:30:00 AM 6.07 42.926 0.078 7.97 117.16 0.19
11/6/2021 12:45:00 AM 6.05 42.89 0.078 7.97 111.06 0.19
11/6/2021 1:00:00 AM 6.03 42.854 0.078 7.95 111.43 0.19
11/6/2021 1:15:00 AM 6.01 42.818 0.078 7.81 109.86 0.19
11/6/2021 1:30:00 AM 6 42.8 0.078 7.75 91.19 0.19
11/6/2021 1:45:00 AM 5.98 42.764 0.077 7.76 92.04 0.19
11/6/2021 2:00:00 AM 5.97 42.746 0.078 7.6 91.78 0.19
11/6/2021 2:15:00 AM 5.95 42.71 0.077 7.73 99.53 0.19
11/6/2021 2:30:00 AM 5.93 42.674 0.077 7.64 98.74 0.19
11/6/2021 2:45:00 AM 5.92 42.656 0.078 7.77 97.35 0.19
11/6/2021 3:00:00 AM 5.9 42.62 0.077 7.72 96.5 0.19
11/6/2021 3:15:00 AM 5.88 42.584 0.077 7.79 105.91 0.19
11/6/2021 3:30:00 AM 5.87 42.566 0.077 7.79 126.9 0.19
11/6/2021 3:45:00 AM 5.85 42.53 0.077 7.82 131.7 0.19
11/6/2021 4:00:00 AM 5.83 42.494 0.077 7.68 136.63 0.19
11/6/2021 4:15:00 AM 5.81 42.458 0.077 7.62 142.28 0.19
11/6/2021 4:30:00 AM 5.8 42.44 0.077 7.68 152.33 0.19
11/6/2021 4:45:00 AM 5.78 42.404 0.077 7.92 155.04 0.19
11/6/2021 5:00:00 AM 5.76 42.368 0.077 7.95 157.22 0.19
11/6/2021 5:15:00 AM 5.74 42.332 0.077 7.95 165.63 0.19
11/6/2021 5:30:00 AM 5.72 42.296 0.077 7.95 164.49 0.19
11/6/2021 5:45:00 AM 5.69 42.242 0.078 7.95 165.07 0.19
11/6/2021 6:00:00 AM 5.67 42.206 0.078 7.93 160.39 0.19
11/6/2021 6:15:00 AM 5.65 42.17 0.077 7.93 160.83 0.19
11/6/2021 6:30:00 AM 5.62 42.116 0.078 7.92 159.12 0.19
11/6/2021 6:45:00 AM 5.6 42.08 0.077 7.55 158.47 0.19
11/6/2021 7:00:00 AM 5.57 42.026 0.077 7.74 158.42 0.19
11/6/2021 7:15:00 AM 5.55 41.99 0.077 7.76 159.23 0.19
11/6/2021 7:30:00 AM 5.53 41.954 0.077 7.64 158.7 0.19
11/6/2021 7:45:00 AM 5.5 41.9 0.077 7.71 158.02 0.2
11/6/2021 8:00:00 AM 5.48 41.864 0.077 7.83 162.66 0.2
11/6/2021 8:15:00 AM 5.45 41.81 0.077 7.76 186.42 0.2
11/6/2021 8:30:00 AM 5.43 41.774 0.077 7.77 186.05 0.2
11/6/2021 8:45:00 AM 5.41 41.738 0.077 7.81 180.71 0.2
11/6/2021 9:00:00 AM 5.39 41.702 0.077 7.85 183.1 0.2
11/6/2021 9:15:00 AM 5.37 41.666 0.077 7.95 154.68 0.2
11/6/2021 9:30:00 AM 5.35 41.63 0.077 7.94 153.28 0.2
11/6/2021 9:45:00 AM 5.33 41.594 0.077 7.95 152.53 0.2
11/6/2021 10:00:00 AM 5.32 41.576 0.077 7.95 144.7 0.2
11/6/2021 10:15:00 AM 5.32 41.576 0.077 7.96 144.88 0.2
11/6/2021 10:30:00 AM 5.33 41.594 0.077 7.96 134.87 0.2
11/6/2021 10:45:00 AM 5.35 41.63 0.077 7.97 147.37 0.2
11/6/2021 11:00:00 AM 5.38 41.684 0.077 7.97 143.61 0.2
11/6/2021 11:15:00 AM 5.43 41.774 0.077 7.97 149.58 0.19
11/6/2021 11:30:00 AM 5.48 41.864 0.077 7.97 149.43 0.19
11/6/2021 11:45:00 AM 5.54 41.972 0.077 7.98 141.43 0.19
11/6/2021 12:00:00 PM 5.61 42.098 0.077 7.96 150.77 0.19
11/6/2021 12:15:00 PM 5.68 42.224 0.077 7.96 148.48 0.2
11/6/2021 12:30:00 PM 5.76 42.368 0.077 7.94 148.83 0.19
11/6/2021 12:45:00 PM 5.84 42.512 0.077 7.72 158.62 0.19
11/6/2021 1:00:00 PM 5.91 42.638 0.077 7.41 170.86 0.19
11/6/2021 1:15:00 PM 5.99 42.782 0.077 7.69 170.81 0.19
11/6/2021 1:30:00 PM 6.06 42.908 0.077 7.65 170.24 0.19
11/6/2021 1:45:00 PM 6.13 43.034 0.077 7.6 168.22 0.19
11/6/2021 2:00:00 PM 6.2 43.16 0.077 7.4 189.49 0.19
11/6/2021 2:15:00 PM 6.26 43.268 0.077 7.63 189.35 0.19
11/6/2021 2:30:00 PM 6.32 43.376 0.077 7.73 186.85 0.19
11/6/2021 2:45:00 PM 6.38 43.484 0.077 7.66 186 0.19
11/6/2021 3:00:00 PM 6.43 43.574 0.077 7.34 186.29 0.19
11/6/2021 3:15:00 PM 6.47 43.646 0.077 7.32 186.41 0.19
11/6/2021 3:30:00 PM 6.52 43.736 0.077 7.59 186.01 0.19
11/6/2021 3:45:00 PM 6.55 43.79 0.077 7.68 186.55 0.19
11/6/2021 4:00:00 PM 6.59 43.862 0.077 7.62 186.83 0.19
11/6/2021 4:15:00 PM 6.62 43.916 0.077 7.52 185.72 0.19
11/6/2021 4:30:00 PM 6.65 43.97 0.077 7.34 183.81 0.19
11/6/2021 4:45:00 PM 6.67 44.006 0.077 7.51 183.72 0.19
11/6/2021 5:00:00 PM 6.69 44.042 0.077 7.45 177.07 0.19
11/6/2021 5:15:00 PM 6.7 44.06 0.077 7.31 176.61 0.19
11/6/2021 5:30:00 PM 6.71 44.078 0.077 7.49 166.88 0.19
11/6/2021 5:45:00 PM 6.72 44.096 0.077 7.68 167.11 0.19
11/6/2021 6:00:00 PM 6.72 44.096 0.077 7.63 162.31 0.19
11/6/2021 6:15:00 PM 6.72 44.096 0.077 7.6 162.84 0.19
11/6/2021 6:30:00 PM 6.71 44.078 0.077 7.74 163.05 0.19
11/6/2021 6:45:00 PM 6.7 44.06 0.077 7.53 169.82 0.19
11/6/2021 7:00:00 PM 6.69 44.042 0.077 7.93 165.14 0.19
11/6/2021 7:15:00 PM 6.67 44.006 0.077 7.96 164.84 0.19
11/6/2021 7:30:00 PM 6.65 43.97 0.077 7.96 165.97 0.19
11/6/2021 7:45:00 PM 6.63 43.934 0.077 7.93 169.02 0.19
11/6/2021 8:00:00 PM 6.61 43.898 0.077 7.94 174.68 0.19
11/6/2021 8:15:00 PM 6.59 43.862 0.077 7.95 175.42 0.19
11/6/2021 8:30:00 PM 6.56 43.808 0.077 7.95 174.79 0.19
11/6/2021 8:45:00 PM 6.53 43.754 0.077 7.94 173.89 0.19
11/6/2021 9:00:00 PM 6.5 43.7 0.077 7.94 174.67 0.19
11/6/2021 9:15:00 PM 6.47 43.646 0.077 7.93 172.72 0.19
11/6/2021 9:30:00 PM 6.43 43.574 0.077 7.92 177.96 0.19
11/6/2021 9:45:00 PM 6.39 43.502 0.077 7.91 141.55 0.19
11/6/2021 10:00:00 PM 6.35 43.43 0.077 7.9 170.25 0.19
11/6/2021 10:15:00 PM 6.3 43.34 0.077 7.9 148.68 0.19
11/6/2021 10:30:00 PM 6.25 43.25 0.077 7.89 151.54 0.19
11/6/2021 10:45:00 PM 6.21 43.178 0.077 7.89 154.82 0.19
11/6/2021 11:00:00 PM 6.15 43.07 0.077 7.89 154.94 0.19
11/6/2021 11:15:00 PM 6.1 42.98 0.077 7.88 157.62 0.19
11/6/2021 11:30:00 PM 6.04 42.872 0.077 7.81 157.46 0.19
11/6/2021 11:45:00 PM 5.99 42.782 0.077 7.75 156.98 0.19
11/7/2021 12:00:00 AM 5.94 42.692 0.077 7.69 160.49 0.19
11/7/2021 12:15:00 AM 5.89 42.602 0.077 7.73 165.53 0.19
11/7/2021 12:30:00 AM 5.84 42.512 0.077 7.74 165.85 0.19
11/7/2021 12:45:00 AM 5.79 42.422 0.077 7.64 164.77 0.19
11/7/2021 1:00:00 AM 5.75 42.35 0.077 7.74 163.77 0.19
11/7/2021 1:15:00 AM 5.7 42.26 0.077 7.83 169.13 0.19
11/7/2021 1:30:00 AM 5.66 42.188 0.077 7.76 169.64 0.19
11/7/2021 1:45:00 AM 5.62 42.116 0.077 7.78 169.62 0.19
11/7/2021 2:00:00 AM 5.58 42.044 0.078 7.78 165.73 0.19
11/7/2021 2:15:00 AM 5.54 41.972 0.078 7.68 172.92 0.19
11/7/2021 2:30:00 AM 5.5 41.9 0.078 7.89 171.1 0.19
11/7/2021 2:45:00 AM 5.46 41.828 0.078 7.9 176.32 0.19
11/7/2021 3:00:00 AM 5.42 41.756 0.079 7.9 175.65 0.19
11/7/2021 3:15:00 AM 5.38 41.684 0.079 7.9 176.87 0.19
11/7/2021 3:30:00 AM 5.21 41.378 0.079 7.85 180.83 0.19
11/7/2021 3:45:00 AM 5.18 41.324 0.079 7.81 181.45 0.19
11/7/2021 4:00:00 AM 5.16 41.288 0.079 7.88 181.38 0.19
11/7/2021 4:15:00 AM 5.13 41.234 0.079 7.72 181.06 0.19
11/7/2021 4:30:00 AM 5.11 41.198 0.079 7.8 181.49 0.2
11/7/2021 4:45:00 AM 5.09 41.162 0.079 7.76 183.35 0.19
11/7/2021 5:00:00 AM 5.07 41.126 0.08 7.86 183.55 0.19
11/7/2021 5:15:00 AM 5.05 41.09 0.08 7.87 184.49 0.2
11/7/2021 5:30:00 AM 5.03 41.054 0.08 7.92 183.51 0.2
11/7/2021 5:45:00 AM 5.02 41.036 0.08 7.92 182.89 0.19
11/7/2021 6:00:00 AM 5 41 0.08 7.93 180.69 0.2
11/7/2021 6:15:00 AM 4.99 40.982 0.08 7.93 181.69 0.2
11/7/2021 6:30:00 AM 4.97 40.946 0.08 7.92 172.26 0.2
11/7/2021 6:45:00 AM 4.95 40.91 0.08 7.92 173.59 0.2
11/7/2021 7:00:00 AM 4.94 40.892 0.08 7.91 170.99 0.2
11/7/2021 7:15:00 AM 4.92 40.856 0.081 7.9 146.79 0.2
11/7/2021 7:30:00 AM 4.91 40.838 0.081 7.9 165.12 0.2
11/7/2021 7:45:00 AM 4.89 40.802 0.081 7.9 134.48 0.2
11/7/2021 8:00:00 AM 4.88 40.784 0.081 7.89 132.07 0.2
11/7/2021 8:15:00 AM 4.86 40.748 0.081 7.89 129.34 0.2
11/7/2021 8:30:00 AM 4.85 40.73 0.081 7.89 121.84 0.2
11/7/2021 8:45:00 AM 4.84 40.712 0.082 7.89 143.7 0.2
11/7/2021 9:00:00 AM 4.84 40.712 0.082 7.89 175.6 0.2
11/7/2021 9:15:00 AM 4.84 40.712 0.082 7.9 160.45 0.2
11/7/2021 9:30:00 AM 4.85 40.73 0.082 7.9 158.55 0.2
11/7/2021 9:45:00 AM 4.87 40.766 0.082 7.9 166.35 0.2
11/7/2021 10:00:00 AM 4.9 40.82 0.082 7.86 165.29 0.19
11/7/2021 10:15:00 AM 4.95 40.91 0.082 7.87 178.33 0.19
11/7/2021 10:30:00 AM 5 41 0.082 7.88 180.67 0.2
11/7/2021 10:45:00 AM 5.06 41.108 0.082 7.89 182.85 0.2
11/7/2021 11:00:00 AM 5.13 41.234 0.082 7.89 184.31 0.2
11/7/2021 11:15:00 AM 5.2 41.36 0.082 7.88 185.17 0.2
11/7/2021 11:30:00 AM 5.27 41.486 0.082 7.88 185.47 0.2
11/7/2021 11:45:00 AM 5.35 41.63 0.082 7.89 186.07 0.19
11/7/2021 12:00:00 PM 5.43 41.774 0.082 7.89 181.31 0.19
11/7/2021 12:15:00 PM 5.5 41.9 0.082 7.9 181.14 0.19
11/7/2021 12:30:00 PM 5.58 42.044 0.082 7.89 174.97 0.2
11/7/2021 12:45:00 PM 5.65 42.17 0.082 7.89 188.46 0.2
11/7/2021 1:00:00 PM 5.73 42.314 0.082 7.9 191.95 0.19
11/7/2021 1:15:00 PM 5.8 42.44 0.082 7.91 184.11 0.19
11/7/2021 1:30:00 PM 5.86 42.548 0.081 7.92 178.32 0.19
11/7/2021 1:45:00 PM 5.92 42.656 0.081 7.91 176.24 0.19
11/7/2021 2:00:00 PM 5.98 42.764 0.082 7.91 173.62 0.19
11/7/2021 2:15:00 PM 6.03 42.854 0.081 7.9 214.82 0.19
11/7/2021 2:30:00 PM 6.08 42.944 0.081 7.9 213.42 0.19
11/7/2021 2:45:00 PM 6.13 43.034 0.081 7.91 195.17 0.19
11/7/2021 3:00:00 PM 6.17 43.106 0.081 7.9 187.97 0.19
11/7/2021 3:15:00 PM 6.2 43.16 0.081 7.91 205.04 0.19
11/7/2021 3:30:00 PM 6.23 43.214 0.081 7.91 204.63 0.19
11/7/2021 3:45:00 PM 6.25 43.25 0.081 7.9 204.47 0.19
11/7/2021 4:00:00 PM 6.26 43.268 0.081 7.9 209.79 0.19
11/7/2021 4:15:00 PM 6.27 43.286 0.081 7.88 207.97 0.19
11/7/2021 4:30:00 PM 6.28 43.304 0.081 7.88 204.69 0.19
11/7/2021 4:45:00 PM 6.28 43.304 0.081 7.88 206.86 0.19
11/7/2021 5:00:00 PM 6.27 43.286 0.081 7.87 200.94 0.19
11/7/2021 5:15:00 PM 6.27 43.286 0.081 7.88 231.46 0.19
11/7/2021 5:30:00 PM 6.26 43.268 0.081 7.88 208.58 0.19
11/7/2021 5:45:00 PM 6.25 43.25 0.081 7.88 217.99 0.19
11/7/2021 6:00:00 PM 6.23 43.214 0.081 7.88 217.32 0.19
11/7/2021 6:15:00 PM 6.22 43.196 0.081 7.86 219.51 0.19
11/7/2021 6:30:00 PM 6.2 43.16 0.081 7.86 217.19 0.19
11/7/2021 6:45:00 PM 6.18 43.124 0.081 7.87 215.55 0.19
11/7/2021 7:00:00 PM 6.16 43.088 0.081 7.88 222.33 0.19
11/7/2021 7:15:00 PM 6.14 43.052 0.081 7.88 222.35 0.19
11/7/2021 7:30:00 PM 6.11 42.998 0.081 7.87 223.52 0.19
11/7/2021 7:45:00 PM 6.08 42.944 0.081 7.87 226.36 0.19
11/7/2021 8:00:00 PM 6.05 42.89 0.081 7.87 224.67 0.19
11/7/2021 8:15:00 PM 6.02 42.836 0.081 7.86 226.72 0.19
11/7/2021 8:30:00 PM 5.98 42.764 0.081 7.86 244.52 0.19
11/7/2021 8:45:00 PM 5.95 42.71 0.081 7.84 250.58 0.19
11/7/2021 9:00:00 PM 5.91 42.638 0.081 7.84 248.91 0.19
11/7/2021 9:15:00 PM 5.88 42.584 0.081 7.84 245.29 0.19
11/7/2021 9:30:00 PM 5.85 42.53 0.081 7.84 246.39 0.19
11/7/2021 9:45:00 PM 5.82 42.476 0.081 7.83 195.53 0.19
11/7/2021 10:00:00 PM 5.79 42.422 0.081 7.82 212.82 0.19
11/7/2021 10:15:00 PM 5.76 42.368 0.081 7.82 211.02 0.19
11/7/2021 10:30:00 PM 5.73 42.314 0.081 7.81 229.91 0.19
11/7/2021 10:45:00 PM 5.7 42.26 0.081 7.82 234.81 0.19
11/7/2021 11:00:00 PM 5.67 42.206 0.081 7.82 253.24 0.19
11/7/2021 11:15:00 PM 5.64 42.152 0.081 7.82 259.85 0.19
11/7/2021 11:30:00 PM 5.61 42.098 0.081 7.81 255.46 0.19
11/7/2021 11:45:00 PM 5.58 42.044 0.081 7.83 262.56 0.19
11/8/2021 12:00:00 AM 5.55 41.99 0.081 7.82 244.31 0.19
11/8/2021 12:15:00 AM 5.51 41.918 0.081 7.81 233.63 0.19
11/8/2021 12:30:00 AM 5.48 41.864 0.081 7.81 233.56 0.19
11/8/2021 12:45:00 AM 5.45 41.81 0.081 7.81 221.06 0.19
11/8/2021 1:00:00 AM 5.41 41.738 0.081 7.81 243.7 0.19
11/8/2021 1:15:00 AM 5.38 41.684 0.081 7.81 244.34 0.19
11/8/2021 1:30:00 AM 5.35 41.63 0.081 7.8 244.68 0.19
11/8/2021 1:45:00 AM 5.31 41.558 0.081 7.81 244.53 0.19
11/8/2021 2:00:00 AM 5.28 41.504 0.081 7.8 363.27 0.19
11/8/2021 2:15:00 AM 5.25 41.45 0.081 7.79 200.12 0.19
11/8/2021 2:30:00 AM 5.22 41.396 0.081 7.79 223.11 0.19
11/8/2021 2:45:00 AM 5.19 41.342 0.081 7.8 222.2 0.19
11/8/2021 3:00:00 AM 5.17 41.306 0.081 7.81 219.27 0.19
11/8/2021 3:15:00 AM 5.14 41.252 0.081 7.8 218.17 0.19
11/8/2021 3:30:00 AM 5.12 41.216 0.081 7.81 224.26 0.19
11/8/2021 3:45:00 AM 5.1 41.18 0.081 7.81 215.84 0.19
11/8/2021 4:00:00 AM 5.07 41.126 0.081 7.8 212.49 0.19
11/8/2021 4:15:00 AM 5.06 41.108 0.081 7.81 201.82 0.19
11/8/2021 4:30:00 AM 5.04 41.072 0.081 7.82 209.95 0.2
11/8/2021 4:45:00 AM 5.02 41.036 0.081 7.82 203.87 0.2
11/8/2021 5:00:00 AM 5 41 0.081 7.82 175.98 0.2
11/8/2021 5:15:00 AM 4.99 40.982 0.081 7.82 172.19 0.2
11/8/2021 5:30:00 AM 4.97 40.946 0.081 7.81 160.48 0.2
11/8/2021 5:45:00 AM 4.95 40.91 0.081 7.81 137.54 0.2
11/8/2021 6:00:00 AM 4.94 40.892 0.081 7.81 210.86 0.2
11/8/2021 6:15:00 AM 4.92 40.856 0.081 7.8 185.85 0.2
11/8/2021 6:30:00 AM 4.91 40.838 0.081 7.8 162.51 0.2
11/8/2021 6:45:00 AM 4.89 40.802 0.081 7.8 180.42 0.2
11/8/2021 7:00:00 AM 4.88 40.784 0.081 7.8 185.69 0.2
11/8/2021 7:15:00 AM 4.87 40.766 0.081 7.8 198.79 0.2
11/8/2021 7:30:00 AM 4.86 40.748 0.081 7.8 197.78 0.2
11/8/2021 7:45:00 AM 4.85 40.73 0.081 7.8 195.33 0.2
11/8/2021 8:00:00 AM 4.84 40.712 0.081 7.79 185.83 0.2
11/8/2021 8:15:00 AM 4.83 40.694 0.081 7.8 157.43 0.2
11/8/2021 8:30:00 AM 4.83 40.694 0.081 7.8 145.68 0.2
11/8/2021 8:45:00 AM 4.82 40.676 0.082 7.81 159.25 0.2
11/8/2021 9:00:00 AM 4.82 40.676 0.081 7.8 141.28 0.2
11/8/2021 9:15:00 AM 4.82 40.676 0.081 7.81 123.61 0.2
11/8/2021 9:30:00 AM 4.83 40.694 0.081 7.8 131.53 0.2
11/8/2021 9:45:00 AM 4.85 40.73 0.081 7.81 119.28 0.2
11/8/2021 10:00:00 AM 4.89 40.802 0.082 7.81 115.24 0.2
11/8/2021 10:15:00 AM 4.93 40.874 0.081 7.82 109.97 0.2
11/8/2021 10:30:00 AM 4.99 40.982 0.082 7.84 114.73 0.2
11/8/2021 10:45:00 AM 5.05 41.09 0.082 7.85 115.77 0.2
11/8/2021 11:00:00 AM 5.13 41.234 0.081 7.86 137.95 0.2
11/8/2021 11:15:00 AM 5.21 41.378 0.081 7.87 143.55 0.2
11/8/2021 11:30:00 AM 5.29 41.522 0.081 7.87 142.95 0.19
11/8/2021 11:45:00 AM 5.39 41.702 0.081 7.87 167.58 0.19
11/8/2021 12:00:00 PM 5.49 41.882 0.081 7.88 174.13 0.2
11/8/2021 12:15:00 PM 5.59 42.062 0.081 7.88 163.98 0.2
11/8/2021 12:30:00 PM 5.7 42.26 0.081 7.89 168.07 0.19
11/8/2021 12:45:00 PM 5.8 42.44 0.081 7.88 232.51 0.19
11/8/2021 1:00:00 PM 5.9 42.62 0.081 7.88 243.35 0.19
11/8/2021 1:15:00 PM 6 42.8 0.081 7.87 250.94 0.19
11/8/2021 1:30:00 PM 6.1 42.98 0.081 7.86 246.21 0.19
11/8/2021 1:45:00 PM 6.19 43.142 0.081 7.88 231.43 0.19
11/8/2021 2:00:00 PM 6.28 43.304 0.081 7.86 224.57 0.19
11/8/2021 2:15:00 PM 6.35 43.43 0.081 7.88 209.31 0.19
11/8/2021 2:30:00 PM 6.43 43.574 0.081 7.88 208.73 0.19
11/8/2021 2:45:00 PM 6.49 43.682 0.082 7.89 210.16 0.19
11/8/2021 3:00:00 PM 6.56 43.808 0.081 7.88 211.18 0.19
11/8/2021 3:15:00 PM 6.61 43.898 0.081 7.89 215.05 0.19
11/8/2021 3:30:00 PM 6.66 43.988 0.081 7.88 221.96 0.19
11/8/2021 3:45:00 PM 6.7 44.06 0.081 7.87 235.65 0.19
11/8/2021 4:00:00 PM 6.73 44.114 0.081 7.87 239.83 0.19
11/8/2021 4:15:00 PM 6.75 44.15 0.081 7.89 263.25 0.19
11/8/2021 4:30:00 PM 6.76 44.168 0.081 7.88 232.33 0.19
11/8/2021 4:45:00 PM 6.77 44.186 0.081 7.87 238.03 0.19
11/8/2021 5:00:00 PM 6.77 44.186 0.081 7.87 245.28 0.19
11/8/2021 5:15:00 PM 6.77 44.186 0.081 7.87 260.27 0.19
11/8/2021 5:30:00 PM 6.76 44.168 0.081 7.89 237.03 0.18
11/8/2021 5:45:00 PM 6.75 44.15 0.081 7.88 242.72 0.19
11/8/2021 6:00:00 PM 6.74 44.132 0.081 7.88 255.02 0.18
11/8/2021 6:15:00 PM 6.73 44.114 0.081 7.87 237.18 0.19
11/8/2021 6:30:00 PM 6.71 44.078 0.081 7.86 243.93 0.19
11/8/2021 6:45:00 PM 6.7 44.06 0.081 7.86 251.8 0.18
11/8/2021 7:00:00 PM 6.68 44.024 0.081 7.85 253.76 0.19
11/8/2021 7:15:00 PM 6.65 43.97 0.081 7.83 237.52 0.19
11/8/2021 7:30:00 PM 6.63 43.934 0.081 7.84 234.38 0.19
11/8/2021 7:45:00 PM 6.6 43.88 0.081 7.83 225.15 0.19
11/8/2021 8:00:00 PM 6.57 43.826 0.081 7.82 221.59 0.19
11/8/2021 8:15:00 PM 6.53 43.754 0.081 7.83 223.54 0.19
11/8/2021 8:30:00 PM 6.5 43.7 0.081 7.82 216.76 0.19
11/8/2021 8:45:00 PM 6.46 43.628 0.081 7.82 220.35 0.19
11/8/2021 9:00:00 PM 6.43 43.574 0.081 7.81 165.32 0.19
11/8/2021 9:15:00 PM 6.39 43.502 0.081 7.8 258.22 0.19
11/8/2021 9:30:00 PM 6.35 43.43 0.081 7.8 232.64 0.19
11/8/2021 9:45:00 PM 6.32 43.376 0.081 7.79 228.25 0.19
11/8/2021 10:00:00 PM 6.29 43.322 0.081 7.79 235.77 0.19
11/8/2021 10:15:00 PM 6.26 43.268 0.081 7.79 234.89 0.19
11/8/2021 10:30:00 PM 6.22 43.196 0.081 7.79 222.57 0.19
11/8/2021 10:45:00 PM 6.2 43.16 0.081 7.8 224.63 0.19
11/8/2021 11:00:00 PM 6.17 43.106 0.081 7.8 222.71 0.19
11/8/2021 11:15:00 PM 6.15 43.07 0.081 7.81 233.65 0.19
11/8/2021 11:30:00 PM 6.12 43.016 0.081 7.81 223.57 0.19
11/8/2021 11:45:00 PM 6.1 42.98 0.081 7.8 211.83 0.19
11/9/2021 12:00:00 AM 6.08 42.944 0.081 7.8 205.99 0.19
11/9/2021 12:15:00 AM 6.06 42.908 0.082 7.8 218.03 0.19
11/9/2021 12:30:00 AM 6.04 42.872 0.082 7.8 225.89 0.19
11/9/2021 12:45:00 AM 6.02 42.836 0.082 7.79 188.09 0.19
11/9/2021 1:00:00 AM 6 42.8 0.082 7.79 204.83 0.19
11/9/2021 1:15:00 AM 5.98 42.764 0.082 7.78 201.65 0.19
11/9/2021 1:30:00 AM 5.96 42.728 0.081 7.77 186.98 0.19
11/9/2021 1:45:00 AM 5.94 42.692 0.081 7.78 231.29 0.19
11/9/2021 2:00:00 AM 5.92 42.656 0.082 7.78 247.65 0.19
11/9/2021 2:15:00 AM 5.9 42.62 0.081 7.8 259.62 0.19
11/9/2021 2:30:00 AM 5.88 42.584 0.081 7.79 245.01 0.19
11/9/2021 2:45:00 AM 5.85 42.53 0.081 7.8 255.93 0.19
11/9/2021 3:00:00 AM 5.83 42.494 0.081 7.8 246.09 0.19
11/9/2021 3:15:00 AM 5.81 42.458 0.081 7.8 243.15 0.19
11/9/2021 3:30:00 AM 5.8 42.44 0.081 7.81 213.53 0.19
11/9/2021 3:45:00 AM 5.77 42.386 0.081 7.79 204.39 0.19
11/9/2021 4:00:00 AM 5.76 42.368 0.081 7.79 215.71 0.19
11/9/2021 4:15:00 AM 5.74 42.332 0.081 7.78 194.73 0.19
11/9/2021 4:30:00 AM 5.72 42.296 0.081 7.78 221.09 0.19
11/9/2021 4:45:00 AM 5.7 42.26 0.081 7.79 245 0.19
11/9/2021 5:00:00 AM 5.69 42.242 0.081 7.79 243.73 0.19
11/9/2021 5:15:00 AM 5.67 42.206 0.081 7.78 235.74 0.19
11/9/2021 5:30:00 AM 5.66 42.188 0.081 7.79 264.2 0.19
11/9/2021 5:45:00 AM 5.64 42.152 0.081 7.8 247.44 0.19
11/9/2021 6:00:00 AM 5.63 42.134 0.081 7.81 245.45 0.19
11/9/2021 6:15:00 AM 5.61 42.098 0.081 7.78 209.36 0.19
11/9/2021 6:30:00 AM 5.6 42.08 0.081 7.79 212.65 0.19
11/9/2021 6:45:00 AM 5.59 42.062 0.081 7.81 221.57 0.19
11/9/2021 7:00:00 AM 5.58 42.044 0.081 7.79 216.83 0.19
11/9/2021 7:15:00 AM 5.56 42.008 0.081 7.78 213.99 0.19
11/9/2021 7:30:00 AM 5.55 41.99 0.081 7.79 197.18 0.19
11/9/2021 7:45:00 AM 5.54 41.972 0.081 7.79 167.95 0.19
11/9/2021 8:00:00 AM 5.53 41.954 0.081 7.79 162.65 0.19
11/9/2021 8:15:00 AM 5.52 41.936 0.081 7.8 249.34 0.19
11/9/2021 8:30:00 AM 5.51 41.918 0.081 7.8 250.91 0.19
11/9/2021 8:45:00 AM 5.51 41.918 0.081 7.81 192.11 0.19
11/9/2021 9:00:00 AM 5.51 41.918 0.081 7.81 205.58 0.19
11/9/2021 9:15:00 AM 5.51 41.918 0.081 7.81 197.65 0.19
11/9/2021 9:30:00 AM 5.52 41.936 0.081 7.81 203.53 0.19
11/9/2021 9:45:00 AM 5.54 41.972 0.081 7.8 204.7 0.19
11/9/2021 10:00:00 AM 5.57 42.026 0.081 7.81 166.78 0.19
11/9/2021 10:15:00 AM 5.61 42.098 0.081 7.82 165.04 0.19
11/9/2021 10:30:00 AM 5.66 42.188 0.081 7.83 138.91 0.19
11/9/2021 10:45:00 AM 5.73 42.314 0.081 7.83 181.51 0.19
11/9/2021 11:00:00 AM 5.79 42.422 0.08 7.83 155.06 0.19
11/9/2021 11:15:00 AM 5.87 42.566 0.081 7.84 177.63 0.19
11/9/2021 11:30:00 AM 5.95 42.71 0.081 7.84 178.06 0.19
11/9/2021 11:45:00 AM 6.04 42.872 0.081 7.84 180.29 0.19
11/9/2021 12:00:00 PM 6.13 43.034 0.08 7.85 193.16 0.19
11/9/2021 12:15:00 PM 6.22 43.196 0.08 7.86 220.12 0.19
11/9/2021 12:30:00 PM 6.32 43.376 0.081 7.86 214.19 0.19
11/9/2021 12:45:00 PM 6.41 43.538 0.081 7.87 201.63 0.19
11/9/2021 1:00:00 PM 6.5 43.7 0.081 7.87 197.53 0.19
11/9/2021 1:15:00 PM 6.59 43.862 0.081 7.86 199.76 0.19
11/9/2021 1:30:00 PM 6.68 44.024 0.08 7.88 197.21 0.19
11/9/2021 1:45:00 PM 6.76 44.168 0.08 7.88 182.64 0.19
11/9/2021 2:00:00 PM 6.83 44.294 0.08 7.87 174.99 0.19
11/9/2021 2:15:00 PM 6.91 44.438 0.081 7.88 188.42 0.19
11/9/2021 2:30:00 PM 6.97 44.546 0.081 7.89 211.83 0.19
11/9/2021 2:45:00 PM 7.04 44.672 0.081 7.89 153.86 0.18
11/9/2021 3:00:00 PM 7.1 44.78 0.081 7.89 193.23 0.18
11/9/2021 3:15:00 PM 7.16 44.888 0.081 7.89 197.61 0.18
11/9/2021 3:30:00 PM 7.21 44.978 0.081 7.89 205.62 0.18
11/9/2021 3:45:00 PM 7.25 45.05 0.08 7.89 209.73 0.18
11/9/2021 4:00:00 PM 7.29 45.122 0.081 7.89 213.68 0.18
11/9/2021 4:15:00 PM 7.32 45.176 0.08 7.89 206.06 0.18
11/9/2021 4:30:00 PM 7.35 45.23 0.081 7.9 225.19 0.18
11/9/2021 4:45:00 PM 7.36 45.248 0.081 7.89 229.91 0.18
11/9/2021 5:00:00 PM 7.38 45.284 0.081 7.89 211.69 0.18
11/9/2021 5:15:00 PM 7.38 45.284 0.081 7.89 185.1 0.18
11/9/2021 5:30:00 PM 7.39 45.302 0.081 7.89 218.92 0.18
11/9/2021 5:45:00 PM 7.39 45.302 0.081 7.89 215.9 0.18
11/9/2021 6:00:00 PM 7.39 45.302 0.08 7.89 217.62 0.18
11/9/2021 6:15:00 PM 7.39 45.302 0.08 7.9 216.42 0.18
11/9/2021 6:30:00 PM 7.39 45.302 0.081 7.89 199.85 0.18
11/9/2021 6:45:00 PM 7.39 45.302 0.081 7.89 201.25 0.18
11/9/2021 7:00:00 PM 7.4 45.32 0.08 7.87 221.46 0.18
11/9/2021 7:15:00 PM 7.4 45.32 0.081 7.87 212.89 0.18
11/9/2021 7:30:00 PM 7.4 45.32 0.08 7.89 217.31 0.18
11/9/2021 7:45:00 PM 7.39 45.302 0.081 7.88 218.8 0.18
11/9/2021 8:00:00 PM 7.39 45.302 0.081 7.88 221.22 0.18
11/9/2021 8:15:00 PM 7.39 45.302 0.081 7.87 224.64 0.18
11/9/2021 8:30:00 PM 7.38 45.284 0.081 7.89 176.67 0.18
11/9/2021 8:45:00 PM 7.38 45.284 0.081 7.89 249.49 0.18
11/9/2021 9:00:00 PM 7.37 45.266 0.081 7.89 199.73 0.18
11/9/2021 9:15:00 PM 7.37 45.266 0.081 7.88 187.74 0.18
11/9/2021 9:30:00 PM 7.36 45.248 0.081 7.89 123.78 0.18
11/9/2021 9:45:00 PM 7.36 45.248 0.081 7.88 123.39 0.18
11/9/2021 10:00:00 PM 7.35 45.23 0.081 7.88 130.35 0.18
11/9/2021 10:15:00 PM 7.35 45.23 0.08 7.87 130.49 0.18
11/9/2021 10:30:00 PM 7.34 45.212 0.081 7.88 119.04 0.18
11/9/2021 10:45:00 PM 7.33 45.194 0.08 7.87 138.96 0.18
11/9/2021 11:00:00 PM 7.32 45.176 0.08 7.87 165.25 0.18
11/9/2021 11:15:00 PM 7.31 45.158 0.08 7.88 168.49 0.18
11/9/2021 11:30:00 PM 7.3 45.14 0.081 7.87 165.14 0.18
11/9/2021 11:45:00 PM 7.29 45.122 0.081 7.87 171.74 0.18
11/10/2021 12:00:00 AM 7.27 45.086 0.08 7.87 176.49 0.18
11/10/2021 12:15:00 AM 7.25 45.05 0.08 7.87 179.72 0.18
11/10/2021 12:30:00 AM 7.23 45.014 0.08 7.88 198.99 0.18
11/10/2021 12:45:00 AM 7.21 44.978 0.08 7.88 204.52 0.18
11/10/2021 1:00:00 AM 7.19 44.942 0.08 7.87 181.43 0.18
11/10/2021 1:15:00 AM 7.16 44.888 0.08 7.87 176.48 0.18
11/10/2021 1:30:00 AM 7.14 44.852 0.08 7.87 176.86 0.18
11/10/2021 1:45:00 AM 7.12 44.816 0.081 7.87 176.56 0.18
11/10/2021 2:00:00 AM 7.1 44.78 0.08 7.87 176.72 0.18
11/10/2021 2:15:00 AM 7.07 44.726 0.08 7.86 174.21 0.18
11/10/2021 2:30:00 AM 7.05 44.69 0.08 7.86 169.8 0.18
11/10/2021 2:45:00 AM 7.03 44.654 0.08 7.87 168.18 0.18
11/10/2021 3:00:00 AM 7.01 44.618 0.08 7.86 168.15 0.18
11/10/2021 3:15:00 AM 6.98 44.564 0.08 7.85 197.71 0.18
11/10/2021 3:30:00 AM 6.96 44.528 0.08 7.86 202.2 0.18
11/10/2021 3:45:00 AM 6.94 44.492 0.08 7.86 201.79 0.18
11/10/2021 4:00:00 AM 6.92 44.456 0.08 7.86 205.77 0.18
11/10/2021 4:15:00 AM 6.89 44.402 0.08 7.86 205.42 0.18
11/10/2021 4:30:00 AM 6.88 44.384 0.08 7.85 183.07 0.18
11/10/2021 4:45:00 AM 6.85 44.33 0.08 7.84 182.11 0.18
11/10/2021 5:00:00 AM 6.84 44.312 0.08 7.83 184.68 0.18
11/10/2021 5:15:00 AM 6.82 44.276 0.08 7.83 181.11 0.18
11/10/2021 5:30:00 AM 6.8 44.24 0.08 7.82 180.83 0.18
11/10/2021 5:45:00 AM 6.79 44.222 0.08 7.81 206.71 0.18
11/10/2021 6:00:00 AM 6.77 44.186 0.08 7.81 202.57 0.18
11/10/2021 6:15:00 AM 6.76 44.168 0.08 7.81 202.91 0.18
11/10/2021 6:30:00 AM 6.76 44.168 0.08 7.82 202.77 0.18
11/10/2021 6:45:00 AM 6.75 44.15 0.08 7.83 201.65 0.18
11/10/2021 7:00:00 AM 6.75 44.15 0.08 7.85 201.56 0.18
11/10/2021 7:15:00 AM 6.76 44.168 0.08 7.86 202.45 0.18
11/10/2021 7:30:00 AM 6.76 44.168 0.08 7.88 203.84 0.18
11/10/2021 7:45:00 AM 6.77 44.186 0.08 7.85 203.78 0.18
11/10/2021 8:00:00 AM 6.78 44.204 0.08 7.82 202.95 0.18
11/10/2021 8:15:00 AM 6.79 44.222 0.08 7.81 209.45 0.18
11/10/2021 8:30:00 AM 6.8 44.24 0.08 7.81 203.67 0.18
11/10/2021 8:45:00 AM 6.82 44.276 0.08 7.8 202.88 0.18
11/10/2021 9:00:00 AM 6.83 44.294 0.08 7.8 204.78 0.18
11/10/2021 9:15:00 AM 6.85 44.33 0.08 7.8 204.55 0.18
11/10/2021 9:30:00 AM 6.86 44.348 0.08 7.78 208.66 0.18
11/10/2021 9:45:00 AM 6.88 44.384 0.08 7.76 206.01 0.18
11/10/2021 10:00:00 AM 6.89 44.402 0.08 7.77 207.12 0.18
11/10/2021 10:15:00 AM 6.91 44.438 0.08 7.77 205.97 0.18
11/10/2021 10:30:00 AM 6.93 44.474 0.08 7.76 205.91 0.18
11/10/2021 10:45:00 AM 6.95 44.51 0.08 7.74 205.68 0.18
11/10/2021 11:00:00 AM 6.99 44.582 0.081 7.74 205.55 0.18
11/10/2021 11:15:00 AM 7.03 44.654 0.081 7.74 206.07 0.18
11/10/2021 11:30:00 AM 7.07 44.726 0.08 7.74 206.39 0.18
11/10/2021 11:45:00 AM 7.13 44.834 0.081 7.75 202.98 0.18
11/10/2021 12:00:00 PM 7.18 44.924 0.081 7.74 203.43 0.18
11/10/2021 12:15:00 PM 7.24 45.032 0.081 7.75 203.06 0.18
11/10/2021 12:30:00 PM 7.3 45.14 0.08 7.76 203.89 0.18
11/10/2021 12:45:00 PM 7.37 45.266 0.081 7.77 203.42 0.18
11/10/2021 1:00:00 PM 7.45 45.41 0.08 7.75 203.71 0.18
11/10/2021 1:15:00 PM 7.53 45.554 0.08 7.75 204.35 0.18
11/10/2021 1:30:00 PM 7.61 45.698 0.081 7.75 194.41 0.18
11/10/2021 1:45:00 PM 7.69 45.842 0.081 7.75 194.57 0.18
11/10/2021 2:00:00 PM 7.77 45.986 0.081 7.78 194.42 0.18
11/10/2021 2:15:00 PM 7.84 46.112 0.081 7.77 194.39 0.18
11/10/2021 2:30:00 PM 7.9 46.22 0.081 7.78 203.98 0.18
11/10/2021 2:45:00 PM 7.95 46.31 0.081 7.76 194.52 0.18
11/10/2021 3:00:00 PM 8 46.4 0.081 7.77 191.89 0.17
11/10/2021 3:15:00 PM 8.03 46.454 0.081 7.77 192.52 0.18
11/10/2021 3:30:00 PM 8.07 46.526 0.081 7.76 191.89 0.17
11/10/2021 3:45:00 PM 8.09 46.562 0.081 7.74 190.77 0.17
11/10/2021 4:00:00 PM 8.11 46.598 0.081 7.74 189.74 0.17
11/10/2021 4:15:00 PM 8.12 46.616 0.081 7.73 190.71 0.17
11/10/2021 4:30:00 PM 8.12 46.616 0.081 7.72 190.74 0.17
11/10/2021 4:45:00 PM 8.11 46.598 0.081 7.7 190.38 0.17
11/10/2021 5:00:00 PM 8.1 46.58 0.081 7.71 191.1 0.17
11/10/2021 5:15:00 PM 8.08 46.544 0.081 7.71 197.83 0.17
11/10/2021 5:30:00 PM 8.06 46.508 0.081 7.7 196.88 0.17
11/10/2021 5:45:00 PM 8.03 46.454 0.081 7.69 196.21 0.17
11/10/2021 6:00:00 PM 8 46.4 0.081 7.69 193.43 0.17
11/10/2021 6:15:00 PM 7.97 46.346 0.081 7.68 192.85 0.17
11/10/2021 6:30:00 PM 7.93 46.274 0.081 7.68 192.39 0.17
11/10/2021 6:45:00 PM 7.9 46.22 0.081 7.68 192.41 0.17
11/10/2021 7:00:00 PM 7.87 46.166 0.081 7.69 192.01 0.17
11/10/2021 7:15:00 PM 7.85 46.13 0.081 7.69 187.79 0.17
11/10/2021 7:30:00 PM 7.82 46.076 0.081 7.69 187.61 0.17
11/10/2021 7:45:00 PM 7.8 46.04 0.081 7.68 185.37 0.17
11/10/2021 8:00:00 PM 7.78 46.004 0.081 7.7 184.34 0.17
11/10/2021 8:15:00 PM 7.76 45.968 0.081 7.71 183.73 0.17
11/10/2021 8:30:00 PM 7.73 45.914 0.081 7.69 179.96 0.17
11/10/2021 8:45:00 PM 7.71 45.878 0.081 7.7 185.27 0.17
11/10/2021 9:00:00 PM 7.68 45.824 0.081 7.7 185.84 0.17
11/10/2021 9:15:00 PM 7.65 45.77 0.081 7.7 168.84 0.17
11/10/2021 9:30:00 PM 7.62 45.716 0.081 7.7 170.09 0.17
11/10/2021 9:45:00 PM 7.59 45.662 0.081 7.7 170.37 0.17
11/10/2021 10:00:00 PM 7.55 45.59 0.081 7.7 170.18 0.17
11/10/2021 10:15:00 PM 7.52 45.536 0.081 7.69 170.2 0.17
11/10/2021 10:30:00 PM 7.49 45.482 0.081 7.69 169.96 0.17
11/10/2021 10:45:00 PM 7.46 45.428 0.081 7.7 172.8 0.17
11/10/2021 11:00:00 PM 7.42 45.356 0.081 7.7 172.75 0.17
11/10/2021 11:15:00 PM 7.39 45.302 0.081 7.7 166.46 0.17
11/10/2021 11:30:00 PM 7.36 45.248 0.081 7.69 164.83 0.17
11/10/2021 11:45:00 PM 7.33 45.194 0.082 7.69 164.35 0.17
11/11/2021 12:00:00 AM 7.3 45.14 0.081 7.67 183.1 0.17
11/11/2021 12:15:00 AM 7.26 45.068 0.082 7.67 181.22 0.18
11/11/2021 12:30:00 AM 7.23 45.014 0.081 7.68 180.59 0.18
11/11/2021 12:45:00 AM 7.19 44.942 0.081 7.68 179.49 0.18
11/11/2021 1:00:00 AM 7.16 44.888 0.081 7.69 177.1 0.18
11/11/2021 1:15:00 AM 7.12 44.816 0.081 7.68 168.95 0.18
11/11/2021 1:30:00 AM 7.08 44.744 0.081 7.68 168.43 0.18
11/11/2021 1:45:00 AM 7.04 44.672 0.081 7.67 169 0.18
11/11/2021 2:00:00 AM 7 44.6 0.081 7.67 170.38 0.18
11/11/2021 2:15:00 AM 6.95 44.51 0.081 7.67 170.39 0.18
11/11/2021 2:30:00 AM 6.91 44.438 0.081 7.66 175.52 0.18
11/11/2021 2:45:00 AM 6.87 44.366 0.081 7.65 175.51 0.18
11/11/2021 3:00:00 AM 6.83 44.294 0.082 7.65 176.06 0.18
11/11/2021 3:15:00 AM 6.79 44.222 0.081 7.65 177.33 0.18
11/11/2021 3:30:00 AM 6.75 44.15 0.081 7.65 181.56 0.18
11/11/2021 3:45:00 AM 6.71 44.078 0.082 7.65 181.26 0.18
11/11/2021 4:00:00 AM 6.67 44.006 0.082 7.66 168.17 0.18
11/11/2021 4:15:00 AM 6.64 43.952 0.082 7.66 167.39 0.18
11/11/2021 4:30:00 AM 6.6 43.88 0.082 7.65 167.41 0.18
11/11/2021 4:45:00 AM 6.56 43.808 0.082 7.65 166.83 0.18
11/11/2021 5:00:00 AM 6.53 43.754 0.082 7.65 164.56 0.18
11/11/2021 5:15:00 AM 6.5 43.7 0.082 7.65 164.59 0.18
11/11/2021 5:30:00 AM 6.47 43.646 0.082 7.64 164.04 0.18
11/11/2021 5:45:00 AM 6.44 43.592 0.082 7.64 168.41 0.18
11/11/2021 6:00:00 AM 6.41 43.538 0.082 7.65 166.81 0.18
11/11/2021 6:15:00 AM 6.39 43.502 0.082 7.65 166.85 0.18
11/11/2021 6:30:00 AM 6.36 43.448 0.082 7.65 166.5 0.18
11/11/2021 6:45:00 AM 6.34 43.412 0.082 7.65 172.71 0.18
11/11/2021 7:00:00 AM 6.32 43.376 0.082 7.65 170.52 0.18
11/11/2021 7:15:00 AM 6.3 43.34 0.082 7.64 169.78 0.18
11/11/2021 7:30:00 AM 6.28 43.304 0.082 7.65 169.55 0.19
11/11/2021 7:45:00 AM 6.27 43.286 0.082 7.65 168.87 0.18
11/11/2021 8:00:00 AM 6.25 43.25 0.082 7.65 196.47 0.18
11/11/2021 8:15:00 AM 6.24 43.232 0.082 7.65 155.16 0.19
11/11/2021 8:30:00 AM 6.23 43.214 0.082 7.65 142.91 0.19
11/11/2021 8:45:00 AM 6.23 43.214 0.082 7.65 142.85 0.19
11/11/2021 9:00:00 AM 6.23 43.214 0.082 7.65 142.76 0.19
11/11/2021 9:15:00 AM 6.23 43.214 0.082 7.66 143.56 0.19
11/11/2021 9:30:00 AM 6.23 43.214 0.082 7.67 141.45 0.19
11/11/2021 9:45:00 AM 6.24 43.232 0.082 7.67 141.21 0.19
11/11/2021 10:00:00 AM 6.26 43.268 0.082 7.67 141.42 0.18
11/11/2021 10:15:00 AM 6.28 43.304 0.082 7.67 135 0.19
11/11/2021 10:30:00 AM 6.31 43.358 0.082 7.68 134.99 0.19
11/11/2021 10:45:00 AM 6.35 43.43 0.082 7.68 134.95 0.19
11/11/2021 11:00:00 AM 6.39 43.502 0.082 7.68 135.08 0.19
11/11/2021 11:15:00 AM 6.44 43.592 0.082 7.68 134.99 0.19
11/11/2021 11:30:00 AM 6.49 43.682 0.082 7.69 132.6 0.19
11/11/2021 11:45:00 AM 6.54 43.772 0.082 7.69 132.08 0.18
11/11/2021 12:00:00 PM 6.6 43.88 0.082 7.7 132.87 0.18
11/11/2021 12:15:00 PM 6.66 43.988 0.082 7.71 133.01 0.18
11/11/2021 12:30:00 PM 6.73 44.114 0.082 7.71 133.49 0.18
11/11/2021 12:45:00 PM 6.8 44.24 0.082 7.7 132.99 0.18
11/11/2021 1:00:00 PM 6.87 44.366 0.082 7.7 133.5 0.18
11/11/2021 1:15:00 PM 6.95 44.51 0.082 7.7 138.61 0.18
11/11/2021 1:30:00 PM 7.02 44.636 0.082 7.71 138.46 0.18
11/11/2021 1:45:00 PM 7.1 44.78 0.082 7.71 133.5 0.18
11/11/2021 2:00:00 PM 7.17 44.906 0.082 7.71 135.53 0.18
11/11/2021 2:15:00 PM 7.23 45.014 0.082 7.71 136.02 0.18
11/11/2021 2:30:00 PM 7.3 45.14 0.082 7.71 136.16 0.18
11/11/2021 2:45:00 PM 7.35 45.23 0.082 7.71 136.22 0.18
11/11/2021 3:00:00 PM 7.4 45.32 0.082 7.7 135.9 0.18
11/11/2021 3:15:00 PM 7.45 45.41 0.083 7.7 136.13 0.18
11/11/2021 3:30:00 PM 7.49 45.482 0.083 7.7 135.35 0.18
11/11/2021 3:45:00 PM 7.52 45.536 0.083 7.7 141.03 0.18
11/11/2021 4:00:00 PM 7.54 45.572 0.083 7.71 135.99 0.18
11/11/2021 4:15:00 PM 7.57 45.626 0.083 7.71 135.94 0.18
11/11/2021 4:30:00 PM 7.58 45.644 0.083 7.7 135.21 0.18
11/11/2021 4:45:00 PM 7.6 45.68 0.083 7.7 134.91 0.18
11/11/2021 5:00:00 PM 7.6 45.68 0.083 7.69 134.43 0.17
11/11/2021 5:15:00 PM 7.6 45.68 0.083 7.69 134.25 0.18
11/11/2021 5:30:00 PM 7.6 45.68 0.083 7.69 134.41 0.17
11/11/2021 5:45:00 PM 7.59 45.662 0.083 7.69 134.28 0.17
11/11/2021 6:00:00 PM 7.58 45.644 0.083 7.68 134.25 0.17
11/11/2021 6:15:00 PM 7.56 45.608 0.083 7.68 133.75 0.17
11/11/2021 6:30:00 PM 7.54 45.572 0.083 7.68 133.43 0.17
11/11/2021 6:45:00 PM 7.52 45.536 0.083 7.69 133.82 0.17
11/11/2021 7:00:00 PM 7.5 45.5 0.083 7.69 133.74 0.17
11/11/2021 7:15:00 PM 7.47 45.446 0.083 7.68 133.81 0.17
11/11/2021 7:30:00 PM 7.45 45.41 0.083 7.69 133.55 0.17
11/11/2021 7:45:00 PM 7.43 45.374 0.083 7.68 133.41 0.17
11/11/2021 8:00:00 PM 7.41 45.338 0.083 7.69 134 0.17
11/11/2021 8:15:00 PM 7.39 45.302 0.083 7.69 153.69 0.17
11/11/2021 8:30:00 PM 7.38 45.284 0.083 7.69 152.34 0.17
11/11/2021 8:45:00 PM 7.36 45.248 0.083 7.69 152.44 0.17
11/11/2021 9:00:00 PM 7.35 45.23 0.083 7.7 152.89 0.17
11/11/2021 9:15:00 PM 7.34 45.212 0.083 7.7 152.6 0.18
11/11/2021 9:30:00 PM 7.33 45.194 0.083 7.7 152.22 0.17
11/11/2021 9:45:00 PM 7.32 45.176 0.083 7.69 152.52 0.18
11/11/2021 10:00:00 PM 7.32 45.176 0.083 7.68 152.97 0.17
11/11/2021 10:15:00 PM 7.31 45.158 0.083 7.68 151.77 0.18
11/11/2021 10:30:00 PM 7.31 45.158 0.083 7.68 152.06 0.18
11/11/2021 10:45:00 PM 7.3 45.14 0.083 7.68 152.01 0.18
11/11/2021 11:00:00 PM 7.3 45.14 0.083 7.67 152 0.18
11/11/2021 11:15:00 PM 7.29 45.122 0.083 7.68 151.86 0.18
11/11/2021 11:30:00 PM 7.29 45.122 0.083 7.68 152.19 0.17
11/11/2021 11:45:00 PM 7.29 45.122 0.083 7.67 152.12 0.17
11/12/2021 12:00:00 AM 7.29 45.122 0.083 7.67 152.26 0.18
11/12/2021 12:15:00 AM 7.29 45.122 0.083 7.68 151.75 0.17
11/12/2021 12:30:00 AM 7.3 45.14 0.083 7.68 151.75 0.17
11/12/2021 12:45:00 AM 7.3 45.14 0.083 7.68 152.09 0.18
11/12/2021 1:00:00 AM 7.31 45.158 0.083 7.68 152.08 0.18
11/12/2021 1:15:00 AM 7.32 45.176 0.083 7.69 152.31 0.18
11/12/2021 1:30:00 AM 7.33 45.194 0.083 7.69 152.19 0.17
11/12/2021 1:45:00 AM 7.34 45.212 0.083 7.69 152.05 0.17
11/12/2021 2:00:00 AM 7.35 45.23 0.083 7.69 151.81 0.17
11/12/2021 2:15:00 AM 7.36 45.248 0.083 7.69 151.7 0.17
11/12/2021 2:30:00 AM 7.37 45.266 0.083 7.68 151.83 0.17
11/12/2021 2:45:00 AM 7.39 45.302 0.083 7.68 151.8 0.17
11/12/2021 3:00:00 AM 7.41 45.338 0.083 7.68 151.75 0.17
11/12/2021 3:15:00 AM 7.42 45.356 0.083 7.69 152.37 0.17
11/12/2021 3:30:00 AM 7.44 45.392 0.083 7.69 159.57 0.17
11/12/2021 3:45:00 AM 7.46 45.428 0.083 7.69 159.26 0.17
11/12/2021 4:00:00 AM 7.49 45.482 0.083 7.69 157.97 0.17
11/12/2021 4:15:00 AM 7.51 45.518 0.083 7.69 158.49 0.17
11/12/2021 4:30:00 AM 7.53 45.554 0.083 7.69 158 0.17
11/12/2021 4:45:00 AM 7.56 45.608 0.083 7.69 156.84 0.17
11/12/2021 5:00:00 AM 7.59 45.662 0.083 7.7 156.83 0.17
11/12/2021 5:15:00 AM 7.62 45.716 0.083 7.7 156.66 0.17
11/12/2021 5:30:00 AM 7.65 45.77 0.083 7.7 156.26 0.17
11/12/2021 5:45:00 AM 7.68 45.824 0.083 7.7 156.26 0.17
11/12/2021 6:00:00 AM 7.72 45.896 0.083 7.69 155.92 0.17
11/12/2021 6:15:00 AM 7.76 45.968 0.083 7.71 155.56 0.17
11/12/2021 6:30:00 AM 7.79 46.022 0.083 7.72 155.46 0.17
11/12/2021 6:45:00 AM 7.83 46.094 0.083 7.72 155.9 0.17
11/12/2021 7:00:00 AM 7.88 46.184 0.083 7.72 156.15 0.17
11/12/2021 7:15:00 AM 7.92 46.256 0.083 7.73 156.63 0.17
11/12/2021 7:30:00 AM 7.96 46.328 0.083 7.72 156.01 0.17
11/12/2021 7:45:00 AM 8.01 46.418 0.083 7.72 156.21 0.17
11/12/2021 8:00:00 AM 8.05 46.49 0.083 7.73 154.87 0.17
11/12/2021 8:15:00 AM 8.1 46.58 0.083 7.74 162.56 0.17
11/12/2021 8:30:00 AM 8.15 46.67 0.083 7.75 155.73 0.17
11/12/2021 8:45:00 AM 8.2 46.76 0.083 7.76 157.24 0.17
11/12/2021 9:00:00 AM 8.25 46.85 0.083 7.77 156.16 0.17
11/12/2021 9:15:00 AM 8.3 46.94 0.083 7.8 155.66 0.17
11/12/2021 9:30:00 AM 8.35 47.03 0.083 7.85 155.31 0.17
11/12/2021 9:45:00 AM 8.38 47.084 0.083 7.85 194.46 0.17
11/12/2021 10:00:00 AM 8.41 47.138 0.083 7.84 154.36 0.17
11/12/2021 10:15:00 AM 8.42 47.156 0.083 7.88 193.96 0.17
11/12/2021 10:30:00 AM 8.43 47.174 0.083 7.88 154.37 0.17
11/12/2021 10:45:00 AM 8.44 47.192 0.083 7.83 153.1 0.17
11/12/2021 11:00:00 AM 8.44 47.192 0.083 7.83 152.98 0.17
11/12/2021 11:15:00 AM 8.44 47.192 0.083 7.81 151.9 0.17
11/12/2021 11:30:00 AM 8.45 47.21 0.083 7.82 151.03 0.17
11/12/2021 11:45:00 AM 8.46 47.228 0.083 7.88 151.51 0.17
11/12/2021 12:00:00 PM 8.47 47.246 0.083 7.95 153.85 0.17
11/12/2021 12:15:00 PM 8.48 47.264 0.083 7.98 154.36 0.17
11/12/2021 12:30:00 PM 8.51 47.318 0.083 8.01 154.68 0.17
11/12/2021 12:45:00 PM 8.54 47.372 0.083 8.03 154.73 0.17
11/12/2021 1:00:00 PM 8.57 47.426 0.083 8.06 155.73 0.17
11/12/2021 1:15:00 PM 8.61 47.498 0.083 8.08 156.26 0.17
11/12/2021 1:30:00 PM 8.65 47.57 0.083 8.09 156.69 0.17
11/12/2021 1:45:00 PM 8.69 47.642 0.083 8.11 157.13 0.17
11/12/2021 2:00:00 PM 8.73 47.714 0.083 8.12 157.63 0.17
11/12/2021 2:15:00 PM 8.75 47.75 0.083 8.12 158.39 0.17
11/12/2021 2:30:00 PM 8.77 47.786 0.083 8.1 157.71 0.17
11/12/2021 2:45:00 PM 8.78 47.804 0.084 8.08 162.61 0.17
11/12/2021 3:00:00 PM 8.78 47.804 0.084 8.12 160.37 0.16
11/12/2021 3:15:00 PM 8.79 47.822 0.084 8.1 160.31 0.16
11/12/2021 3:30:00 PM 8.78 47.804 0.084 8.14 160.39 0.16
11/12/2021 3:45:00 PM 8.77 47.786 0.084 8.15 158.98 0.16
11/12/2021 4:00:00 PM 8.76 47.768 0.084 8.15 159.27 0.16
11/12/2021 4:15:00 PM 8.75 47.75 0.084 8.16 159.45 0.16
11/12/2021 4:30:00 PM 8.74 47.732 0.083 8.16 159.85 0.16
11/12/2021 4:45:00 PM 8.72 47.696 0.083 8.17 159.95 0.16
11/12/2021 5:00:00 PM 8.71 47.678 0.083 8.17 163.29 0.16
11/12/2021 5:15:00 PM 8.7 47.66 0.083 8.18 161.91 0.16
11/12/2021 5:30:00 PM 8.68 47.624 0.083 8.16 165.42 0.16
11/12/2021 5:45:00 PM 8.67 47.606 0.083 8.18 162.93 0.16
11/12/2021 6:00:00 PM 8.66 47.588 0.083 8.18 163.1 0.16
11/12/2021 6:15:00 PM 8.65 47.57 0.083 8.16 162.78 0.16
11/12/2021 6:30:00 PM 8.64 47.552 0.083 8.19 163.18 0.16
11/12/2021 6:45:00 PM 8.63 47.534 0.083 8.19 162.97 0.16
11/12/2021 7:00:00 PM 8.62 47.516 0.083 8.18 165.97 0.16
11/12/2021 7:15:00 PM 8.61 47.498 0.083 8.18 165.51 0.16
11/12/2021 7:30:00 PM 8.6 47.48 0.083 8.17 165.13 0.16
11/12/2021 7:45:00 PM 8.59 47.462 0.083 8.17 165.51 0.16
11/12/2021 8:00:00 PM 8.58 47.444 0.083 8.17 165.88 0.16
11/12/2021 8:15:00 PM 8.57 47.426 0.083 8.17 165.63 0.16
11/12/2021 8:30:00 PM 8.57 47.426 0.083 8.17 163.88 0.16
11/12/2021 8:45:00 PM 8.56 47.408 0.083 8.16 164.44 0.16
11/12/2021 9:00:00 PM 8.56 47.408 0.083 8.15 164.63 0.16
11/12/2021 9:15:00 PM 8.56 47.408 0.083 8.13 164.54 0.16
11/12/2021 9:30:00 PM 8.55 47.39 0.082 8.13 164.49 0.16
11/12/2021 9:45:00 PM 8.55 47.39 0.082 8.13 164.23 0.16
11/12/2021 10:00:00 PM 8.54 47.372 0.082 8.13 164.58 0.16
11/12/2021 10:15:00 PM 8.54 47.372 0.082 8.15 164.76 0.16
11/12/2021 10:30:00 PM 8.53 47.354 0.082 8.13 164.88 0.16
11/12/2021 10:45:00 PM 8.53 47.354 0.082 8.12 164.84 0.16
11/12/2021 11:00:00 PM 8.52 47.336 0.082 8.11 164.95 0.16
11/12/2021 11:15:00 PM 8.52 47.336 0.082 8.12 164.63 0.16
11/12/2021 11:30:00 PM 8.51 47.318 0.082 8.12 164.51 0.17
11/12/2021 11:45:00 PM 8.5 47.3 0.082 8.09 165.08 0.16
11/13/2021 12:00:00 AM 8.49 47.282 0.083 8.06 165.31 0.16
11/13/2021 12:15:00 AM 8.47 47.246 0.082 8.09 165.02 0.17
11/13/2021 12:30:00 AM 8.46 47.228 0.082 8.09 165.08 0.16
11/13/2021 12:45:00 AM 8.44 47.192 0.082 8.1 165.17 0.17
11/13/2021 1:00:00 AM 8.42 47.156 0.082 7.99 165.09 0.17
11/13/2021 1:15:00 AM 8.41 47.138 0.082 8.06 168.1 0.17
11/13/2021 1:30:00 AM 8.39 47.102 0.082 8.08 160.27 0.17
11/13/2021 1:45:00 AM 8.37 47.066 0.082 8.05 160.88 0.17
11/13/2021 2:00:00 AM 8.35 47.03 0.082 8.1 160.55 0.17
11/13/2021 2:15:00 AM 8.34 47.012 0.082 8.1 160.26 0.17
11/13/2021 2:30:00 AM 8.32 46.976 0.082 8.05 159.89 0.17
11/13/2021 2:45:00 AM 8.31 46.958 0.082 8.07 169.52 0.17
11/13/2021 3:00:00 AM 8.3 46.94 0.082 8.07 163.83 0.17
11/13/2021 3:15:00 AM 8.28 46.904 0.081 8.07 163.09 0.17
11/13/2021 3:30:00 AM 8.27 46.886 0.081 8.06 163.09 0.17
11/13/2021 3:45:00 AM 8.26 46.868 0.082 8.09 163.46 0.17
11/13/2021 4:00:00 AM 8.25 46.85 0.081 8.05 161.85 0.17
11/13/2021 4:15:00 AM 8.24 46.832 0.081 8.02 161.49 0.17
11/13/2021 4:30:00 AM 8.23 46.814 0.081 8.02 160.81 0.17
11/13/2021 4:45:00 AM 8.22 46.796 0.081 8.02 160.09 0.17
11/13/2021 5:00:00 AM 8.21 46.778 0.081 8.01 159.94 0.17
11/13/2021 5:15:00 AM 8.2 46.76 0.08 8.01 164.46 0.17
11/13/2021 5:30:00 AM 8.19 46.742 0.08 8.04 164.49 0.17
11/13/2021 5:45:00 AM 8.18 46.724 0.08 8.06 163.56 0.17
11/13/2021 6:00:00 AM 8.17 46.706 0.08 8.05 162.77 0.17
11/13/2021 6:15:00 AM 8.16 46.688 0.08 8.03 163.14 0.16
11/13/2021 6:30:00 AM 8.15 46.67 0.081 7.99 162.79 0.17
11/13/2021 6:45:00 AM 8.15 46.67 0.081 8.01 162.81 0.17
11/13/2021 7:00:00 AM 8.14 46.652 0.081 8.09 162.92 0.17
11/13/2021 7:15:00 AM 8.13 46.634 0.081 8.1 163.24 0.17
11/13/2021 7:30:00 AM 8.12 46.616 0.081 8.11 163.08 0.17
11/13/2021 7:45:00 AM 8.12 46.616 0.082 8.12 162.93 0.17
11/13/2021 8:00:00 AM 8.11 46.598 0.082 8.12 163.27 0.17
11/13/2021 8:15:00 AM 8.11 46.598 0.082 8.1 163.17 0.17
11/13/2021 8:30:00 AM 8.11 46.598 0.081 8.13 162.69 0.17
11/13/2021 8:45:00 AM 8.11 46.598 0.081 8.13 162.78 0.17
11/13/2021 9:00:00 AM 8.12 46.616 0.081 8.13 163.1 0.17
11/13/2021 9:15:00 AM 8.13 46.634 0.081 8.14 163.32 0.17
11/13/2021 9:30:00 AM 8.14 46.652 0.081 8.14 163.21 0.17
11/13/2021 9:45:00 AM 8.15 46.67 0.081 8.14 163.38 0.17
11/13/2021 10:00:00 AM 8.15 46.67 0.081 8.15 163.72 0.17
11/13/2021 10:15:00 AM 8.16 46.688 0.082 8.13 164.54 0.17
11/13/2021 10:30:00 AM 8.17 46.706 0.082 8.14 164.58 0.17
11/13/2021 10:45:00 AM 8.18 46.724 0.082 8.14 164.81 0.17
11/13/2021 11:00:00 AM 8.18 46.724 0.083 8.14 165.11 0.17
11/13/2021 11:15:00 AM 8.19 46.742 0.083 8.14 165.11 0.17
11/13/2021 11:30:00 AM 8.2 46.76 0.082 8.14 165.49 0.17
11/13/2021 11:45:00 AM 8.2 46.76 0.083 8.14 165.55 0.17
11/13/2021 12:00:00 PM 8.21 46.778 0.083 8.14 165.9 0.17
11/13/2021 12:15:00 PM 8.21 46.778 0.083 8.11 166.03 0.17
11/13/2021 12:30:00 PM 8.21 46.778 0.083 8.11 166.11 0.17
11/13/2021 12:45:00 PM 8.21 46.778 0.082 8.13 166.48 0.17
11/13/2021 1:00:00 PM 8.21 46.778 0.082 8.13 166.08 0.17
11/13/2021 1:15:00 PM 8.2 46.76 0.082 8.11 166.3 0.17
11/13/2021 1:30:00 PM 8.19 46.742 0.082 8.11 166.32 0.17
11/13/2021 1:45:00 PM 8.17 46.706 0.082 8.12 166.98 0.17
11/13/2021 2:00:00 PM 8.16 46.688 0.082 8.14 167.06 0.17
11/13/2021 2:15:00 PM 8.15 46.67 0.082 8.16 167.26 0.17
11/13/2021 2:30:00 PM 8.13 46.634 0.082 8.16 167.16 0.17
11/13/2021 2:45:00 PM 8.1 46.58 0.082 8.16 167.1 0.17
11/13/2021 3:00:00 PM 8.08 46.544 0.081 8.16 166.99 0.17
11/13/2021 3:15:00 PM 8.05 46.49 0.081 8.15 167.39 0.17
11/13/2021 3:30:00 PM 8.02 46.436 0.081 8.15 167.26 0.17
11/13/2021 3:45:00 PM 7.99 46.382 0.081 8.14 167.02 0.17
11/13/2021 4:00:00 PM 7.96 46.328 0.081 8.14 167.42 0.17
11/13/2021 4:15:00 PM 7.93 46.274 0.081 8.14 167.8 0.17
11/13/2021 4:30:00 PM 7.91 46.238 0.081 8.13 168 0.17
11/13/2021 4:45:00 PM 7.89 46.202 0.081 8.13 168.15 0.17
11/13/2021 5:00:00 PM 7.86 46.148 0.081 8.14 168.14 0.17
11/13/2021 5:15:00 PM 7.84 46.112 0.08 8.13 168.27 0.17
11/13/2021 5:30:00 PM 7.81 46.058 0.08 8.11 168.32 0.17
11/13/2021 5:45:00 PM 7.78 46.004 0.08 8.11 168.31 0.17
11/13/2021 6:00:00 PM 7.76 45.968 0.08 8.11 168.55 0.17
11/13/2021 6:15:00 PM 7.74 45.932 0.08 8.11 168.51 0.17
11/13/2021 6:30:00 PM 7.72 45.896 0.079 8.11 168.74 0.17
11/13/2021 6:45:00 PM 7.7 45.86 0.079 8.11 168.77 0.17
11/13/2021 7:00:00 PM 7.68 45.824 0.079 8.11 168.37 0.17
11/13/2021 7:15:00 PM 7.66 45.788 0.079 8.11 168.67 0.17
11/13/2021 7:30:00 PM 7.63 45.734 0.079 8.11 168.54 0.17
11/13/2021 7:45:00 PM 7.61 45.698 0.079 8.1 168.76 0.17
11/13/2021 8:00:00 PM 7.59 45.662 0.079 8.11 168.76 0.17
11/13/2021 8:15:00 PM 7.56 45.608 0.079 8.1 168.55 0.17
11/13/2021 8:30:00 PM 7.54 45.572 0.079 8.11 168.48 0.17
11/13/2021 8:45:00 PM 7.52 45.536 0.079 8.11 168.62 0.17
11/13/2021 9:00:00 PM 7.5 45.5 0.079 8.1 168.97 0.17
11/13/2021 9:15:00 PM 7.48 45.464 0.079 8.1 169.03 0.17
11/13/2021 9:30:00 PM 7.47 45.446 0.079 8.1 169.2 0.17
11/13/2021 9:45:00 PM 7.45 45.41 0.079 8.1 169.25 0.17
11/13/2021 10:00:00 PM 7.44 45.392 0.079 8.1 169.36 0.17
11/13/2021 10:15:00 PM 7.43 45.374 0.079 8.1 169.47 0.17
11/13/2021 10:30:00 PM 7.42 45.356 0.079 8.09 169.64 0.17
11/13/2021 10:45:00 PM 7.41 45.338 0.079 8.07 169.68 0.17
11/13/2021 11:00:00 PM 7.4 45.32 0.079 8.06 169.75 0.17
11/13/2021 11:15:00 PM 7.4 45.32 0.079 8.06 170 0.17
11/13/2021 11:30:00 PM 7.39 45.302 0.08 8.06 169.91 0.17
11/13/2021 11:45:00 PM 7.39 45.302 0.08 8.06 169.69 0.17
11/14/2021 12:00:00 AM 7.39 45.302 0.08 8.06 170.08 0.17
11/14/2021 12:15:00 AM 7.38 45.284 0.08 8.06 170.73 0.17
11/14/2021 12:30:00 AM 7.38 45.284 0.08 8.05 170.2 0.18
11/14/2021 12:45:00 AM 7.38 45.284 0.08 8.05 170.53 0.17
11/14/2021 1:00:00 AM 7.37 45.266 0.079 8.06 170.69 0.17
11/14/2021 1:15:00 AM 7.37 45.266 0.079 8.06 170.82 0.17
11/14/2021 1:30:00 AM 7.37 45.266 0.079 8.07 170.76 0.17
11/14/2021 1:45:00 AM 7.36 45.248 0.079 8.07 171.04 0.17
11/14/2021 2:00:00 AM 7.36 45.248 0.079 8.05 171.32 0.18
11/14/2021 2:15:00 AM 7.36 45.248 0.078 8.05 171.3 0.17
11/14/2021 2:30:00 AM 7.36 45.248 0.078 8.05 177.26 0.17
11/14/2021 2:45:00 AM 7.35 45.23 0.078 8.04 192.66 0.18
11/14/2021 3:00:00 AM 7.34 45.212 0.078 8.04 153.06 0.18
11/14/2021 3:15:00 AM 7.34 45.212 0.078 8.05 152.41 0.18
11/14/2021 3:30:00 AM 7.33 45.194 0.078 8.04 152.24 0.18
11/14/2021 3:45:00 AM 7.32 45.176 0.078 8.04 152.4 0.18
11/14/2021 4:00:00 AM 7.31 45.158 0.078 8.02 152.24 0.18
11/14/2021 4:15:00 AM 7.31 45.158 0.077 8.03 152.63 0.18
11/14/2021 4:30:00 AM 7.3 45.14 0.077 8.03 153.03 0.18
11/14/2021 4:45:00 AM 7.3 45.14 0.077 8.04 153.51 0.18
11/14/2021 5:00:00 AM 7.29 45.122 0.077 8.03 153.52 0.18
11/14/2021 5:15:00 AM 7.28 45.104 0.077 8.03 153.31 0.18
11/14/2021 5:30:00 AM 7.27 45.086 0.077 8.03 152.52 0.18
11/14/2021 5:45:00 AM 7.27 45.086 0.077 8.03 152.71 0.18
11/14/2021 6:00:00 AM 7.26 45.068 0.077 8.01 152.9 0.18
11/14/2021 6:15:00 AM 7.25 45.05 0.077 8.02 152.55 0.18
11/14/2021 6:30:00 AM 7.24 45.032 0.077 8.02 162.98 0.18
11/14/2021 6:45:00 AM 7.23 45.014 0.077 8.01 162.73 0.18
11/14/2021 7:00:00 AM 7.22 44.996 0.077 8.03 162.76 0.18
11/14/2021 7:15:00 AM 7.21 44.978 0.077 8.02 162.92 0.18
11/14/2021 7:30:00 AM 7.2 44.96 0.077 8.01 162.64 0.18
11/14/2021 7:45:00 AM 7.19 44.942 0.076 8.01 162.3 0.18
11/14/2021 8:00:00 AM 7.18 44.924 0.076 8.02 162.39 0.18
11/14/2021 8:15:00 AM 7.17 44.906 0.076 8.03 162.61 0.18
11/14/2021 8:30:00 AM 7.17 44.906 0.076 8.02 162.67 0.18
11/14/2021 8:45:00 AM 7.17 44.906 0.076 8.02 162.91 0.18
11/14/2021 9:00:00 AM 7.17 44.906 0.076 8.03 162.75 0.18
11/14/2021 9:15:00 AM 7.16 44.888 0.077 8.05 162.81 0.18
11/14/2021 9:30:00 AM 7.17 44.906 0.076 8.03 163.02 0.18
11/14/2021 9:45:00 AM 7.17 44.906 0.077 8.03 162.77 0.18
11/14/2021 10:00:00 AM 7.19 44.942 0.076 8.04 162.86 0.18
11/14/2021 10:15:00 AM 7.21 44.978 0.076 8.03 162.68 0.18
11/14/2021 10:30:00 AM 7.24 45.032 0.076 8.03 162.61 0.18
11/14/2021 10:45:00 AM 7.27 45.086 0.076 8.03 162.36 0.18
11/14/2021 11:00:00 AM 7.3 45.14 0.076 8.04 162.91 0.18
11/14/2021 11:15:00 AM 7.33 45.194 0.076 8.04 163.39 0.18
11/14/2021 11:30:00 AM 7.36 45.248 0.076 8.03 163.25 0.17
11/14/2021 11:45:00 AM 7.39 45.302 0.076 8.03 163.85 0.18
11/14/2021 12:00:00 PM 7.42 45.356 0.076 8.03 165.69 0.17
11/14/2021 12:15:00 PM 7.45 45.41 0.076 8 168 0.17
11/14/2021 12:30:00 PM 7.47 45.446 0.076 8.02 180.15 0.17
11/14/2021 12:45:00 PM 7.5 45.5 0.075 8.01 192.77 0.18
11/14/2021 1:00:00 PM 7.53 45.554 0.075 8.02 185.05 0.18
11/14/2021 1:15:00 PM 7.56 45.608 0.075 8.01 184.6 0.17
11/14/2021 1:30:00 PM 7.59 45.662 0.075 8.01 186.68 0.17
11/14/2021 1:45:00 PM 7.61 45.698 0.075 8.01 188.06 0.17
11/14/2021 2:00:00 PM 7.63 45.734 0.075 8 187.02 0.17
11/14/2021 2:15:00 PM 7.64 45.752 0.076 8.01 184.01 0.17
11/14/2021 2:30:00 PM 7.65 45.77 0.076 8.01 183.44 0.17
11/14/2021 2:45:00 PM 7.66 45.788 0.077 7.98 183.65 0.17
11/14/2021 3:00:00 PM 7.65 45.77 0.077 8 183.02 0.17
11/14/2021 3:15:00 PM 7.65 45.77 0.076 8 183.72 0.18
11/14/2021 3:30:00 PM 7.64 45.752 0.076 7.98 183.47 0.17
11/14/2021 3:45:00 PM 7.62 45.716 0.076 7.98 184.08 0.18
11/14/2021 4:00:00 PM 7.6 45.68 0.076 7.97 184.04 0.17
11/14/2021 4:15:00 PM 7.58 45.644 0.076 8.24 183.22 0.17
11/14/2021 4:30:00 PM 7.55 45.59 0.076 8.25 183.54 0.17
11/14/2021 4:45:00 PM 7.51 45.518 0.076 8.25 184.65 0.17
11/14/2021 5:00:00 PM 7.48 45.464 0.076 8.25 184.67 0.17
11/14/2021 5:15:00 PM 7.44 45.392 0.077 8.26 183.72 0.17
11/14/2021 5:30:00 PM 7.4 45.32 0.077 8.26 184.54 0.18
11/14/2021 5:45:00 PM 7.36 45.248 0.077 8.25 185.71 0.17
11/14/2021 6:00:00 PM 7.32 45.176 0.077 8.25 183.77 0.18
11/14/2021 6:15:00 PM 7.28 45.104 0.077 8.25 183.06 0.18
11/14/2021 6:30:00 PM 7.25 45.05 0.077 8.25 183.7 0.18
11/14/2021 6:45:00 PM 7.22 44.996 0.077 8.25 184.52 0.18
11/14/2021 7:00:00 PM 7.19 44.942 0.077 8.25 185.81 0.18
11/14/2021 7:15:00 PM 7.16 44.888 0.077 8.25 185.59 0.18
11/14/2021 7:30:00 PM 7.13 44.834 0.077 8.25 183.34 0.18
11/14/2021 7:45:00 PM 7.11 44.798 0.077 8.25 183.32 0.18
11/14/2021 8:00:00 PM 7.08 44.744 0.077 8.25 207.78 0.18
11/14/2021 8:15:00 PM 7.06 44.708 0.077 8.25 179.37 0.18
11/14/2021 8:30:00 PM 7.03 44.654 0.077 8.25 179.62 0.18
11/14/2021 8:45:00 PM 7 44.6 0.077 8.25 176.9 0.18
11/14/2021 9:00:00 PM 6.97 44.546 0.078 8.24 174.22 0.18
11/14/2021 9:15:00 PM 6.94 44.492 0.079 8.25 173.4 0.18
11/14/2021 9:30:00 PM 6.91 44.438 0.078 8.24 173.17 0.18
11/14/2021 9:45:00 PM 6.87 44.366 0.078 8.25 172.52 0.18
11/14/2021 10:00:00 PM 6.84 44.312 0.079 8.24 176.2 0.18
11/14/2021 10:15:00 PM 6.82 44.276 0.078 8.24 176.34 0.18
11/14/2021 10:30:00 PM 6.79 44.222 0.078 8.24 176.59 0.18
11/14/2021 10:45:00 PM 6.77 44.186 0.078 8.24 176.36 0.18
11/14/2021 11:00:00 PM 6.75 44.15 0.077 8.24 176.52 0.18
11/14/2021 11:15:00 PM 6.73 44.114 0.077 8.24 176.45 0.18
11/14/2021 11:30:00 PM 6.71 44.078 0.077 8.24 178.84 0.18
11/14/2021 11:45:00 PM 6.69 44.042 0.078 8.24 178.41 0.18
11/15/2021 12:00:00 AM 6.68 44.024 0.079 8.24 178.72 0.18
11/15/2021 12:15:00 AM 6.66 43.988 0.078 8.23 178.07 0.18
11/15/2021 12:30:00 AM 6.65 43.97 0.078 8.23 177.72 0.18
11/15/2021 12:45:00 AM 6.64 43.952 0.078 8.23 177.6 0.18
11/15/2021 1:00:00 AM 6.63 43.934 0.078 8.23 177.34 0.18
11/15/2021 1:15:00 AM 6.62 43.916 0.077 8.23 177.37 0.18
11/15/2021 1:30:00 AM 6.61 43.898 0.077 8.23 177.7 0.18
11/15/2021 1:45:00 AM 6.61 43.898 0.077 8.24 177.38 0.18
11/15/2021 2:00:00 AM 6.61 43.898 0.078 8.23 177.56 0.18
11/15/2021 2:15:00 AM 6.6 43.88 0.078 8.23 179.5 0.18
11/15/2021 2:30:00 AM 6.6 43.88 0.078 8.24 179.48 0.19
11/15/2021 2:45:00 AM 6.6 43.88 0.078 8.24 178.6 0.18
11/15/2021 3:00:00 AM 6.59 43.862 0.079 8.24 181.36 0.18
11/15/2021 3:15:00 AM 6.59 43.862 0.079 8.24 180.4 0.19
11/15/2021 3:30:00 AM 6.58 43.844 0.079 8.24 178.28 0.19
11/15/2021 3:45:00 AM 6.58 43.844 0.079 8.24 178.31 0.18
11/15/2021 4:00:00 AM 6.57 43.826 0.079 8.24 178.07 0.19
11/15/2021 4:15:00 AM 6.57 43.826 0.079 8.24 177.92 0.19
11/15/2021 4:30:00 AM 6.56 43.808 0.079 8.24 178.12 0.18
11/15/2021 4:45:00 AM 6.56 43.808 0.079 8.24 177.93 0.19
11/15/2021 5:00:00 AM 6.55 43.79 0.08 8.24 177.86 0.18
11/15/2021 5:15:00 AM 6.55 43.79 0.08 8.24 177.74 0.19
11/15/2021 5:30:00 AM 6.55 43.79 0.08 8.24 178.32 0.18
11/15/2021 5:45:00 AM 6.55 43.79 0.08 8.24 177.97 0.19
11/15/2021 6:00:00 AM 6.55 43.79 0.08 8.24 178.24 0.19
11/15/2021 6:15:00 AM 6.55 43.79 0.08 8.24 177.95 0.18
11/15/2021 6:30:00 AM 6.55 43.79 0.08 8.24 177.6 0.19
11/15/2021 6:45:00 AM 6.54 43.772 0.08 8.24 177.53 0.19
11/15/2021 7:00:00 AM 6.54 43.772 0.081 8.24 177.93 0.19
11/15/2021 7:15:00 AM 6.53 43.754 0.081 8.25 177.8 0.19
11/15/2021 7:30:00 AM 6.52 43.736 0.081 8.25 178.05 0.19